<?xml version="1.0" encoding="UTF-8" standalone="no" ?>
<gpx xmlns="http://www.topografix.com/GPX/1/1" xmlns:xsi="http://www.w3.org/2001/XMLSchema-instance" xsi:schemaLocation="http://www.topografix.com/GPX/1/1 http://www.topografix.com/GPX/1/1/gpx.xsd" version="1.1" creator="VisuGPX - https://www.visugpx.com">
  <metadata>
    <name>Rando île des embiez(île Paul Ricard) </name>
    <desc><![CDATA[Top! ]]></desc>
  </metadata>
  <trk>
    <name><![CDATA[Rando île des embiez(île Paul Ricard) _1]]></name>
    <trkseg>
      <trkpt lat="43.07741" lon="5.78495">
        <ele>1</ele>
        <time>2022-07-28T06:54:24Z</time>
      </trkpt>
      <trkpt lat="43.07737" lon="5.78495">
        <ele>1</ele>
        <time>2022-07-28T06:54:27Z</time>
      </trkpt>
      <trkpt lat="43.07731" lon="5.78498">
        <ele>0.8</ele>
        <time>2022-07-28T06:54:31Z</time>
      </trkpt>
      <trkpt lat="43.07727" lon="5.785">
        <ele>0.2</ele>
        <time>2022-07-28T06:54:34Z</time>
      </trkpt>
      <trkpt lat="43.07716" lon="5.78514">
        <ele>-0.6</ele>
        <time>2022-07-28T06:54:46Z</time>
      </trkpt>
      <trkpt lat="43.07701" lon="5.78529">
        <ele>-0.2</ele>
        <time>2022-07-28T06:55:01Z</time>
      </trkpt>
      <trkpt lat="43.07684" lon="5.78537">
        <ele>-0.4</ele>
        <time>2022-07-28T06:55:13Z</time>
      </trkpt>
      <trkpt lat="43.07671" lon="5.78549">
        <ele>-0.4</ele>
        <time>2022-07-28T06:55:26Z</time>
      </trkpt>
      <trkpt lat="43.07667" lon="5.78555">
        <ele>-0.6</ele>
        <time>2022-07-28T06:55:31Z</time>
      </trkpt>
      <trkpt lat="43.07664" lon="5.7856">
        <ele>-1</ele>
        <time>2022-07-28T06:55:35Z</time>
      </trkpt>
      <trkpt lat="43.07663" lon="5.78561">
        <ele>-1</ele>
        <time>2022-07-28T06:55:36Z</time>
      </trkpt>
      <trkpt lat="43.07651" lon="5.78572">
        <ele>-1</ele>
        <time>2022-07-28T06:55:48Z</time>
      </trkpt>
      <trkpt lat="43.07639" lon="5.78582">
        <ele>-1.2</ele>
        <time>2022-07-28T06:56:00Z</time>
      </trkpt>
      <trkpt lat="43.07625" lon="5.78596">
        <ele>-1.4</ele>
        <time>2022-07-28T06:56:15Z</time>
      </trkpt>
      <trkpt lat="43.07624" lon="5.78596">
        <ele>-1.4</ele>
        <time>2022-07-28T06:56:16Z</time>
      </trkpt>
      <trkpt lat="43.07617" lon="5.7861">
        <ele>-1.4</ele>
        <time>2022-07-28T06:56:29Z</time>
      </trkpt>
      <trkpt lat="43.07619" lon="5.78624">
        <ele>-2</ele>
        <time>2022-07-28T06:56:40Z</time>
      </trkpt>
      <trkpt lat="43.07619" lon="5.78624">
        <ele>-2.2</ele>
        <time>2022-07-28T06:56:41Z</time>
      </trkpt>
      <trkpt lat="43.07619" lon="5.78623">
        <ele>-2.4</ele>
        <time>2022-07-28T06:56:53Z</time>
      </trkpt>
      <trkpt lat="43.07621" lon="5.78621">
        <ele>-1.8</ele>
        <time>2022-07-28T06:57:07Z</time>
      </trkpt>
      <trkpt lat="43.07622" lon="5.78622">
        <ele>-1.8</ele>
        <time>2022-07-28T06:57:26Z</time>
      </trkpt>
      <trkpt lat="43.07625" lon="5.78633">
        <ele>-2</ele>
        <time>2022-07-28T06:57:37Z</time>
      </trkpt>
      <trkpt lat="43.07632" lon="5.78653">
        <ele>-2.2</ele>
        <time>2022-07-28T06:57:53Z</time>
      </trkpt>
      <trkpt lat="43.07637" lon="5.78676">
        <ele>-2.2</ele>
        <time>2022-07-28T06:58:08Z</time>
      </trkpt>
      <trkpt lat="43.07647" lon="5.78698">
        <ele>-1.8</ele>
        <time>2022-07-28T06:58:23Z</time>
      </trkpt>
      <trkpt lat="43.07648" lon="5.78701">
        <ele>-2</ele>
        <time>2022-07-28T06:58:25Z</time>
      </trkpt>
      <trkpt lat="43.07651" lon="5.78706">
        <ele>-2.2</ele>
        <time>2022-07-28T06:58:34Z</time>
      </trkpt>
      <trkpt lat="43.07651" lon="5.78708">
        <ele>-1.6</ele>
        <time>2022-07-28T06:58:50Z</time>
      </trkpt>
      <trkpt lat="43.07652" lon="5.78708">
        <ele>-2.2</ele>
        <time>2022-07-28T06:59:08Z</time>
      </trkpt>
      <trkpt lat="43.07653" lon="5.78709">
        <ele>-1.6</ele>
        <time>2022-07-28T06:59:23Z</time>
      </trkpt>
      <trkpt lat="43.07653" lon="5.78709">
        <ele>-1</ele>
        <time>2022-07-28T06:59:29Z</time>
      </trkpt>
      <trkpt lat="43.07653" lon="5.78709">
        <ele>-2</ele>
        <time>2022-07-28T06:59:37Z</time>
      </trkpt>
      <trkpt lat="43.07654" lon="5.78709">
        <ele>-2.2</ele>
        <time>2022-07-28T06:59:40Z</time>
      </trkpt>
      <trkpt lat="43.07652" lon="5.78707">
        <ele>-1.6</ele>
        <time>2022-07-28T06:59:52Z</time>
      </trkpt>
      <trkpt lat="43.07655" lon="5.78713">
        <ele>-1.4</ele>
        <time>2022-07-28T07:00:02Z</time>
      </trkpt>
      <trkpt lat="43.07665" lon="5.78735">
        <ele>-1.4</ele>
        <time>2022-07-28T07:00:18Z</time>
      </trkpt>
      <trkpt lat="43.07675" lon="5.78755">
        <ele>-1.8</ele>
        <time>2022-07-28T07:00:32Z</time>
      </trkpt>
      <trkpt lat="43.07684" lon="5.78777">
        <ele>-1.8</ele>
        <time>2022-07-28T07:00:47Z</time>
      </trkpt>
      <trkpt lat="43.07686" lon="5.78786">
        <ele>-1.8</ele>
        <time>2022-07-28T07:00:58Z</time>
      </trkpt>
      <trkpt lat="43.07688" lon="5.78785">
        <ele>-2</ele>
        <time>2022-07-28T07:01:13Z</time>
      </trkpt>
      <trkpt lat="43.07694" lon="5.78784">
        <ele>-1.8</ele>
        <time>2022-07-28T07:01:17Z</time>
      </trkpt>
      <trkpt lat="43.07698" lon="5.78782">
        <ele>-1</ele>
        <time>2022-07-28T07:01:20Z</time>
      </trkpt>
      <trkpt lat="43.077" lon="5.7878">
        <ele>-0.8</ele>
        <time>2022-07-28T07:01:22Z</time>
      </trkpt>
      <trkpt lat="43.07712" lon="5.78766">
        <ele>3.1</ele>
        <time>2022-07-28T07:01:36Z</time>
      </trkpt>
      <trkpt lat="43.07721" lon="5.78755">
        <ele>0.2</ele>
        <time>2022-07-28T07:01:47Z</time>
      </trkpt>
      <trkpt lat="43.07726" lon="5.7875">
        <ele>-0.4</ele>
        <time>2022-07-28T07:01:53Z</time>
      </trkpt>
      <trkpt lat="43.07726" lon="5.78749">
        <ele>3.2</ele>
        <time>2022-07-28T07:01:56Z</time>
      </trkpt>
      <trkpt lat="43.07728" lon="5.78747">
        <ele>0.4</ele>
        <time>2022-07-28T07:02:03Z</time>
      </trkpt>
      <trkpt lat="43.07741" lon="5.78742">
        <ele>1</ele>
        <time>2022-07-28T07:02:17Z</time>
      </trkpt>
      <trkpt lat="43.07741" lon="5.78742">
        <ele>1.2</ele>
        <time>2022-07-28T07:02:19Z</time>
      </trkpt>
      <trkpt lat="43.07759" lon="5.7874">
        <ele>2</ele>
        <time>2022-07-28T07:02:36Z</time>
      </trkpt>
      <trkpt lat="43.07772" lon="5.78741">
        <ele>2.2</ele>
        <time>2022-07-28T07:02:46Z</time>
      </trkpt>
      <trkpt lat="43.07785" lon="5.78737">
        <ele>2.6</ele>
        <time>2022-07-28T07:02:55Z</time>
      </trkpt>
      <trkpt lat="43.07799" lon="5.78733">
        <ele>2</ele>
        <time>2022-07-28T07:03:09Z</time>
      </trkpt>
      <trkpt lat="43.07815" lon="5.78722">
        <ele>2</ele>
        <time>2022-07-28T07:03:23Z</time>
      </trkpt>
      <trkpt lat="43.07826" lon="5.78715">
        <ele>1.6</ele>
        <time>2022-07-28T07:03:33Z</time>
      </trkpt>
      <trkpt lat="43.07829" lon="5.78711">
        <ele>1.6</ele>
        <time>2022-07-28T07:03:38Z</time>
      </trkpt>
      <trkpt lat="43.07827" lon="5.78703">
        <ele>2.2</ele>
        <time>2022-07-28T07:03:43Z</time>
      </trkpt>
      <trkpt lat="43.07827" lon="5.78702">
        <ele>3</ele>
        <time>2022-07-28T07:03:48Z</time>
      </trkpt>
      <trkpt lat="43.07833" lon="5.78697">
        <ele>2.2</ele>
        <time>2022-07-28T07:03:58Z</time>
      </trkpt>
      <trkpt lat="43.07847" lon="5.7869">
        <ele>2.6</ele>
        <time>2022-07-28T07:04:11Z</time>
      </trkpt>
      <trkpt lat="43.07851" lon="5.78691">
        <ele>3.4</ele>
        <time>2022-07-28T07:04:18Z</time>
      </trkpt>
      <trkpt lat="43.07852" lon="5.78691">
        <ele>3.4</ele>
        <time>2022-07-28T07:04:19Z</time>
      </trkpt>
      <trkpt lat="43.07854" lon="5.78691">
        <ele>3.4</ele>
        <time>2022-07-28T07:04:26Z</time>
      </trkpt>
      <trkpt lat="43.07856" lon="5.78692">
        <ele>3.4</ele>
        <time>2022-07-28T07:04:32Z</time>
      </trkpt>
      <trkpt lat="43.07861" lon="5.78694">
        <ele>3.6</ele>
        <time>2022-07-28T07:04:53Z</time>
      </trkpt>
      <trkpt lat="43.07856" lon="5.78693">
        <ele>3.4</ele>
        <time>2022-07-28T07:05:08Z</time>
      </trkpt>
      <trkpt lat="43.07851" lon="5.78691">
        <ele>2.8</ele>
        <time>2022-07-28T07:05:20Z</time>
      </trkpt>
      <trkpt lat="43.0785" lon="5.7869">
        <ele>2.2</ele>
        <time>2022-07-28T07:05:27Z</time>
      </trkpt>
      <trkpt lat="43.07849" lon="5.78688">
        <ele>2</ele>
        <time>2022-07-28T07:05:32Z</time>
      </trkpt>
      <trkpt lat="43.07845" lon="5.78687">
        <ele>2</ele>
        <time>2022-07-28T07:05:44Z</time>
      </trkpt>
      <trkpt lat="43.07843" lon="5.78685">
        <ele>2.6</ele>
        <time>2022-07-28T07:06:05Z</time>
      </trkpt>
      <trkpt lat="43.0784" lon="5.78678">
        <ele>2</ele>
        <time>2022-07-28T07:06:19Z</time>
      </trkpt>
      <trkpt lat="43.0784" lon="5.78681">
        <ele>2</ele>
        <time>2022-07-28T07:06:35Z</time>
      </trkpt>
      <trkpt lat="43.07841" lon="5.78682">
        <ele>2.2</ele>
        <time>2022-07-28T07:06:50Z</time>
      </trkpt>
      <trkpt lat="43.07844" lon="5.78684">
        <ele>2.6</ele>
        <time>2022-07-28T07:07:08Z</time>
      </trkpt>
      <trkpt lat="43.07846" lon="5.78684">
        <ele>2.4</ele>
        <time>2022-07-28T07:07:24Z</time>
      </trkpt>
      <trkpt lat="43.07846" lon="5.78685">
        <ele>2.4</ele>
        <time>2022-07-28T07:07:26Z</time>
      </trkpt>
      <trkpt lat="43.07846" lon="5.78685">
        <ele>2.4</ele>
        <time>2022-07-28T07:07:39Z</time>
      </trkpt>
      <trkpt lat="43.07847" lon="5.78689">
        <ele>2.4</ele>
        <time>2022-07-28T07:07:54Z</time>
      </trkpt>
      <trkpt lat="43.07848" lon="5.78689">
        <ele>1.2</ele>
        <time>2022-07-28T07:08:00Z</time>
      </trkpt>
      <trkpt lat="43.07849" lon="5.78689">
        <ele>2.8</ele>
        <time>2022-07-28T07:08:04Z</time>
      </trkpt>
      <trkpt lat="43.0785" lon="5.7869">
        <ele>2.8</ele>
        <time>2022-07-28T07:08:08Z</time>
      </trkpt>
      <trkpt lat="43.0785" lon="5.78687">
        <ele>2.6</ele>
        <time>2022-07-28T07:08:27Z</time>
      </trkpt>
      <trkpt lat="43.0785" lon="5.78686">
        <ele>2.8</ele>
        <time>2022-07-28T07:08:28Z</time>
      </trkpt>
      <trkpt lat="43.07848" lon="5.78682">
        <ele>2.6</ele>
        <time>2022-07-28T07:08:39Z</time>
      </trkpt>
      <trkpt lat="43.07847" lon="5.78684">
        <ele>2.8</ele>
        <time>2022-07-28T07:08:53Z</time>
      </trkpt>
      <trkpt lat="43.07849" lon="5.78684">
        <ele>2.6</ele>
        <time>2022-07-28T07:09:08Z</time>
      </trkpt>
      <trkpt lat="43.07849" lon="5.78683">
        <ele>2.6</ele>
        <time>2022-07-28T07:09:21Z</time>
      </trkpt>
      <trkpt lat="43.07849" lon="5.78686">
        <ele>2.6</ele>
        <time>2022-07-28T07:09:32Z</time>
      </trkpt>
      <trkpt lat="43.07848" lon="5.78687">
        <ele>2.4</ele>
        <time>2022-07-28T07:09:46Z</time>
      </trkpt>
      <trkpt lat="43.07845" lon="5.78687">
        <ele>2.2</ele>
        <time>2022-07-28T07:10:02Z</time>
      </trkpt>
      <trkpt lat="43.07845" lon="5.78687">
        <ele>3</ele>
        <time>2022-07-28T07:10:20Z</time>
      </trkpt>
      <trkpt lat="43.07845" lon="5.78687">
        <ele>3</ele>
        <time>2022-07-28T07:10:23Z</time>
      </trkpt>
      <trkpt lat="43.07843" lon="5.78684">
        <ele>2.6</ele>
        <time>2022-07-28T07:10:34Z</time>
      </trkpt>
      <trkpt lat="43.07845" lon="5.78685">
        <ele>2.2</ele>
        <time>2022-07-28T07:10:44Z</time>
      </trkpt>
      <trkpt lat="43.07846" lon="5.78687">
        <ele>2</ele>
        <time>2022-07-28T07:11:00Z</time>
      </trkpt>
      <trkpt lat="43.07846" lon="5.78682">
        <ele>2.8</ele>
        <time>2022-07-28T07:11:13Z</time>
      </trkpt>
      <trkpt lat="43.07848" lon="5.78674">
        <ele>2.2</ele>
        <time>2022-07-28T07:11:23Z</time>
      </trkpt>
      <trkpt lat="43.07854" lon="5.78666">
        <ele>1.8</ele>
        <time>2022-07-28T07:11:35Z</time>
      </trkpt>
      <trkpt lat="43.07855" lon="5.78666">
        <ele>1.8</ele>
        <time>2022-07-28T07:11:36Z</time>
      </trkpt>
      <trkpt lat="43.0786" lon="5.7867">
        <ele>1.8</ele>
        <time>2022-07-28T07:11:43Z</time>
      </trkpt>
      <trkpt lat="43.07861" lon="5.78671">
        <ele>1.8</ele>
        <time>2022-07-28T07:11:44Z</time>
      </trkpt>
      <trkpt lat="43.07864" lon="5.78672">
        <ele>2.8</ele>
        <time>2022-07-28T07:11:48Z</time>
      </trkpt>
      <trkpt lat="43.07872" lon="5.78675">
        <ele>3.2</ele>
        <time>2022-07-28T07:11:57Z</time>
      </trkpt>
      <trkpt lat="43.07877" lon="5.78684">
        <ele>2.8</ele>
        <time>2022-07-28T07:12:07Z</time>
      </trkpt>
      <trkpt lat="43.0788" lon="5.7869">
        <ele>2.8</ele>
        <time>2022-07-28T07:12:15Z</time>
      </trkpt>
      <trkpt lat="43.0788" lon="5.78691">
        <ele>3.6</ele>
        <time>2022-07-28T07:12:19Z</time>
      </trkpt>
      <trkpt lat="43.07884" lon="5.78688">
        <ele>2</ele>
        <time>2022-07-28T07:12:31Z</time>
      </trkpt>
      <trkpt lat="43.07884" lon="5.78688">
        <ele>1.8</ele>
        <time>2022-07-28T07:12:32Z</time>
      </trkpt>
      <trkpt lat="43.07886" lon="5.78686">
        <ele>1.6</ele>
        <time>2022-07-28T07:12:41Z</time>
      </trkpt>
      <trkpt lat="43.07884" lon="5.78687">
        <ele>0.8</ele>
        <time>2022-07-28T07:12:53Z</time>
      </trkpt>
      <trkpt lat="43.0788" lon="5.7869">
        <ele>3.6</ele>
        <time>2022-07-28T07:13:00Z</time>
      </trkpt>
      <trkpt lat="43.07877" lon="5.78695">
        <ele>3.6</ele>
        <time>2022-07-28T07:13:05Z</time>
      </trkpt>
      <trkpt lat="43.07867" lon="5.78715">
        <ele>3.2</ele>
        <time>2022-07-28T07:13:20Z</time>
      </trkpt>
      <trkpt lat="43.07856" lon="5.7873">
        <ele>3.6</ele>
        <time>2022-07-28T07:13:35Z</time>
      </trkpt>
      <trkpt lat="43.07848" lon="5.78748">
        <ele>4</ele>
        <time>2022-07-28T07:13:47Z</time>
      </trkpt>
      <trkpt lat="43.07845" lon="5.78769">
        <ele>3.8</ele>
        <time>2022-07-28T07:14:00Z</time>
      </trkpt>
      <trkpt lat="43.07844" lon="5.78771">
        <ele>3.8</ele>
        <time>2022-07-28T07:14:05Z</time>
      </trkpt>
      <trkpt lat="43.07844" lon="5.78774">
        <ele>2.6</ele>
        <time>2022-07-28T07:14:11Z</time>
      </trkpt>
      <trkpt lat="43.07843" lon="5.78786">
        <ele>3</ele>
        <time>2022-07-28T07:14:24Z</time>
      </trkpt>
      <trkpt lat="43.07843" lon="5.78805">
        <ele>3</ele>
        <time>2022-07-28T07:14:40Z</time>
      </trkpt>
      <trkpt lat="43.07853" lon="5.78813">
        <ele>2.6</ele>
        <time>2022-07-28T07:14:52Z</time>
      </trkpt>
      <trkpt lat="43.07859" lon="5.78814">
        <ele>2.4</ele>
        <time>2022-07-28T07:14:57Z</time>
      </trkpt>
      <trkpt lat="43.07872" lon="5.78813">
        <ele>2.6</ele>
        <time>2022-07-28T07:15:05Z</time>
      </trkpt>
      <trkpt lat="43.07882" lon="5.78806">
        <ele>1.4</ele>
        <time>2022-07-28T07:15:17Z</time>
      </trkpt>
      <trkpt lat="43.07882" lon="5.78803">
        <ele>0.8</ele>
        <time>2022-07-28T07:15:22Z</time>
      </trkpt>
      <trkpt lat="43.0788" lon="5.78801">
        <ele>0.8</ele>
        <time>2022-07-28T07:15:26Z</time>
      </trkpt>
      <trkpt lat="43.07879" lon="5.78804">
        <ele>0.4</ele>
        <time>2022-07-28T07:15:35Z</time>
      </trkpt>
      <trkpt lat="43.07877" lon="5.78807">
        <ele>0.6</ele>
        <time>2022-07-28T07:15:38Z</time>
      </trkpt>
      <trkpt lat="43.07877" lon="5.78811">
        <ele>1</ele>
        <time>2022-07-28T07:15:42Z</time>
      </trkpt>
      <trkpt lat="43.07876" lon="5.78813">
        <ele>1.4</ele>
        <time>2022-07-28T07:15:44Z</time>
      </trkpt>
      <trkpt lat="43.07879" lon="5.78817">
        <ele>1.8</ele>
        <time>2022-07-28T07:15:51Z</time>
      </trkpt>
      <trkpt lat="43.07882" lon="5.78821">
        <ele>1.8</ele>
        <time>2022-07-28T07:15:56Z</time>
      </trkpt>
      <trkpt lat="43.07885" lon="5.78822">
        <ele>2</ele>
        <time>2022-07-28T07:15:58Z</time>
      </trkpt>
      <trkpt lat="43.07894" lon="5.78824">
        <ele>2.4</ele>
        <time>2022-07-28T07:16:04Z</time>
      </trkpt>
      <trkpt lat="43.07898" lon="5.78823">
        <ele>2.4</ele>
        <time>2022-07-28T07:16:07Z</time>
      </trkpt>
      <trkpt lat="43.07909" lon="5.7882">
        <ele>2.8</ele>
        <time>2022-07-28T07:16:17Z</time>
      </trkpt>
      <trkpt lat="43.07914" lon="5.7882">
        <ele>3.6</ele>
        <time>2022-07-28T07:16:22Z</time>
      </trkpt>
      <trkpt lat="43.07917" lon="5.7882">
        <ele>3.6</ele>
        <time>2022-07-28T07:16:31Z</time>
      </trkpt>
      <trkpt lat="43.07918" lon="5.78821">
        <ele>4.6</ele>
        <time>2022-07-28T07:16:35Z</time>
      </trkpt>
      <trkpt lat="43.07922" lon="5.78824">
        <ele>4.2</ele>
        <time>2022-07-28T07:16:42Z</time>
      </trkpt>
      <trkpt lat="43.07924" lon="5.78827">
        <ele>4</ele>
        <time>2022-07-28T07:16:45Z</time>
      </trkpt>
      <trkpt lat="43.07926" lon="5.78836">
        <ele>4.2</ele>
        <time>2022-07-28T07:16:52Z</time>
      </trkpt>
      <trkpt lat="43.07927" lon="5.78858">
        <ele>5.2</ele>
        <time>2022-07-28T07:17:06Z</time>
      </trkpt>
      <trkpt lat="43.0793" lon="5.78874">
        <ele>5</ele>
        <time>2022-07-28T07:17:17Z</time>
      </trkpt>
      <trkpt lat="43.07935" lon="5.78898">
        <ele>4.2</ele>
        <time>2022-07-28T07:17:33Z</time>
      </trkpt>
      <trkpt lat="43.07942" lon="5.78913">
        <ele>3.6</ele>
        <time>2022-07-28T07:17:45Z</time>
      </trkpt>
      <trkpt lat="43.07943" lon="5.78914">
        <ele>3.6</ele>
        <time>2022-07-28T07:17:46Z</time>
      </trkpt>
      <trkpt lat="43.07945" lon="5.78915">
        <ele>3.6</ele>
        <time>2022-07-28T07:17:51Z</time>
      </trkpt>
      <trkpt lat="43.07945" lon="5.78917">
        <ele>3.6</ele>
        <time>2022-07-28T07:17:55Z</time>
      </trkpt>
      <trkpt lat="43.07943" lon="5.78933">
        <ele>3.4</ele>
        <time>2022-07-28T07:18:05Z</time>
      </trkpt>
      <trkpt lat="43.07942" lon="5.78934">
        <ele>3.4</ele>
        <time>2022-07-28T07:18:06Z</time>
      </trkpt>
      <trkpt lat="43.07939" lon="5.78943">
        <ele>2.6</ele>
        <time>2022-07-28T07:18:12Z</time>
      </trkpt>
      <trkpt lat="43.07934" lon="5.78951">
        <ele>2</ele>
        <time>2022-07-28T07:18:19Z</time>
      </trkpt>
      <trkpt lat="43.07923" lon="5.78967">
        <ele>2.2</ele>
        <time>2022-07-28T07:18:34Z</time>
      </trkpt>
      <trkpt lat="43.07922" lon="5.7897">
        <ele>2.2</ele>
        <time>2022-07-28T07:18:39Z</time>
      </trkpt>
      <trkpt lat="43.07923" lon="5.78971">
        <ele>2</ele>
        <time>2022-07-28T07:18:43Z</time>
      </trkpt>
      <trkpt lat="43.07924" lon="5.78974">
        <ele>1.4</ele>
        <time>2022-07-28T07:18:49Z</time>
      </trkpt>
      <trkpt lat="43.07927" lon="5.7898">
        <ele>1.6</ele>
        <time>2022-07-28T07:18:55Z</time>
      </trkpt>
      <trkpt lat="43.07928" lon="5.78981">
        <ele>1.6</ele>
        <time>2022-07-28T07:18:58Z</time>
      </trkpt>
      <trkpt lat="43.07929" lon="5.78982">
        <ele>1.4</ele>
        <time>2022-07-28T07:19:07Z</time>
      </trkpt>
      <trkpt lat="43.07928" lon="5.78983">
        <ele>1</ele>
        <time>2022-07-28T07:19:21Z</time>
      </trkpt>
      <trkpt lat="43.07931" lon="5.78984">
        <ele>1.2</ele>
        <time>2022-07-28T07:19:35Z</time>
      </trkpt>
      <trkpt lat="43.07927" lon="5.7898">
        <ele>1.4</ele>
        <time>2022-07-28T07:19:44Z</time>
      </trkpt>
      <trkpt lat="43.07924" lon="5.78978">
        <ele>1.4</ele>
        <time>2022-07-28T07:19:45Z</time>
      </trkpt>
      <trkpt lat="43.07914" lon="5.78977">
        <ele>1.6</ele>
        <time>2022-07-28T07:19:53Z</time>
      </trkpt>
      <trkpt lat="43.07903" lon="5.78989">
        <ele>1.8</ele>
        <time>2022-07-28T07:20:06Z</time>
      </trkpt>
      <trkpt lat="43.07901" lon="5.7901">
        <ele>1.4</ele>
        <time>2022-07-28T07:20:18Z</time>
      </trkpt>
      <trkpt lat="43.07897" lon="5.79031">
        <ele>1.2</ele>
        <time>2022-07-28T07:20:32Z</time>
      </trkpt>
      <trkpt lat="43.07896" lon="5.79049">
        <ele>1</ele>
        <time>2022-07-28T07:20:46Z</time>
      </trkpt>
      <trkpt lat="43.07896" lon="5.79063">
        <ele>0.8</ele>
        <time>2022-07-28T07:20:58Z</time>
      </trkpt>
      <trkpt lat="43.07896" lon="5.79064">
        <ele>0.8</ele>
        <time>2022-07-28T07:20:59Z</time>
      </trkpt>
      <trkpt lat="43.07896" lon="5.79064">
        <ele>0.4</ele>
        <time>2022-07-28T07:21:01Z</time>
      </trkpt>
      <trkpt lat="43.07896" lon="5.79065">
        <ele>1.6</ele>
        <time>2022-07-28T07:21:09Z</time>
      </trkpt>
      <trkpt lat="43.07896" lon="5.79071">
        <ele>0.8</ele>
        <time>2022-07-28T07:21:21Z</time>
      </trkpt>
      <trkpt lat="43.07895" lon="5.79074">
        <ele>1</ele>
        <time>2022-07-28T07:21:23Z</time>
      </trkpt>
      <trkpt lat="43.07888" lon="5.79082">
        <ele>0.6</ele>
        <time>2022-07-28T07:21:30Z</time>
      </trkpt>
      <trkpt lat="43.07886" lon="5.79084">
        <ele>0.4</ele>
        <time>2022-07-28T07:21:32Z</time>
      </trkpt>
      <trkpt lat="43.07875" lon="5.79096">
        <ele>0.4</ele>
        <time>2022-07-28T07:21:44Z</time>
      </trkpt>
      <trkpt lat="43.07864" lon="5.79104">
        <ele>0.4</ele>
        <time>2022-07-28T07:21:57Z</time>
      </trkpt>
      <trkpt lat="43.07864" lon="5.79104">
        <ele>0.4</ele>
        <time>2022-07-28T07:21:58Z</time>
      </trkpt>
      <trkpt lat="43.07859" lon="5.79106">
        <ele>0.6</ele>
        <time>2022-07-28T07:22:07Z</time>
      </trkpt>
      <trkpt lat="43.07846" lon="5.79107">
        <ele>0.8</ele>
        <time>2022-07-28T07:22:19Z</time>
      </trkpt>
      <trkpt lat="43.07832" lon="5.7911">
        <ele>1.4</ele>
        <time>2022-07-28T07:22:34Z</time>
      </trkpt>
      <trkpt lat="43.07824" lon="5.79108">
        <ele>1.2</ele>
        <time>2022-07-28T07:22:43Z</time>
      </trkpt>
      <trkpt lat="43.07824" lon="5.79107">
        <ele>1.2</ele>
        <time>2022-07-28T07:22:44Z</time>
      </trkpt>
      <trkpt lat="43.07822" lon="5.79106">
        <ele>1.2</ele>
        <time>2022-07-28T07:22:46Z</time>
      </trkpt>
      <trkpt lat="43.07818" lon="5.79113">
        <ele>1.4</ele>
        <time>2022-07-28T07:22:51Z</time>
      </trkpt>
      <trkpt lat="43.07816" lon="5.79113">
        <ele>1.6</ele>
        <time>2022-07-28T07:22:53Z</time>
      </trkpt>
      <trkpt lat="43.07807" lon="5.79118">
        <ele>1.6</ele>
        <time>2022-07-28T07:23:02Z</time>
      </trkpt>
      <trkpt lat="43.07799" lon="5.79135">
        <ele>1.6</ele>
        <time>2022-07-28T07:23:17Z</time>
      </trkpt>
      <trkpt lat="43.07799" lon="5.79146">
        <ele>1.2</ele>
        <time>2022-07-28T07:23:25Z</time>
      </trkpt>
      <trkpt lat="43.078" lon="5.79151">
        <ele>1</ele>
        <time>2022-07-28T07:23:28Z</time>
      </trkpt>
      <trkpt lat="43.07798" lon="5.79165">
        <ele>0.6</ele>
        <time>2022-07-28T07:23:37Z</time>
      </trkpt>
      <trkpt lat="43.07797" lon="5.7917">
        <ele>0.8</ele>
        <time>2022-07-28T07:23:40Z</time>
      </trkpt>
      <trkpt lat="43.07794" lon="5.79174">
        <ele>0.4</ele>
        <time>2022-07-28T07:23:44Z</time>
      </trkpt>
      <trkpt lat="43.07787" lon="5.79187">
        <ele>0.2</ele>
        <time>2022-07-28T07:23:53Z</time>
      </trkpt>
      <trkpt lat="43.07776" lon="5.79197">
        <ele>-0.6</ele>
        <time>2022-07-28T07:24:06Z</time>
      </trkpt>
      <trkpt lat="43.07775" lon="5.79197">
        <ele>-0.6</ele>
        <time>2022-07-28T07:24:07Z</time>
      </trkpt>
      <trkpt lat="43.07766" lon="5.79193">
        <ele>-1</ele>
        <time>2022-07-28T07:24:16Z</time>
      </trkpt>
      <trkpt lat="43.07761" lon="5.79196">
        <ele>-1.6</ele>
        <time>2022-07-28T07:24:22Z</time>
      </trkpt>
      <trkpt lat="43.07761" lon="5.79197">
        <ele>-2.2</ele>
        <time>2022-07-28T07:24:24Z</time>
      </trkpt>
      <trkpt lat="43.0776" lon="5.79197">
        <ele>-2.4</ele>
        <time>2022-07-28T07:24:26Z</time>
      </trkpt>
      <trkpt lat="43.07759" lon="5.79199">
        <ele>-1.4</ele>
        <time>2022-07-28T07:24:38Z</time>
      </trkpt>
      <trkpt lat="43.07761" lon="5.79196">
        <ele>-1.8</ele>
        <time>2022-07-28T07:24:47Z</time>
      </trkpt>
      <trkpt lat="43.0776" lon="5.79189">
        <ele>-1.6</ele>
        <time>2022-07-28T07:24:52Z</time>
      </trkpt>
      <trkpt lat="43.07758" lon="5.79185">
        <ele>-1.4</ele>
        <time>2022-07-28T07:24:55Z</time>
      </trkpt>
      <trkpt lat="43.07746" lon="5.79172">
        <ele>-2</ele>
        <time>2022-07-28T07:25:07Z</time>
      </trkpt>
      <trkpt lat="43.07732" lon="5.79156">
        <ele>-1.8</ele>
        <time>2022-07-28T07:25:22Z</time>
      </trkpt>
      <trkpt lat="43.07717" lon="5.7914">
        <ele>-1.6</ele>
        <time>2022-07-28T07:25:38Z</time>
      </trkpt>
      <trkpt lat="43.07703" lon="5.79128">
        <ele>-1.2</ele>
        <time>2022-07-28T07:25:51Z</time>
      </trkpt>
      <trkpt lat="43.0769" lon="5.79117">
        <ele>-1.4</ele>
        <time>2022-07-28T07:26:04Z</time>
      </trkpt>
      <trkpt lat="43.07678" lon="5.79114">
        <ele>-1.2</ele>
        <time>2022-07-28T07:26:16Z</time>
      </trkpt>
      <trkpt lat="43.07659" lon="5.79112">
        <ele>-1.2</ele>
        <time>2022-07-28T07:26:31Z</time>
      </trkpt>
      <trkpt lat="43.07647" lon="5.79111">
        <ele>-1.6</ele>
        <time>2022-07-28T07:26:41Z</time>
      </trkpt>
      <trkpt lat="43.07634" lon="5.7911">
        <ele>-1.8</ele>
        <time>2022-07-28T07:26:52Z</time>
      </trkpt>
      <trkpt lat="43.07624" lon="5.79111">
        <ele>-2.2</ele>
        <time>2022-07-28T07:27:00Z</time>
      </trkpt>
      <trkpt lat="43.0761" lon="5.79118">
        <ele>-2</ele>
        <time>2022-07-28T07:27:12Z</time>
      </trkpt>
      <trkpt lat="43.076" lon="5.79121">
        <ele>-2</ele>
        <time>2022-07-28T07:27:21Z</time>
      </trkpt>
      <trkpt lat="43.07591" lon="5.7912">
        <ele>-2</ele>
        <time>2022-07-28T07:27:29Z</time>
      </trkpt>
      <trkpt lat="43.07588" lon="5.79119">
        <ele>-1.8</ele>
        <time>2022-07-28T07:27:34Z</time>
      </trkpt>
      <trkpt lat="43.07587" lon="5.79119">
        <ele>-1.8</ele>
        <time>2022-07-28T07:27:35Z</time>
      </trkpt>
      <trkpt lat="43.07587" lon="5.79119">
        <ele>-2</ele>
        <time>2022-07-28T07:27:36Z</time>
      </trkpt>
      <trkpt lat="43.07584" lon="5.79119">
        <ele>-1.8</ele>
        <time>2022-07-28T07:27:47Z</time>
      </trkpt>
      <trkpt lat="43.07568" lon="5.79115">
        <ele>-2.2</ele>
        <time>2022-07-28T07:28:01Z</time>
      </trkpt>
      <trkpt lat="43.07563" lon="5.79112">
        <ele>-1.6</ele>
        <time>2022-07-28T07:28:07Z</time>
      </trkpt>
      <trkpt lat="43.07563" lon="5.79112">
        <ele>-1.6</ele>
        <time>2022-07-28T07:28:08Z</time>
      </trkpt>
      <trkpt lat="43.07561" lon="5.79109">
        <ele>-2.2</ele>
        <time>2022-07-28T07:28:16Z</time>
      </trkpt>
      <trkpt lat="43.07556" lon="5.79107">
        <ele>-2</ele>
        <time>2022-07-28T07:28:25Z</time>
      </trkpt>
      <trkpt lat="43.07542" lon="5.79101">
        <ele>-2.4</ele>
        <time>2022-07-28T07:28:39Z</time>
      </trkpt>
      <trkpt lat="43.07533" lon="5.79096">
        <ele>-2.4</ele>
        <time>2022-07-28T07:28:48Z</time>
      </trkpt>
      <trkpt lat="43.07532" lon="5.79094">
        <ele>-2.2</ele>
        <time>2022-07-28T07:28:54Z</time>
      </trkpt>
      <trkpt lat="43.07529" lon="5.79092">
        <ele>-2.2</ele>
        <time>2022-07-28T07:29:05Z</time>
      </trkpt>
      <trkpt lat="43.07522" lon="5.79087">
        <ele>-2.2</ele>
        <time>2022-07-28T07:29:13Z</time>
      </trkpt>
      <trkpt lat="43.07514" lon="5.79079">
        <ele>-2.4</ele>
        <time>2022-07-28T07:29:23Z</time>
      </trkpt>
      <trkpt lat="43.07505" lon="5.79068">
        <ele>-2.4</ele>
        <time>2022-07-28T07:29:33Z</time>
      </trkpt>
      <trkpt lat="43.07498" lon="5.79059">
        <ele>-2.2</ele>
        <time>2022-07-28T07:29:42Z</time>
      </trkpt>
      <trkpt lat="43.0749" lon="5.79048">
        <ele>-2.2</ele>
        <time>2022-07-28T07:29:53Z</time>
      </trkpt>
      <trkpt lat="43.07482" lon="5.79033">
        <ele>-2.4</ele>
        <time>2022-07-28T07:30:05Z</time>
      </trkpt>
      <trkpt lat="43.07477" lon="5.79023">
        <ele>-2.4</ele>
        <time>2022-07-28T07:30:14Z</time>
      </trkpt>
      <trkpt lat="43.07472" lon="5.79012">
        <ele>-2.6</ele>
        <time>2022-07-28T07:30:23Z</time>
      </trkpt>
      <trkpt lat="43.07472" lon="5.79005">
        <ele>-2.6</ele>
        <time>2022-07-28T07:30:30Z</time>
      </trkpt>
      <trkpt lat="43.07472" lon="5.79006">
        <ele>-2.4</ele>
        <time>2022-07-28T07:30:45Z</time>
      </trkpt>
      <trkpt lat="43.07469" lon="5.78998">
        <ele>-2.4</ele>
        <time>2022-07-28T07:30:53Z</time>
      </trkpt>
      <trkpt lat="43.07465" lon="5.78982">
        <ele>-2.4</ele>
        <time>2022-07-28T07:31:06Z</time>
      </trkpt>
      <trkpt lat="43.07465" lon="5.78978">
        <ele>-2.6</ele>
        <time>2022-07-28T07:31:12Z</time>
      </trkpt>
      <trkpt lat="43.07466" lon="5.78977">
        <ele>-2.6</ele>
        <time>2022-07-28T07:31:16Z</time>
      </trkpt>
      <trkpt lat="43.07464" lon="5.78975">
        <ele>-2.6</ele>
        <time>2022-07-28T07:31:28Z</time>
      </trkpt>
      <trkpt lat="43.07464" lon="5.78973">
        <ele>-2.6</ele>
        <time>2022-07-28T07:31:30Z</time>
      </trkpt>
      <trkpt lat="43.07461" lon="5.78959">
        <ele>-2.6</ele>
        <time>2022-07-28T07:31:39Z</time>
      </trkpt>
      <trkpt lat="43.07457" lon="5.7894">
        <ele>-2.6</ele>
        <time>2022-07-28T07:31:52Z</time>
      </trkpt>
      <trkpt lat="43.07456" lon="5.78937">
        <ele>-2</ele>
        <time>2022-07-28T07:32:00Z</time>
      </trkpt>
      <trkpt lat="43.07456" lon="5.7893">
        <ele>-2.6</ele>
        <time>2022-07-28T07:32:09Z</time>
      </trkpt>
      <trkpt lat="43.07453" lon="5.78906">
        <ele>-2.4</ele>
        <time>2022-07-28T07:32:23Z</time>
      </trkpt>
      <trkpt lat="43.07452" lon="5.78896">
        <ele>-1.8</ele>
        <time>2022-07-28T07:32:29Z</time>
      </trkpt>
      <trkpt lat="43.07452" lon="5.78894">
        <ele>-1.8</ele>
        <time>2022-07-28T07:32:30Z</time>
      </trkpt>
      <trkpt lat="43.0745" lon="5.78885">
        <ele>-1.8</ele>
        <time>2022-07-28T07:32:36Z</time>
      </trkpt>
      <trkpt lat="43.0745" lon="5.78881">
        <ele>-1.8</ele>
        <time>2022-07-28T07:32:38Z</time>
      </trkpt>
      <trkpt lat="43.07446" lon="5.78867">
        <ele>-2</ele>
        <time>2022-07-28T07:32:47Z</time>
      </trkpt>
      <trkpt lat="43.07446" lon="5.78862">
        <ele>-2</ele>
        <time>2022-07-28T07:32:51Z</time>
      </trkpt>
      <trkpt lat="43.07448" lon="5.78861">
        <ele>-2.2</ele>
        <time>2022-07-28T07:32:54Z</time>
      </trkpt>
      <trkpt lat="43.07449" lon="5.78861">
        <ele>-2.4</ele>
        <time>2022-07-28T07:32:55Z</time>
      </trkpt>
      <trkpt lat="43.07449" lon="5.78861">
        <ele>-2.8</ele>
        <time>2022-07-28T07:32:57Z</time>
      </trkpt>
      <trkpt lat="43.0745" lon="5.78862">
        <ele>-1.8</ele>
        <time>2022-07-28T07:33:03Z</time>
      </trkpt>
      <trkpt lat="43.07447" lon="5.78859">
        <ele>-2.8</ele>
        <time>2022-07-28T07:33:14Z</time>
      </trkpt>
      <trkpt lat="43.07445" lon="5.78845">
        <ele>-2.4</ele>
        <time>2022-07-28T07:33:23Z</time>
      </trkpt>
      <trkpt lat="43.07444" lon="5.7884">
        <ele>-2.6</ele>
        <time>2022-07-28T07:33:30Z</time>
      </trkpt>
      <trkpt lat="43.07447" lon="5.78838">
        <ele>-3</ele>
        <time>2022-07-28T07:33:38Z</time>
      </trkpt>
      <trkpt lat="43.07445" lon="5.78832">
        <ele>-2.6</ele>
        <time>2022-07-28T07:33:49Z</time>
      </trkpt>
      <trkpt lat="43.07442" lon="5.78816">
        <ele>-2.6</ele>
        <time>2022-07-28T07:34:00Z</time>
      </trkpt>
      <trkpt lat="43.07444" lon="5.78807">
        <ele>-2.6</ele>
        <time>2022-07-28T07:34:07Z</time>
      </trkpt>
      <trkpt lat="43.07444" lon="5.78807">
        <ele>-2.6</ele>
        <time>2022-07-28T07:34:08Z</time>
      </trkpt>
      <trkpt lat="43.07445" lon="5.78808">
        <ele>-2</ele>
        <time>2022-07-28T07:34:15Z</time>
      </trkpt>
      <trkpt lat="43.07447" lon="5.78804">
        <ele>-2.4</ele>
        <time>2022-07-28T07:34:19Z</time>
      </trkpt>
      <trkpt lat="43.07456" lon="5.78788">
        <ele>-2.4</ele>
        <time>2022-07-28T07:34:32Z</time>
      </trkpt>
      <trkpt lat="43.07454" lon="5.7878">
        <ele>-2.4</ele>
        <time>2022-07-28T07:34:41Z</time>
      </trkpt>
      <trkpt lat="43.07454" lon="5.78781">
        <ele>-2.2</ele>
        <time>2022-07-28T07:34:53Z</time>
      </trkpt>
      <trkpt lat="43.07452" lon="5.78779">
        <ele>-2.6</ele>
        <time>2022-07-28T07:35:16Z</time>
      </trkpt>
      <trkpt lat="43.07448" lon="5.78775">
        <ele>-2.6</ele>
        <time>2022-07-28T07:35:21Z</time>
      </trkpt>
      <trkpt lat="43.07443" lon="5.78773">
        <ele>-2.6</ele>
        <time>2022-07-28T07:35:26Z</time>
      </trkpt>
      <trkpt lat="43.07441" lon="5.78773">
        <ele>-1.6</ele>
        <time>2022-07-28T07:35:34Z</time>
      </trkpt>
      <trkpt lat="43.07441" lon="5.78773">
        <ele>-1.6</ele>
        <time>2022-07-28T07:35:35Z</time>
      </trkpt>
      <trkpt lat="43.07439" lon="5.78771">
        <ele>-2.2</ele>
        <time>2022-07-28T07:35:45Z</time>
      </trkpt>
      <trkpt lat="43.0744" lon="5.78769">
        <ele>-2.6</ele>
        <time>2022-07-28T07:35:54Z</time>
      </trkpt>
      <trkpt lat="43.0744" lon="5.78765">
        <ele>-2.8</ele>
        <time>2022-07-28T07:35:57Z</time>
      </trkpt>
      <trkpt lat="43.0744" lon="5.78759">
        <ele>-2.8</ele>
        <time>2022-07-28T07:36:01Z</time>
      </trkpt>
      <trkpt lat="43.07437" lon="5.78738">
        <ele>-2.6</ele>
        <time>2022-07-28T07:36:15Z</time>
      </trkpt>
      <trkpt lat="43.07433" lon="5.78723">
        <ele>-2.4</ele>
        <time>2022-07-28T07:36:27Z</time>
      </trkpt>
      <trkpt lat="43.07432" lon="5.78722">
        <ele>-2.2</ele>
        <time>2022-07-28T07:36:38Z</time>
      </trkpt>
      <trkpt lat="43.07435" lon="5.78722">
        <ele>-2.4</ele>
        <time>2022-07-28T07:36:52Z</time>
      </trkpt>
      <trkpt lat="43.07431" lon="5.78713">
        <ele>-2.4</ele>
        <time>2022-07-28T07:37:01Z</time>
      </trkpt>
      <trkpt lat="43.07421" lon="5.78711">
        <ele>-2</ele>
        <time>2022-07-28T07:37:10Z</time>
      </trkpt>
      <trkpt lat="43.07416" lon="5.78714">
        <ele>-1.6</ele>
        <time>2022-07-28T07:37:17Z</time>
      </trkpt>
      <trkpt lat="43.07416" lon="5.78714">
        <ele>-1.6</ele>
        <time>2022-07-28T07:37:18Z</time>
      </trkpt>
      <trkpt lat="43.07415" lon="5.78715">
        <ele>-1.8</ele>
        <time>2022-07-28T07:37:21Z</time>
      </trkpt>
      <trkpt lat="43.07416" lon="5.78714">
        <ele>-1</ele>
        <time>2022-07-28T07:37:33Z</time>
      </trkpt>
      <trkpt lat="43.07414" lon="5.78714">
        <ele>-1.8</ele>
        <time>2022-07-28T07:37:50Z</time>
      </trkpt>
      <trkpt lat="43.07413" lon="5.78712">
        <ele>-1.8</ele>
        <time>2022-07-28T07:38:08Z</time>
      </trkpt>
      <trkpt lat="43.07412" lon="5.78714">
        <ele>-1.6</ele>
        <time>2022-07-28T07:38:25Z</time>
      </trkpt>
      <trkpt lat="43.0741" lon="5.78715">
        <ele>-1.6</ele>
        <time>2022-07-28T07:38:44Z</time>
      </trkpt>
      <trkpt lat="43.07413" lon="5.78717">
        <ele>-1.8</ele>
        <time>2022-07-28T07:39:01Z</time>
      </trkpt>
      <trkpt lat="43.07415" lon="5.78718">
        <ele>-2.2</ele>
        <time>2022-07-28T07:39:17Z</time>
      </trkpt>
      <trkpt lat="43.07405" lon="5.78718">
        <ele>-2.2</ele>
        <time>2022-07-28T07:39:28Z</time>
      </trkpt>
      <trkpt lat="43.07388" lon="5.78709">
        <ele>-1.8</ele>
        <time>2022-07-28T07:39:43Z</time>
      </trkpt>
      <trkpt lat="43.07373" lon="5.78704">
        <ele>-1.8</ele>
        <time>2022-07-28T07:39:57Z</time>
      </trkpt>
      <trkpt lat="43.07356" lon="5.78704">
        <ele>-1.6</ele>
        <time>2022-07-28T07:40:12Z</time>
      </trkpt>
      <trkpt lat="43.07354" lon="5.78704">
        <ele>-1.6</ele>
        <time>2022-07-28T07:40:16Z</time>
      </trkpt>
      <trkpt lat="43.07352" lon="5.78705">
        <ele>-1.4</ele>
        <time>2022-07-28T07:40:23Z</time>
      </trkpt>
      <trkpt lat="43.0735" lon="5.78705">
        <ele>-1.2</ele>
        <time>2022-07-28T07:40:38Z</time>
      </trkpt>
      <trkpt lat="43.07344" lon="5.78697">
        <ele>-1.2</ele>
        <time>2022-07-28T07:40:48Z</time>
      </trkpt>
      <trkpt lat="43.07343" lon="5.78693">
        <ele>-0.6</ele>
        <time>2022-07-28T07:40:56Z</time>
      </trkpt>
      <trkpt lat="43.07343" lon="5.78692">
        <ele>-0.8</ele>
        <time>2022-07-28T07:40:59Z</time>
      </trkpt>
      <trkpt lat="43.0734" lon="5.78684">
        <ele>-1.8</ele>
        <time>2022-07-28T07:41:06Z</time>
      </trkpt>
      <trkpt lat="43.07339" lon="5.78681">
        <ele>-1.8</ele>
        <time>2022-07-28T07:41:09Z</time>
      </trkpt>
      <trkpt lat="43.07335" lon="5.78676">
        <ele>-1.2</ele>
        <time>2022-07-28T07:41:17Z</time>
      </trkpt>
      <trkpt lat="43.07334" lon="5.78674">
        <ele>-1.4</ele>
        <time>2022-07-28T07:41:21Z</time>
      </trkpt>
      <trkpt lat="43.07328" lon="5.78669">
        <ele>-1</ele>
        <time>2022-07-28T07:41:27Z</time>
      </trkpt>
      <trkpt lat="43.07324" lon="5.78664">
        <ele>-0.8</ele>
        <time>2022-07-28T07:41:33Z</time>
      </trkpt>
      <trkpt lat="43.07321" lon="5.78662">
        <ele>-0.6</ele>
        <time>2022-07-28T07:41:37Z</time>
      </trkpt>
      <trkpt lat="43.07321" lon="5.78662">
        <ele>-0.6</ele>
        <time>2022-07-28T07:41:38Z</time>
      </trkpt>
      <trkpt lat="43.07319" lon="5.78661">
        <ele>-0.4</ele>
        <time>2022-07-28T07:41:42Z</time>
      </trkpt>
      <trkpt lat="43.07318" lon="5.78661">
        <ele>-0.6</ele>
        <time>2022-07-28T07:41:45Z</time>
      </trkpt>
      <trkpt lat="43.07318" lon="5.78661">
        <ele>0.6</ele>
        <time>2022-07-28T07:41:50Z</time>
      </trkpt>
      <trkpt lat="43.07317" lon="5.78657">
        <ele>-0.2</ele>
        <time>2022-07-28T07:41:55Z</time>
      </trkpt>
      <trkpt lat="43.07315" lon="5.78652">
        <ele>-0.2</ele>
        <time>2022-07-28T07:42:00Z</time>
      </trkpt>
      <trkpt lat="43.0731" lon="5.78644">
        <ele>-0.2</ele>
        <time>2022-07-28T07:42:07Z</time>
      </trkpt>
      <trkpt lat="43.07308" lon="5.78639">
        <ele>3.1</ele>
        <time>2022-07-28T07:42:17Z</time>
      </trkpt>
      <trkpt lat="43.07306" lon="5.78638">
        <ele>0.6</ele>
        <time>2022-07-28T07:42:28Z</time>
      </trkpt>
      <trkpt lat="43.07305" lon="5.7863">
        <ele>0.2</ele>
        <time>2022-07-28T07:42:42Z</time>
      </trkpt>
      <trkpt lat="43.07304" lon="5.78627">
        <ele>0.2</ele>
        <time>2022-07-28T07:42:44Z</time>
      </trkpt>
      <trkpt lat="43.07298" lon="5.78608">
        <ele>0.2</ele>
        <time>2022-07-28T07:42:56Z</time>
      </trkpt>
      <trkpt lat="43.07292" lon="5.78587">
        <ele>0.4</ele>
        <time>2022-07-28T07:43:10Z</time>
      </trkpt>
      <trkpt lat="43.0729" lon="5.78583">
        <ele>0.6</ele>
        <time>2022-07-28T07:43:17Z</time>
      </trkpt>
      <trkpt lat="43.07289" lon="5.78582">
        <ele>0.6</ele>
        <time>2022-07-28T07:43:19Z</time>
      </trkpt>
      <trkpt lat="43.07287" lon="5.78584">
        <ele>1</ele>
        <time>2022-07-28T07:43:34Z</time>
      </trkpt>
      <trkpt lat="43.07286" lon="5.78582">
        <ele>0.8</ele>
        <time>2022-07-28T07:43:48Z</time>
      </trkpt>
      <trkpt lat="43.07283" lon="5.78575">
        <ele>2.7</ele>
        <time>2022-07-28T07:43:58Z</time>
      </trkpt>
      <trkpt lat="43.07282" lon="5.78573">
        <ele>0.2</ele>
        <time>2022-07-28T07:43:59Z</time>
      </trkpt>
      <trkpt lat="43.07274" lon="5.78561">
        <ele>0.4</ele>
        <time>2022-07-28T07:44:08Z</time>
      </trkpt>
      <trkpt lat="43.07269" lon="5.78547">
        <ele>0.2</ele>
        <time>2022-07-28T07:44:20Z</time>
      </trkpt>
      <trkpt lat="43.07259" lon="5.78532">
        <ele>0.2</ele>
        <time>2022-07-28T07:44:33Z</time>
      </trkpt>
      <trkpt lat="43.07246" lon="5.78525">
        <ele>0.2</ele>
        <time>2022-07-28T07:44:46Z</time>
      </trkpt>
      <trkpt lat="43.07238" lon="5.78528">
        <ele>3.1</ele>
        <time>2022-07-28T07:44:58Z</time>
      </trkpt>
      <trkpt lat="43.07234" lon="5.78533">
        <ele>-0.6</ele>
        <time>2022-07-28T07:45:05Z</time>
      </trkpt>
      <trkpt lat="43.07233" lon="5.78533">
        <ele>-0.4</ele>
        <time>2022-07-28T07:45:08Z</time>
      </trkpt>
      <trkpt lat="43.07233" lon="5.78532">
        <ele>-0.2</ele>
        <time>2022-07-28T07:45:19Z</time>
      </trkpt>
      <trkpt lat="43.07234" lon="5.78522">
        <ele>0.2</ele>
        <time>2022-07-28T07:45:31Z</time>
      </trkpt>
      <trkpt lat="43.07236" lon="5.78516">
        <ele>0.2</ele>
        <time>2022-07-28T07:45:41Z</time>
      </trkpt>
      <trkpt lat="43.0723" lon="5.78502">
        <ele>0.2</ele>
        <time>2022-07-28T07:45:51Z</time>
      </trkpt>
      <trkpt lat="43.07227" lon="5.78491">
        <ele>-0.2</ele>
        <time>2022-07-28T07:46:01Z</time>
      </trkpt>
      <trkpt lat="43.07226" lon="5.78486">
        <ele>-0.6</ele>
        <time>2022-07-28T07:46:09Z</time>
      </trkpt>
      <trkpt lat="43.07226" lon="5.78486">
        <ele>-0.4</ele>
        <time>2022-07-28T07:46:20Z</time>
      </trkpt>
      <trkpt lat="43.07226" lon="5.78487">
        <ele>-1</ele>
        <time>2022-07-28T07:46:42Z</time>
      </trkpt>
      <trkpt lat="43.07227" lon="5.78488">
        <ele>3.2</ele>
        <time>2022-07-28T07:46:57Z</time>
      </trkpt>
      <trkpt lat="43.07227" lon="5.78488">
        <ele>-0.6</ele>
        <time>2022-07-28T07:47:13Z</time>
      </trkpt>
      <trkpt lat="43.07228" lon="5.78488">
        <ele>-0.6</ele>
        <time>2022-07-28T07:47:27Z</time>
      </trkpt>
      <trkpt lat="43.07233" lon="5.78491">
        <ele>-0.8</ele>
        <time>2022-07-28T07:47:38Z</time>
      </trkpt>
      <trkpt lat="43.07233" lon="5.78496">
        <ele>-0.8</ele>
        <time>2022-07-28T07:47:42Z</time>
      </trkpt>
      <trkpt lat="43.07233" lon="5.78498">
        <ele>-0.6</ele>
        <time>2022-07-28T07:47:44Z</time>
      </trkpt>
      <trkpt lat="43.07232" lon="5.78503">
        <ele>-0.2</ele>
        <time>2022-07-28T07:47:47Z</time>
      </trkpt>
      <trkpt lat="43.07235" lon="5.78518">
        <ele>0.4</ele>
        <time>2022-07-28T07:47:59Z</time>
      </trkpt>
      <trkpt lat="43.07243" lon="5.78519">
        <ele>0.4</ele>
        <time>2022-07-28T07:48:06Z</time>
      </trkpt>
      <trkpt lat="43.07245" lon="5.78517">
        <ele>0.4</ele>
        <time>2022-07-28T07:48:08Z</time>
      </trkpt>
      <trkpt lat="43.07261" lon="5.78503">
        <ele>0.4</ele>
        <time>2022-07-28T07:48:21Z</time>
      </trkpt>
      <trkpt lat="43.07262" lon="5.7849">
        <ele>0.6</ele>
        <time>2022-07-28T07:48:28Z</time>
      </trkpt>
      <trkpt lat="43.07261" lon="5.78488">
        <ele>0.8</ele>
        <time>2022-07-28T07:48:31Z</time>
      </trkpt>
      <trkpt lat="43.07261" lon="5.78488">
        <ele>0.8</ele>
        <time>2022-07-28T07:48:33Z</time>
      </trkpt>
      <trkpt lat="43.0726" lon="5.78488">
        <ele>1.8</ele>
        <time>2022-07-28T07:48:38Z</time>
      </trkpt>
      <trkpt lat="43.0726" lon="5.78488">
        <ele>2</ele>
        <time>2022-07-28T07:48:39Z</time>
      </trkpt>
      <trkpt lat="43.07263" lon="5.78492">
        <ele>1</ele>
        <time>2022-07-28T07:48:51Z</time>
      </trkpt>
      <trkpt lat="43.07268" lon="5.78492">
        <ele>0.8</ele>
        <time>2022-07-28T07:48:54Z</time>
      </trkpt>
      <trkpt lat="43.0727" lon="5.78487">
        <ele>0.6</ele>
        <time>2022-07-28T07:48:57Z</time>
      </trkpt>
      <trkpt lat="43.07271" lon="5.78486">
        <ele>0.8</ele>
        <time>2022-07-28T07:48:58Z</time>
      </trkpt>
      <trkpt lat="43.07272" lon="5.7847">
        <ele>1</ele>
        <time>2022-07-28T07:49:07Z</time>
      </trkpt>
      <trkpt lat="43.07273" lon="5.7846">
        <ele>1.8</ele>
        <time>2022-07-28T07:49:13Z</time>
      </trkpt>
      <trkpt lat="43.07274" lon="5.78444">
        <ele>2.6</ele>
        <time>2022-07-28T07:49:23Z</time>
      </trkpt>
      <trkpt lat="43.07274" lon="5.78439">
        <ele>2.6</ele>
        <time>2022-07-28T07:49:30Z</time>
      </trkpt>
      <trkpt lat="43.07272" lon="5.78438">
        <ele>2.6</ele>
        <time>2022-07-28T07:49:34Z</time>
      </trkpt>
      <trkpt lat="43.07269" lon="5.78439">
        <ele>2.8</ele>
        <time>2022-07-28T07:49:39Z</time>
      </trkpt>
      <trkpt lat="43.07268" lon="5.7844">
        <ele>3.6</ele>
        <time>2022-07-28T07:49:45Z</time>
      </trkpt>
      <trkpt lat="43.0727" lon="5.78435">
        <ele>2.8</ele>
        <time>2022-07-28T07:50:03Z</time>
      </trkpt>
      <trkpt lat="43.0727" lon="5.78431">
        <ele>3</ele>
        <time>2022-07-28T07:50:06Z</time>
      </trkpt>
      <trkpt lat="43.0727" lon="5.78418">
        <ele>3.2</ele>
        <time>2022-07-28T07:50:15Z</time>
      </trkpt>
      <trkpt lat="43.0727" lon="5.78417">
        <ele>3.4</ele>
        <time>2022-07-28T07:50:17Z</time>
      </trkpt>
      <trkpt lat="43.07269" lon="5.78414">
        <ele>3.6</ele>
        <time>2022-07-28T07:50:24Z</time>
      </trkpt>
      <trkpt lat="43.07268" lon="5.78405">
        <ele>3.4</ele>
        <time>2022-07-28T07:50:31Z</time>
      </trkpt>
      <trkpt lat="43.07268" lon="5.78402">
        <ele>3.4</ele>
        <time>2022-07-28T07:50:33Z</time>
      </trkpt>
      <trkpt lat="43.07263" lon="5.78394">
        <ele>3.6</ele>
        <time>2022-07-28T07:50:40Z</time>
      </trkpt>
      <trkpt lat="43.07261" lon="5.78392">
        <ele>3.8</ele>
        <time>2022-07-28T07:50:42Z</time>
      </trkpt>
      <trkpt lat="43.0726" lon="5.7839">
        <ele>4</ele>
        <time>2022-07-28T07:50:44Z</time>
      </trkpt>
      <trkpt lat="43.07256" lon="5.78386">
        <ele>4</ele>
        <time>2022-07-28T07:50:52Z</time>
      </trkpt>
      <trkpt lat="43.07256" lon="5.78386">
        <ele>3.6</ele>
        <time>2022-07-28T07:50:55Z</time>
      </trkpt>
      <trkpt lat="43.07249" lon="5.78383">
        <ele>4.2</ele>
        <time>2022-07-28T07:51:05Z</time>
      </trkpt>
      <trkpt lat="43.07237" lon="5.78372">
        <ele>4.4</ele>
        <time>2022-07-28T07:51:19Z</time>
      </trkpt>
      <trkpt lat="43.07238" lon="5.78372">
        <ele>4.4</ele>
        <time>2022-07-28T07:51:21Z</time>
      </trkpt>
      <trkpt lat="43.07238" lon="5.78373">
        <ele>5.2</ele>
        <time>2022-07-28T07:51:23Z</time>
      </trkpt>
      <trkpt lat="43.07239" lon="5.78373">
        <ele>5.6</ele>
        <time>2022-07-28T07:51:28Z</time>
      </trkpt>
      <trkpt lat="43.07233" lon="5.78364">
        <ele>5</ele>
        <time>2022-07-28T07:51:40Z</time>
      </trkpt>
      <trkpt lat="43.07218" lon="5.78354">
        <ele>6.2</ele>
        <time>2022-07-28T07:51:54Z</time>
      </trkpt>
      <trkpt lat="43.07212" lon="5.78357">
        <ele>6</ele>
        <time>2022-07-28T07:52:02Z</time>
      </trkpt>
      <trkpt lat="43.07211" lon="5.78357">
        <ele>5.8</ele>
        <time>2022-07-28T07:52:03Z</time>
      </trkpt>
      <trkpt lat="43.07205" lon="5.78369">
        <ele>4.8</ele>
        <time>2022-07-28T07:52:15Z</time>
      </trkpt>
      <trkpt lat="43.07204" lon="5.78372">
        <ele>4.6</ele>
        <time>2022-07-28T07:52:17Z</time>
      </trkpt>
      <trkpt lat="43.07204" lon="5.78376">
        <ele>4</ele>
        <time>2022-07-28T07:52:22Z</time>
      </trkpt>
      <trkpt lat="43.07204" lon="5.78378">
        <ele>3.8</ele>
        <time>2022-07-28T07:52:25Z</time>
      </trkpt>
      <trkpt lat="43.07205" lon="5.78379">
        <ele>3.4</ele>
        <time>2022-07-28T07:52:26Z</time>
      </trkpt>
      <trkpt lat="43.07207" lon="5.7838">
        <ele>4</ele>
        <time>2022-07-28T07:52:37Z</time>
      </trkpt>
      <trkpt lat="43.07208" lon="5.78383">
        <ele>3</ele>
        <time>2022-07-28T07:52:42Z</time>
      </trkpt>
      <trkpt lat="43.07208" lon="5.78385">
        <ele>2.2</ele>
        <time>2022-07-28T07:52:48Z</time>
      </trkpt>
      <trkpt lat="43.0721" lon="5.78385">
        <ele>2</ele>
        <time>2022-07-28T07:52:52Z</time>
      </trkpt>
      <trkpt lat="43.07211" lon="5.78379">
        <ele>2.4</ele>
        <time>2022-07-28T07:52:58Z</time>
      </trkpt>
      <trkpt lat="43.07211" lon="5.78379">
        <ele>3</ele>
        <time>2022-07-28T07:53:01Z</time>
      </trkpt>
      <trkpt lat="43.07211" lon="5.78378">
        <ele>3</ele>
        <time>2022-07-28T07:53:10Z</time>
      </trkpt>
      <trkpt lat="43.07208" lon="5.78375">
        <ele>3.2</ele>
        <time>2022-07-28T07:53:20Z</time>
      </trkpt>
      <trkpt lat="43.07206" lon="5.78375">
        <ele>3.6</ele>
        <time>2022-07-28T07:53:32Z</time>
      </trkpt>
      <trkpt lat="43.07206" lon="5.78376">
        <ele>4.4</ele>
        <time>2022-07-28T07:53:34Z</time>
      </trkpt>
      <trkpt lat="43.07206" lon="5.78372">
        <ele>3.6</ele>
        <time>2022-07-28T07:53:46Z</time>
      </trkpt>
      <trkpt lat="43.07206" lon="5.78363">
        <ele>4.2</ele>
        <time>2022-07-28T07:53:55Z</time>
      </trkpt>
      <trkpt lat="43.07204" lon="5.78362">
        <ele>4.4</ele>
        <time>2022-07-28T07:53:58Z</time>
      </trkpt>
      <trkpt lat="43.07202" lon="5.78359">
        <ele>4.8</ele>
        <time>2022-07-28T07:54:05Z</time>
      </trkpt>
      <trkpt lat="43.07201" lon="5.78357">
        <ele>4</ele>
        <time>2022-07-28T07:54:21Z</time>
      </trkpt>
      <trkpt lat="43.07201" lon="5.78354">
        <ele>5.2</ele>
        <time>2022-07-28T07:54:33Z</time>
      </trkpt>
      <trkpt lat="43.07201" lon="5.78354">
        <ele>5.4</ele>
        <time>2022-07-28T07:54:35Z</time>
      </trkpt>
      <trkpt lat="43.07203" lon="5.78349">
        <ele>5</ele>
        <time>2022-07-28T07:54:46Z</time>
      </trkpt>
      <trkpt lat="43.07202" lon="5.78337">
        <ele>5</ele>
        <time>2022-07-28T07:54:56Z</time>
      </trkpt>
      <trkpt lat="43.07199" lon="5.78323">
        <ele>4.4</ele>
        <time>2022-07-28T07:55:05Z</time>
      </trkpt>
      <trkpt lat="43.07197" lon="5.78319">
        <ele>4.4</ele>
        <time>2022-07-28T07:55:09Z</time>
      </trkpt>
      <trkpt lat="43.07186" lon="5.78306">
        <ele>4</ele>
        <time>2022-07-28T07:55:22Z</time>
      </trkpt>
      <trkpt lat="43.07171" lon="5.78297">
        <ele>3.4</ele>
        <time>2022-07-28T07:55:37Z</time>
      </trkpt>
      <trkpt lat="43.07159" lon="5.78292">
        <ele>2.8</ele>
        <time>2022-07-28T07:55:49Z</time>
      </trkpt>
      <trkpt lat="43.07153" lon="5.78299">
        <ele>2.8</ele>
        <time>2022-07-28T07:55:57Z</time>
      </trkpt>
      <trkpt lat="43.07152" lon="5.78301">
        <ele>2.8</ele>
        <time>2022-07-28T07:55:58Z</time>
      </trkpt>
      <trkpt lat="43.07152" lon="5.78304">
        <ele>2</ele>
        <time>2022-07-28T07:56:00Z</time>
      </trkpt>
      <trkpt lat="43.07155" lon="5.78314">
        <ele>1.4</ele>
        <time>2022-07-28T07:56:07Z</time>
      </trkpt>
      <trkpt lat="43.07159" lon="5.78317">
        <ele>1</ele>
        <time>2022-07-28T07:56:14Z</time>
      </trkpt>
      <trkpt lat="43.07159" lon="5.78318">
        <ele>1</ele>
        <time>2022-07-28T07:56:15Z</time>
      </trkpt>
      <trkpt lat="43.0716" lon="5.78318">
        <ele>1</ele>
        <time>2022-07-28T07:56:17Z</time>
      </trkpt>
      <trkpt lat="43.07161" lon="5.78316">
        <ele>1.2</ele>
        <time>2022-07-28T07:56:30Z</time>
      </trkpt>
      <trkpt lat="43.07155" lon="5.78301">
        <ele>2</ele>
        <time>2022-07-28T07:56:41Z</time>
      </trkpt>
      <trkpt lat="43.07155" lon="5.783">
        <ele>2</ele>
        <time>2022-07-28T07:56:42Z</time>
      </trkpt>
      <trkpt lat="43.07152" lon="5.78291">
        <ele>3.2</ele>
        <time>2022-07-28T07:56:49Z</time>
      </trkpt>
      <trkpt lat="43.0715" lon="5.78287">
        <ele>4.2</ele>
        <time>2022-07-28T07:56:53Z</time>
      </trkpt>
      <trkpt lat="43.0715" lon="5.78286">
        <ele>4.4</ele>
        <time>2022-07-28T07:56:54Z</time>
      </trkpt>
      <trkpt lat="43.07148" lon="5.78284">
        <ele>5.4</ele>
        <time>2022-07-28T07:56:58Z</time>
      </trkpt>
      <trkpt lat="43.07148" lon="5.78284">
        <ele>5.6</ele>
        <time>2022-07-28T07:56:59Z</time>
      </trkpt>
      <trkpt lat="43.07146" lon="5.78283">
        <ele>6.4</ele>
        <time>2022-07-28T07:57:03Z</time>
      </trkpt>
      <trkpt lat="43.07145" lon="5.78283">
        <ele>7</ele>
        <time>2022-07-28T07:57:06Z</time>
      </trkpt>
      <trkpt lat="43.07144" lon="5.78283">
        <ele>7.4</ele>
        <time>2022-07-28T07:57:08Z</time>
      </trkpt>
      <trkpt lat="43.07141" lon="5.78284">
        <ele>8.6</ele>
        <time>2022-07-28T07:57:12Z</time>
      </trkpt>
      <trkpt lat="43.07139" lon="5.78289">
        <ele>9.2</ele>
        <time>2022-07-28T07:57:18Z</time>
      </trkpt>
      <trkpt lat="43.07138" lon="5.78291">
        <ele>9.2</ele>
        <time>2022-07-28T07:57:19Z</time>
      </trkpt>
      <trkpt lat="43.07136" lon="5.78294">
        <ele>9.8</ele>
        <time>2022-07-28T07:57:25Z</time>
      </trkpt>
      <trkpt lat="43.07136" lon="5.78293">
        <ele>10.2</ele>
        <time>2022-07-28T07:57:27Z</time>
      </trkpt>
      <trkpt lat="43.07136" lon="5.78292">
        <ele>11</ele>
        <time>2022-07-28T07:57:39Z</time>
      </trkpt>
      <trkpt lat="43.07136" lon="5.78292">
        <ele>11</ele>
        <time>2022-07-28T07:57:40Z</time>
      </trkpt>
      <trkpt lat="43.07136" lon="5.78292">
        <ele>10</ele>
        <time>2022-07-28T07:57:51Z</time>
      </trkpt>
      <trkpt lat="43.07138" lon="5.7829">
        <ele>9.8</ele>
        <time>2022-07-28T07:57:54Z</time>
      </trkpt>
      <trkpt lat="43.07141" lon="5.78285">
        <ele>9.6</ele>
        <time>2022-07-28T07:57:59Z</time>
      </trkpt>
      <trkpt lat="43.07145" lon="5.7827">
        <ele>10.4</ele>
        <time>2022-07-28T07:58:10Z</time>
      </trkpt>
      <trkpt lat="43.07145" lon="5.78264">
        <ele>11.2</ele>
        <time>2022-07-28T07:58:15Z</time>
      </trkpt>
      <trkpt lat="43.07145" lon="5.78255">
        <ele>12.2</ele>
        <time>2022-07-28T07:58:21Z</time>
      </trkpt>
      <trkpt lat="43.07144" lon="5.78254">
        <ele>12.2</ele>
        <time>2022-07-28T07:58:22Z</time>
      </trkpt>
      <trkpt lat="43.07139" lon="5.78247">
        <ele>13.6</ele>
        <time>2022-07-28T07:58:30Z</time>
      </trkpt>
      <trkpt lat="43.07138" lon="5.78246">
        <ele>13.8</ele>
        <time>2022-07-28T07:58:31Z</time>
      </trkpt>
      <trkpt lat="43.07138" lon="5.78244">
        <ele>14</ele>
        <time>2022-07-28T07:58:32Z</time>
      </trkpt>
      <trkpt lat="43.07135" lon="5.78242">
        <ele>14.8</ele>
        <time>2022-07-28T07:58:36Z</time>
      </trkpt>
      <trkpt lat="43.07134" lon="5.78241">
        <ele>15.6</ele>
        <time>2022-07-28T07:58:43Z</time>
      </trkpt>
      <trkpt lat="43.07133" lon="5.78241">
        <ele>16</ele>
        <time>2022-07-28T07:58:51Z</time>
      </trkpt>
      <trkpt lat="43.07135" lon="5.78241">
        <ele>16.4</ele>
        <time>2022-07-28T07:58:57Z</time>
      </trkpt>
      <trkpt lat="43.07131" lon="5.78236">
        <ele>16.4</ele>
        <time>2022-07-28T07:59:06Z</time>
      </trkpt>
      <trkpt lat="43.07131" lon="5.78232">
        <ele>17.2</ele>
        <time>2022-07-28T07:59:12Z</time>
      </trkpt>
      <trkpt lat="43.0713" lon="5.78228">
        <ele>17.6</ele>
        <time>2022-07-28T07:59:16Z</time>
      </trkpt>
      <trkpt lat="43.07129" lon="5.78227">
        <ele>17.8</ele>
        <time>2022-07-28T07:59:17Z</time>
      </trkpt>
      <trkpt lat="43.07129" lon="5.78226">
        <ele>18.2</ele>
        <time>2022-07-28T07:59:18Z</time>
      </trkpt>
      <trkpt lat="43.07129" lon="5.78223">
        <ele>18.8</ele>
        <time>2022-07-28T07:59:21Z</time>
      </trkpt>
      <trkpt lat="43.07129" lon="5.78221">
        <ele>19</ele>
        <time>2022-07-28T07:59:23Z</time>
      </trkpt>
      <trkpt lat="43.0713" lon="5.78219">
        <ele>19.4</ele>
        <time>2022-07-28T07:59:25Z</time>
      </trkpt>
      <trkpt lat="43.07131" lon="5.78216">
        <ele>19.6</ele>
        <time>2022-07-28T07:59:27Z</time>
      </trkpt>
      <trkpt lat="43.07132" lon="5.78213">
        <ele>20.4</ele>
        <time>2022-07-28T07:59:31Z</time>
      </trkpt>
      <trkpt lat="43.07132" lon="5.78213">
        <ele>20.6</ele>
        <time>2022-07-28T07:59:33Z</time>
      </trkpt>
      <trkpt lat="43.07132" lon="5.78212">
        <ele>21.4</ele>
        <time>2022-07-28T07:59:39Z</time>
      </trkpt>
      <trkpt lat="43.07135" lon="5.78204">
        <ele>21.2</ele>
        <time>2022-07-28T07:59:48Z</time>
      </trkpt>
      <trkpt lat="43.07136" lon="5.782">
        <ele>21.4</ele>
        <time>2022-07-28T07:59:51Z</time>
      </trkpt>
      <trkpt lat="43.07138" lon="5.78192">
        <ele>22.6</ele>
        <time>2022-07-28T07:59:57Z</time>
      </trkpt>
      <trkpt lat="43.07138" lon="5.7819">
        <ele>22.6</ele>
        <time>2022-07-28T07:59:59Z</time>
      </trkpt>
      <trkpt lat="43.07144" lon="5.78175">
        <ele>23.4</ele>
        <time>2022-07-28T08:00:10Z</time>
      </trkpt>
      <trkpt lat="43.07144" lon="5.78174">
        <ele>23.6</ele>
        <time>2022-07-28T08:00:11Z</time>
      </trkpt>
      <trkpt lat="43.0715" lon="5.78161">
        <ele>24.2</ele>
        <time>2022-07-28T08:00:22Z</time>
      </trkpt>
      <trkpt lat="43.07151" lon="5.78155">
        <ele>24.6</ele>
        <time>2022-07-28T08:00:27Z</time>
      </trkpt>
      <trkpt lat="43.07148" lon="5.78148">
        <ele>25.8</ele>
        <time>2022-07-28T08:00:32Z</time>
      </trkpt>
      <trkpt lat="43.07148" lon="5.78148">
        <ele>25.8</ele>
        <time>2022-07-28T08:00:33Z</time>
      </trkpt>
      <trkpt lat="43.07145" lon="5.78149">
        <ele>26.2</ele>
        <time>2022-07-28T08:00:36Z</time>
      </trkpt>
      <trkpt lat="43.07144" lon="5.78151">
        <ele>26.2</ele>
        <time>2022-07-28T08:00:38Z</time>
      </trkpt>
      <trkpt lat="43.07142" lon="5.78152">
        <ele>26.2</ele>
        <time>2022-07-28T08:00:40Z</time>
      </trkpt>
      <trkpt lat="43.0714" lon="5.78154">
        <ele>26.2</ele>
        <time>2022-07-28T08:00:42Z</time>
      </trkpt>
      <trkpt lat="43.07132" lon="5.78167">
        <ele>26.4</ele>
        <time>2022-07-28T08:00:54Z</time>
      </trkpt>
      <trkpt lat="43.07124" lon="5.78181">
        <ele>26.4</ele>
        <time>2022-07-28T08:01:07Z</time>
      </trkpt>
      <trkpt lat="43.0712" lon="5.78185">
        <ele>26.8</ele>
        <time>2022-07-28T08:01:12Z</time>
      </trkpt>
      <trkpt lat="43.07117" lon="5.78189">
        <ele>27.8</ele>
        <time>2022-07-28T08:01:19Z</time>
      </trkpt>
      <trkpt lat="43.07117" lon="5.78189">
        <ele>27.8</ele>
        <time>2022-07-28T08:01:20Z</time>
      </trkpt>
      <trkpt lat="43.07117" lon="5.7819">
        <ele>29</ele>
        <time>2022-07-28T08:01:29Z</time>
      </trkpt>
      <trkpt lat="43.07117" lon="5.78189">
        <ele>29.4</ele>
        <time>2022-07-28T08:01:31Z</time>
      </trkpt>
      <trkpt lat="43.07117" lon="5.78189">
        <ele>29.2</ele>
        <time>2022-07-28T08:01:45Z</time>
      </trkpt>
      <trkpt lat="43.07117" lon="5.7819">
        <ele>29.2</ele>
        <time>2022-07-28T08:02:01Z</time>
      </trkpt>
      <trkpt lat="43.07116" lon="5.78189">
        <ele>29</ele>
        <time>2022-07-28T08:02:18Z</time>
      </trkpt>
      <trkpt lat="43.07117" lon="5.78189">
        <ele>29.2</ele>
        <time>2022-07-28T08:02:29Z</time>
      </trkpt>
      <trkpt lat="43.07116" lon="5.78188">
        <ele>28.8</ele>
        <time>2022-07-28T08:02:40Z</time>
      </trkpt>
      <trkpt lat="43.07116" lon="5.78186">
        <ele>28</ele>
        <time>2022-07-28T08:02:42Z</time>
      </trkpt>
      <trkpt lat="43.07115" lon="5.7818">
        <ele>27.8</ele>
        <time>2022-07-28T08:02:46Z</time>
      </trkpt>
      <trkpt lat="43.07115" lon="5.78179">
        <ele>28.2</ele>
        <time>2022-07-28T08:02:47Z</time>
      </trkpt>
      <trkpt lat="43.07115" lon="5.78173">
        <ele>29.2</ele>
        <time>2022-07-28T08:02:53Z</time>
      </trkpt>
      <trkpt lat="43.07114" lon="5.7817">
        <ele>29.4</ele>
        <time>2022-07-28T08:02:55Z</time>
      </trkpt>
      <trkpt lat="43.07114" lon="5.78168">
        <ele>29.6</ele>
        <time>2022-07-28T08:02:57Z</time>
      </trkpt>
      <trkpt lat="43.07113" lon="5.78165">
        <ele>30.4</ele>
        <time>2022-07-28T08:03:00Z</time>
      </trkpt>
      <trkpt lat="43.07112" lon="5.78158">
        <ele>31.4</ele>
        <time>2022-07-28T08:03:08Z</time>
      </trkpt>
      <trkpt lat="43.07111" lon="5.78157">
        <ele>31.4</ele>
        <time>2022-07-28T08:03:09Z</time>
      </trkpt>
      <trkpt lat="43.07107" lon="5.7815">
        <ele>32</ele>
        <time>2022-07-28T08:03:19Z</time>
      </trkpt>
      <trkpt lat="43.07102" lon="5.78142">
        <ele>32.2</ele>
        <time>2022-07-28T08:03:30Z</time>
      </trkpt>
      <trkpt lat="43.07101" lon="5.78142">
        <ele>32.4</ele>
        <time>2022-07-28T08:03:32Z</time>
      </trkpt>
      <trkpt lat="43.07101" lon="5.78137">
        <ele>33</ele>
        <time>2022-07-28T08:03:40Z</time>
      </trkpt>
      <trkpt lat="43.071" lon="5.78135">
        <ele>33.4</ele>
        <time>2022-07-28T08:03:43Z</time>
      </trkpt>
      <trkpt lat="43.07101" lon="5.78132">
        <ele>34.4</ele>
        <time>2022-07-28T08:03:46Z</time>
      </trkpt>
      <trkpt lat="43.07102" lon="5.78129">
        <ele>35.2</ele>
        <time>2022-07-28T08:03:51Z</time>
      </trkpt>
      <trkpt lat="43.07103" lon="5.78128">
        <ele>35.8</ele>
        <time>2022-07-28T08:03:52Z</time>
      </trkpt>
      <trkpt lat="43.07104" lon="5.78126">
        <ele>36.8</ele>
        <time>2022-07-28T08:03:55Z</time>
      </trkpt>
      <trkpt lat="43.07104" lon="5.78125">
        <ele>38.8</ele>
        <time>2022-07-28T08:03:56Z</time>
      </trkpt>
      <trkpt lat="43.07104" lon="5.78125">
        <ele>40</ele>
        <time>2022-07-28T08:03:57Z</time>
      </trkpt>
      <trkpt lat="43.07105" lon="5.78124">
        <ele>41.2</ele>
        <time>2022-07-28T08:03:59Z</time>
      </trkpt>
      <trkpt lat="43.07105" lon="5.78121">
        <ele>41.2</ele>
        <time>2022-07-28T08:04:03Z</time>
      </trkpt>
      <trkpt lat="43.07107" lon="5.78122">
        <ele>40</ele>
        <time>2022-07-28T08:04:06Z</time>
      </trkpt>
      <trkpt lat="43.07109" lon="5.78122">
        <ele>39</ele>
        <time>2022-07-28T08:04:10Z</time>
      </trkpt>
      <trkpt lat="43.0711" lon="5.78122">
        <ele>38.2</ele>
        <time>2022-07-28T08:04:14Z</time>
      </trkpt>
      <trkpt lat="43.0711" lon="5.78122">
        <ele>38</ele>
        <time>2022-07-28T08:04:15Z</time>
      </trkpt>
      <trkpt lat="43.0711" lon="5.78122">
        <ele>37.6</ele>
        <time>2022-07-28T08:04:25Z</time>
      </trkpt>
      <trkpt lat="43.07111" lon="5.78124">
        <ele>37.8</ele>
        <time>2022-07-28T08:04:38Z</time>
      </trkpt>
      <trkpt lat="43.07109" lon="5.78123">
        <ele>36.8</ele>
        <time>2022-07-28T08:04:48Z</time>
      </trkpt>
      <trkpt lat="43.07108" lon="5.78123">
        <ele>36.6</ele>
        <time>2022-07-28T08:04:49Z</time>
      </trkpt>
      <trkpt lat="43.07105" lon="5.78119">
        <ele>37.8</ele>
        <time>2022-07-28T08:04:56Z</time>
      </trkpt>
      <trkpt lat="43.07104" lon="5.78116">
        <ele>38.4</ele>
        <time>2022-07-28T08:04:59Z</time>
      </trkpt>
      <trkpt lat="43.07101" lon="5.78115">
        <ele>39.2</ele>
        <time>2022-07-28T08:05:02Z</time>
      </trkpt>
      <trkpt lat="43.07097" lon="5.78114">
        <ele>39.8</ele>
        <time>2022-07-28T08:05:08Z</time>
      </trkpt>
      <trkpt lat="43.07095" lon="5.78113">
        <ele>40.2</ele>
        <time>2022-07-28T08:05:12Z</time>
      </trkpt>
      <trkpt lat="43.07093" lon="5.78113">
        <ele>41.4</ele>
        <time>2022-07-28T08:05:16Z</time>
      </trkpt>
      <trkpt lat="43.07091" lon="5.78112">
        <ele>42.2</ele>
        <time>2022-07-28T08:05:20Z</time>
      </trkpt>
      <trkpt lat="43.0709" lon="5.78112">
        <ele>42.4</ele>
        <time>2022-07-28T08:05:21Z</time>
      </trkpt>
      <trkpt lat="43.07088" lon="5.78111">
        <ele>43.6</ele>
        <time>2022-07-28T08:05:27Z</time>
      </trkpt>
      <trkpt lat="43.07087" lon="5.78109">
        <ele>44.4</ele>
        <time>2022-07-28T08:05:33Z</time>
      </trkpt>
      <trkpt lat="43.07087" lon="5.78108">
        <ele>44.6</ele>
        <time>2022-07-28T08:05:42Z</time>
      </trkpt>
      <trkpt lat="43.07086" lon="5.78108">
        <ele>44.8</ele>
        <time>2022-07-28T08:05:46Z</time>
      </trkpt>
      <trkpt lat="43.07088" lon="5.7811">
        <ele>44</ele>
        <time>2022-07-28T08:06:04Z</time>
      </trkpt>
      <trkpt lat="43.07087" lon="5.7811">
        <ele>43.6</ele>
        <time>2022-07-28T08:06:12Z</time>
      </trkpt>
      <trkpt lat="43.07087" lon="5.78109">
        <ele>43.6</ele>
        <time>2022-07-28T08:06:16Z</time>
      </trkpt>
      <trkpt lat="43.07088" lon="5.78111">
        <ele>44.6</ele>
        <time>2022-07-28T08:06:31Z</time>
      </trkpt>
      <trkpt lat="43.07088" lon="5.78111">
        <ele>44.6</ele>
        <time>2022-07-28T08:06:34Z</time>
      </trkpt>
      <trkpt lat="43.07087" lon="5.78109">
        <ele>43.2</ele>
        <time>2022-07-28T08:06:42Z</time>
      </trkpt>
      <trkpt lat="43.07086" lon="5.78109">
        <ele>43</ele>
        <time>2022-07-28T08:06:44Z</time>
      </trkpt>
      <trkpt lat="43.0709" lon="5.78107">
        <ele>43.2</ele>
        <time>2022-07-28T08:06:53Z</time>
      </trkpt>
      <trkpt lat="43.07087" lon="5.78101">
        <ele>43.8</ele>
        <time>2022-07-28T08:07:04Z</time>
      </trkpt>
      <trkpt lat="43.07085" lon="5.78097">
        <ele>42.6</ele>
        <time>2022-07-28T08:07:12Z</time>
      </trkpt>
      <trkpt lat="43.07085" lon="5.78096">
        <ele>42.2</ele>
        <time>2022-07-28T08:07:14Z</time>
      </trkpt>
      <trkpt lat="43.07083" lon="5.78096">
        <ele>41.8</ele>
        <time>2022-07-28T08:07:22Z</time>
      </trkpt>
      <trkpt lat="43.07083" lon="5.78098">
        <ele>42.2</ele>
        <time>2022-07-28T08:07:32Z</time>
      </trkpt>
      <trkpt lat="43.07078" lon="5.78095">
        <ele>42.4</ele>
        <time>2022-07-28T08:07:44Z</time>
      </trkpt>
      <trkpt lat="43.07076" lon="5.78093">
        <ele>42.6</ele>
        <time>2022-07-28T08:07:57Z</time>
      </trkpt>
      <trkpt lat="43.07075" lon="5.78095">
        <ele>42</ele>
        <time>2022-07-28T08:08:12Z</time>
      </trkpt>
      <trkpt lat="43.07076" lon="5.78095">
        <ele>42.8</ele>
        <time>2022-07-28T08:08:21Z</time>
      </trkpt>
      <trkpt lat="43.0708" lon="5.78094">
        <ele>42.2</ele>
        <time>2022-07-28T08:08:31Z</time>
      </trkpt>
      <trkpt lat="43.07084" lon="5.78097">
        <ele>42</ele>
        <time>2022-07-28T08:08:42Z</time>
      </trkpt>
      <trkpt lat="43.07085" lon="5.78097">
        <ele>42</ele>
        <time>2022-07-28T08:08:59Z</time>
      </trkpt>
      <trkpt lat="43.07084" lon="5.78097">
        <ele>42.2</ele>
        <time>2022-07-28T08:09:17Z</time>
      </trkpt>
      <trkpt lat="43.07083" lon="5.78101">
        <ele>42</ele>
        <time>2022-07-28T08:09:27Z</time>
      </trkpt>
      <trkpt lat="43.07084" lon="5.78108">
        <ele>41.8</ele>
        <time>2022-07-28T08:09:42Z</time>
      </trkpt>
      <trkpt lat="43.07084" lon="5.78108">
        <ele>41.2</ele>
        <time>2022-07-28T08:09:49Z</time>
      </trkpt>
      <trkpt lat="43.07084" lon="5.78106">
        <ele>40</ele>
        <time>2022-07-28T08:09:58Z</time>
      </trkpt>
      <trkpt lat="43.07084" lon="5.78102">
        <ele>39.6</ele>
        <time>2022-07-28T08:10:07Z</time>
      </trkpt>
      <trkpt lat="43.07084" lon="5.78101">
        <ele>39.6</ele>
        <time>2022-07-28T08:10:08Z</time>
      </trkpt>
      <trkpt lat="43.07082" lon="5.78097">
        <ele>39</ele>
        <time>2022-07-28T08:10:14Z</time>
      </trkpt>
      <trkpt lat="43.07081" lon="5.78089">
        <ele>39.2</ele>
        <time>2022-07-28T08:10:22Z</time>
      </trkpt>
      <trkpt lat="43.07082" lon="5.78084">
        <ele>39.2</ele>
        <time>2022-07-28T08:10:26Z</time>
      </trkpt>
      <trkpt lat="43.07083" lon="5.78074">
        <ele>38.6</ele>
        <time>2022-07-28T08:10:34Z</time>
      </trkpt>
      <trkpt lat="43.07086" lon="5.78068">
        <ele>38.2</ele>
        <time>2022-07-28T08:10:42Z</time>
      </trkpt>
      <trkpt lat="43.07087" lon="5.78067">
        <ele>38</ele>
        <time>2022-07-28T08:10:44Z</time>
      </trkpt>
      <trkpt lat="43.07088" lon="5.78066">
        <ele>37.6</ele>
        <time>2022-07-28T08:10:47Z</time>
      </trkpt>
      <trkpt lat="43.07093" lon="5.78067">
        <ele>36.8</ele>
        <time>2022-07-28T08:10:59Z</time>
      </trkpt>
      <trkpt lat="43.07093" lon="5.78067">
        <ele>38.8</ele>
        <time>2022-07-28T08:11:00Z</time>
      </trkpt>
      <trkpt lat="43.07093" lon="5.78067">
        <ele>39</ele>
        <time>2022-07-28T08:11:01Z</time>
      </trkpt>
      <trkpt lat="43.07094" lon="5.78066">
        <ele>37.8</ele>
        <time>2022-07-28T08:11:06Z</time>
      </trkpt>
      <trkpt lat="43.07093" lon="5.78066">
        <ele>37.2</ele>
        <time>2022-07-28T08:11:10Z</time>
      </trkpt>
      <trkpt lat="43.07094" lon="5.78066">
        <ele>36.6</ele>
        <time>2022-07-28T08:11:14Z</time>
      </trkpt>
      <trkpt lat="43.07093" lon="5.78066">
        <ele>36.4</ele>
        <time>2022-07-28T08:11:15Z</time>
      </trkpt>
      <trkpt lat="43.07094" lon="5.78064">
        <ele>36.2</ele>
        <time>2022-07-28T08:11:26Z</time>
      </trkpt>
      <trkpt lat="43.07095" lon="5.78062">
        <ele>35.6</ele>
        <time>2022-07-28T08:11:34Z</time>
      </trkpt>
      <trkpt lat="43.07095" lon="5.78061">
        <ele>35.4</ele>
        <time>2022-07-28T08:11:36Z</time>
      </trkpt>
      <trkpt lat="43.07097" lon="5.78056">
        <ele>35.2</ele>
        <time>2022-07-28T08:11:47Z</time>
      </trkpt>
      <trkpt lat="43.071" lon="5.78048">
        <ele>35</ele>
        <time>2022-07-28T08:11:58Z</time>
      </trkpt>
      <trkpt lat="43.07101" lon="5.78043">
        <ele>34.8</ele>
        <time>2022-07-28T08:12:09Z</time>
      </trkpt>
      <trkpt lat="43.07101" lon="5.78043">
        <ele>33.8</ele>
        <time>2022-07-28T08:12:10Z</time>
      </trkpt>
      <trkpt lat="43.07101" lon="5.78042">
        <ele>32.4</ele>
        <time>2022-07-28T08:12:12Z</time>
      </trkpt>
      <trkpt lat="43.07102" lon="5.78044">
        <ele>32.6</ele>
        <time>2022-07-28T08:12:20Z</time>
      </trkpt>
      <trkpt lat="43.07106" lon="5.78047">
        <ele>32</ele>
        <time>2022-07-28T08:12:31Z</time>
      </trkpt>
      <trkpt lat="43.07106" lon="5.78045">
        <ele>31.4</ele>
        <time>2022-07-28T08:12:35Z</time>
      </trkpt>
      <trkpt lat="43.07106" lon="5.78045">
        <ele>31.2</ele>
        <time>2022-07-28T08:12:36Z</time>
      </trkpt>
      <trkpt lat="43.07109" lon="5.78042">
        <ele>30.8</ele>
        <time>2022-07-28T08:12:41Z</time>
      </trkpt>
      <trkpt lat="43.0711" lon="5.78038">
        <ele>30.8</ele>
        <time>2022-07-28T08:12:44Z</time>
      </trkpt>
      <trkpt lat="43.0711" lon="5.78035">
        <ele>30.4</ele>
        <time>2022-07-28T08:12:47Z</time>
      </trkpt>
      <trkpt lat="43.0711" lon="5.78034">
        <ele>30.2</ele>
        <time>2022-07-28T08:12:49Z</time>
      </trkpt>
      <trkpt lat="43.0711" lon="5.78034">
        <ele>30</ele>
        <time>2022-07-28T08:12:50Z</time>
      </trkpt>
      <trkpt lat="43.07111" lon="5.78032">
        <ele>30.6</ele>
        <time>2022-07-28T08:13:03Z</time>
      </trkpt>
      <trkpt lat="43.07115" lon="5.78023">
        <ele>29.6</ele>
        <time>2022-07-28T08:13:13Z</time>
      </trkpt>
      <trkpt lat="43.07112" lon="5.78014">
        <ele>29.8</ele>
        <time>2022-07-28T08:13:20Z</time>
      </trkpt>
      <trkpt lat="43.0711" lon="5.78011">
        <ele>29.8</ele>
        <time>2022-07-28T08:13:23Z</time>
      </trkpt>
      <trkpt lat="43.07108" lon="5.78009">
        <ele>29.8</ele>
        <time>2022-07-28T08:13:28Z</time>
      </trkpt>
      <trkpt lat="43.07106" lon="5.78008">
        <ele>31.2</ele>
        <time>2022-07-28T08:13:32Z</time>
      </trkpt>
      <trkpt lat="43.07106" lon="5.78007">
        <ele>31</ele>
        <time>2022-07-28T08:13:33Z</time>
      </trkpt>
      <trkpt lat="43.07103" lon="5.78">
        <ele>31.4</ele>
        <time>2022-07-28T08:13:41Z</time>
      </trkpt>
      <trkpt lat="43.07103" lon="5.77999">
        <ele>31.8</ele>
        <time>2022-07-28T08:13:43Z</time>
      </trkpt>
      <trkpt lat="43.07103" lon="5.77997">
        <ele>32</ele>
        <time>2022-07-28T08:13:45Z</time>
      </trkpt>
      <trkpt lat="43.07099" lon="5.7799">
        <ele>32</ele>
        <time>2022-07-28T08:13:57Z</time>
      </trkpt>
      <trkpt lat="43.07096" lon="5.77986">
        <ele>32</ele>
        <time>2022-07-28T08:14:05Z</time>
      </trkpt>
      <trkpt lat="43.07095" lon="5.77986">
        <ele>31.4</ele>
        <time>2022-07-28T08:14:09Z</time>
      </trkpt>
      <trkpt lat="43.0709" lon="5.77987">
        <ele>30.2</ele>
        <time>2022-07-28T08:14:20Z</time>
      </trkpt>
      <trkpt lat="43.0709" lon="5.77986">
        <ele>30.6</ele>
        <time>2022-07-28T08:14:30Z</time>
      </trkpt>
      <trkpt lat="43.07089" lon="5.77991">
        <ele>30.4</ele>
        <time>2022-07-28T08:14:39Z</time>
      </trkpt>
      <trkpt lat="43.07097" lon="5.77992">
        <ele>31</ele>
        <time>2022-07-28T08:14:48Z</time>
      </trkpt>
      <trkpt lat="43.07097" lon="5.77992">
        <ele>31</ele>
        <time>2022-07-28T08:14:49Z</time>
      </trkpt>
      <trkpt lat="43.071" lon="5.77998">
        <ele>31</ele>
        <time>2022-07-28T08:14:55Z</time>
      </trkpt>
      <trkpt lat="43.07101" lon="5.78">
        <ele>31</ele>
        <time>2022-07-28T08:14:57Z</time>
      </trkpt>
      <trkpt lat="43.07105" lon="5.7801">
        <ele>31</ele>
        <time>2022-07-28T08:15:09Z</time>
      </trkpt>
      <trkpt lat="43.07116" lon="5.78018">
        <ele>30</ele>
        <time>2022-07-28T08:15:20Z</time>
      </trkpt>
      <trkpt lat="43.0712" lon="5.78019">
        <ele>29</ele>
        <time>2022-07-28T08:15:24Z</time>
      </trkpt>
      <trkpt lat="43.07128" lon="5.78017">
        <ele>29</ele>
        <time>2022-07-28T08:15:31Z</time>
      </trkpt>
      <trkpt lat="43.07138" lon="5.78018">
        <ele>28.4</ele>
        <time>2022-07-28T08:15:44Z</time>
      </trkpt>
      <trkpt lat="43.07148" lon="5.78017">
        <ele>28</ele>
        <time>2022-07-28T08:15:56Z</time>
      </trkpt>
      <trkpt lat="43.07149" lon="5.78017">
        <ele>28</ele>
        <time>2022-07-28T08:15:57Z</time>
      </trkpt>
      <trkpt lat="43.0716" lon="5.78017">
        <ele>28.4</ele>
        <time>2022-07-28T08:16:09Z</time>
      </trkpt>
      <trkpt lat="43.07165" lon="5.78017">
        <ele>29</ele>
        <time>2022-07-28T08:16:14Z</time>
      </trkpt>
      <trkpt lat="43.07171" lon="5.78019">
        <ele>30.2</ele>
        <time>2022-07-28T08:16:21Z</time>
      </trkpt>
      <trkpt lat="43.07172" lon="5.78021">
        <ele>30.2</ele>
        <time>2022-07-28T08:16:23Z</time>
      </trkpt>
      <trkpt lat="43.07175" lon="5.78024">
        <ele>30.6</ele>
        <time>2022-07-28T08:16:29Z</time>
      </trkpt>
      <trkpt lat="43.07176" lon="5.78025">
        <ele>31.2</ele>
        <time>2022-07-28T08:16:31Z</time>
      </trkpt>
      <trkpt lat="43.07177" lon="5.78025">
        <ele>31.6</ele>
        <time>2022-07-28T08:16:34Z</time>
      </trkpt>
      <trkpt lat="43.07181" lon="5.78026">
        <ele>31.2</ele>
        <time>2022-07-28T08:16:46Z</time>
      </trkpt>
      <trkpt lat="43.07182" lon="5.78026">
        <ele>31.2</ele>
        <time>2022-07-28T08:16:47Z</time>
      </trkpt>
      <trkpt lat="43.07188" lon="5.7803">
        <ele>31.2</ele>
        <time>2022-07-28T08:16:57Z</time>
      </trkpt>
      <trkpt lat="43.07198" lon="5.78042">
        <ele>30.8</ele>
        <time>2022-07-28T08:17:12Z</time>
      </trkpt>
      <trkpt lat="43.07207" lon="5.78042">
        <ele>30.6</ele>
        <time>2022-07-28T08:17:22Z</time>
      </trkpt>
      <trkpt lat="43.07209" lon="5.78041">
        <ele>30.2</ele>
        <time>2022-07-28T08:17:26Z</time>
      </trkpt>
      <trkpt lat="43.07208" lon="5.78038">
        <ele>30.4</ele>
        <time>2022-07-28T08:17:30Z</time>
      </trkpt>
      <trkpt lat="43.07207" lon="5.78032">
        <ele>31</ele>
        <time>2022-07-28T08:17:37Z</time>
      </trkpt>
      <trkpt lat="43.07208" lon="5.78027">
        <ele>31.2</ele>
        <time>2022-07-28T08:17:41Z</time>
      </trkpt>
      <trkpt lat="43.07209" lon="5.78025">
        <ele>31.6</ele>
        <time>2022-07-28T08:17:50Z</time>
      </trkpt>
      <trkpt lat="43.07209" lon="5.7802">
        <ele>30.4</ele>
        <time>2022-07-28T08:18:00Z</time>
      </trkpt>
      <trkpt lat="43.07209" lon="5.78019">
        <ele>30.2</ele>
        <time>2022-07-28T08:18:01Z</time>
      </trkpt>
      <trkpt lat="43.07213" lon="5.78017">
        <ele>29.4</ele>
        <time>2022-07-28T08:18:09Z</time>
      </trkpt>
      <trkpt lat="43.07213" lon="5.78016">
        <ele>29</ele>
        <time>2022-07-28T08:18:10Z</time>
      </trkpt>
      <trkpt lat="43.07214" lon="5.78012">
        <ele>28</ele>
        <time>2022-07-28T08:18:15Z</time>
      </trkpt>
      <trkpt lat="43.07214" lon="5.78009">
        <ele>27.2</ele>
        <time>2022-07-28T08:18:20Z</time>
      </trkpt>
      <trkpt lat="43.07213" lon="5.78007">
        <ele>27</ele>
        <time>2022-07-28T08:18:25Z</time>
      </trkpt>
      <trkpt lat="43.07213" lon="5.78008">
        <ele>27.2</ele>
        <time>2022-07-28T08:18:32Z</time>
      </trkpt>
      <trkpt lat="43.07213" lon="5.78007">
        <ele>27.8</ele>
        <time>2022-07-28T08:18:46Z</time>
      </trkpt>
      <trkpt lat="43.07212" lon="5.78008">
        <ele>27</ele>
        <time>2022-07-28T08:19:00Z</time>
      </trkpt>
      <trkpt lat="43.07212" lon="5.78008">
        <ele>25</ele>
        <time>2022-07-28T08:19:01Z</time>
      </trkpt>
      <trkpt lat="43.07212" lon="5.78008">
        <ele>22.8</ele>
        <time>2022-07-28T08:19:02Z</time>
      </trkpt>
      <trkpt lat="43.07212" lon="5.78008">
        <ele>21.6</ele>
        <time>2022-07-28T08:19:03Z</time>
      </trkpt>
      <trkpt lat="43.07212" lon="5.78007">
        <ele>20.4</ele>
        <time>2022-07-28T08:19:04Z</time>
      </trkpt>
      <trkpt lat="43.07212" lon="5.78008">
        <ele>18.6</ele>
        <time>2022-07-28T08:19:05Z</time>
      </trkpt>
      <trkpt lat="43.07212" lon="5.78008">
        <ele>17.4</ele>
        <time>2022-07-28T08:19:07Z</time>
      </trkpt>
      <trkpt lat="43.07212" lon="5.78008">
        <ele>16.4</ele>
        <time>2022-07-28T08:19:09Z</time>
      </trkpt>
      <trkpt lat="43.07214" lon="5.78011">
        <ele>15.2</ele>
        <time>2022-07-28T08:19:12Z</time>
      </trkpt>
      <trkpt lat="43.07214" lon="5.78012">
        <ele>14.8</ele>
        <time>2022-07-28T08:19:13Z</time>
      </trkpt>
      <trkpt lat="43.07214" lon="5.78014">
        <ele>22.8</ele>
        <time>2022-07-28T08:19:15Z</time>
      </trkpt>
      <trkpt lat="43.07214" lon="5.78015">
        <ele>24.8</ele>
        <time>2022-07-28T08:19:16Z</time>
      </trkpt>
      <trkpt lat="43.07214" lon="5.78016">
        <ele>26</ele>
        <time>2022-07-28T08:19:17Z</time>
      </trkpt>
      <trkpt lat="43.07214" lon="5.78018">
        <ele>27</ele>
        <time>2022-07-28T08:19:19Z</time>
      </trkpt>
      <trkpt lat="43.07213" lon="5.78021">
        <ele>28.2</ele>
        <time>2022-07-28T08:19:22Z</time>
      </trkpt>
      <trkpt lat="43.07211" lon="5.78022">
        <ele>29</ele>
        <time>2022-07-28T08:19:26Z</time>
      </trkpt>
      <trkpt lat="43.07211" lon="5.78023">
        <ele>29.2</ele>
        <time>2022-07-28T08:19:27Z</time>
      </trkpt>
      <trkpt lat="43.0721" lon="5.78025">
        <ele>29.8</ele>
        <time>2022-07-28T08:19:29Z</time>
      </trkpt>
      <trkpt lat="43.07209" lon="5.78028">
        <ele>30.2</ele>
        <time>2022-07-28T08:19:31Z</time>
      </trkpt>
      <trkpt lat="43.07209" lon="5.78029">
        <ele>30.4</ele>
        <time>2022-07-28T08:19:32Z</time>
      </trkpt>
      <trkpt lat="43.07207" lon="5.78033">
        <ele>30.8</ele>
        <time>2022-07-28T08:19:36Z</time>
      </trkpt>
      <trkpt lat="43.07208" lon="5.78042">
        <ele>30.4</ele>
        <time>2022-07-28T08:19:45Z</time>
      </trkpt>
      <trkpt lat="43.07213" lon="5.78042">
        <ele>29.4</ele>
        <time>2022-07-28T08:19:54Z</time>
      </trkpt>
      <trkpt lat="43.07222" lon="5.78038">
        <ele>29.2</ele>
        <time>2022-07-28T08:20:04Z</time>
      </trkpt>
      <trkpt lat="43.07231" lon="5.78037">
        <ele>28.6</ele>
        <time>2022-07-28T08:20:18Z</time>
      </trkpt>
      <trkpt lat="43.07232" lon="5.78038">
        <ele>28.6</ele>
        <time>2022-07-28T08:20:28Z</time>
      </trkpt>
      <trkpt lat="43.07232" lon="5.78038">
        <ele>28</ele>
        <time>2022-07-28T08:20:42Z</time>
      </trkpt>
      <trkpt lat="43.07232" lon="5.78038">
        <ele>27.8</ele>
        <time>2022-07-28T08:20:45Z</time>
      </trkpt>
      <trkpt lat="43.07232" lon="5.78038">
        <ele>29</ele>
        <time>2022-07-28T08:20:50Z</time>
      </trkpt>
      <trkpt lat="43.07232" lon="5.78038">
        <ele>28.4</ele>
        <time>2022-07-28T08:21:04Z</time>
      </trkpt>
      <trkpt lat="43.07231" lon="5.78039">
        <ele>33.4</ele>
        <time>2022-07-28T08:21:18Z</time>
      </trkpt>
      <trkpt lat="43.07231" lon="5.78039">
        <ele>33.2</ele>
        <time>2022-07-28T08:21:21Z</time>
      </trkpt>
      <trkpt lat="43.07231" lon="5.78039">
        <ele>33.8</ele>
        <time>2022-07-28T08:21:35Z</time>
      </trkpt>
      <trkpt lat="43.07231" lon="5.78039">
        <ele>30.8</ele>
        <time>2022-07-28T08:21:41Z</time>
      </trkpt>
      <trkpt lat="43.07231" lon="5.78039">
        <ele>29.4</ele>
        <time>2022-07-28T08:21:43Z</time>
      </trkpt>
      <trkpt lat="43.07231" lon="5.7804">
        <ele>29</ele>
        <time>2022-07-28T08:21:51Z</time>
      </trkpt>
      <trkpt lat="43.0723" lon="5.78038">
        <ele>28.6</ele>
        <time>2022-07-28T08:22:01Z</time>
      </trkpt>
      <trkpt lat="43.07229" lon="5.78037">
        <ele>28.4</ele>
        <time>2022-07-28T08:22:02Z</time>
      </trkpt>
      <trkpt lat="43.07229" lon="5.78032">
        <ele>27.4</ele>
        <time>2022-07-28T08:22:09Z</time>
      </trkpt>
      <trkpt lat="43.07231" lon="5.7803">
        <ele>27</ele>
        <time>2022-07-28T08:22:12Z</time>
      </trkpt>
      <trkpt lat="43.07233" lon="5.78028">
        <ele>27</ele>
        <time>2022-07-28T08:22:15Z</time>
      </trkpt>
      <trkpt lat="43.07237" lon="5.78028">
        <ele>26.6</ele>
        <time>2022-07-28T08:22:22Z</time>
      </trkpt>
      <trkpt lat="43.07242" lon="5.78026">
        <ele>25.8</ele>
        <time>2022-07-28T08:22:28Z</time>
      </trkpt>
      <trkpt lat="43.07243" lon="5.78026">
        <ele>25.4</ele>
        <time>2022-07-28T08:22:29Z</time>
      </trkpt>
      <trkpt lat="43.07244" lon="5.78025">
        <ele>24.8</ele>
        <time>2022-07-28T08:22:34Z</time>
      </trkpt>
      <trkpt lat="43.07244" lon="5.78024">
        <ele>24.8</ele>
        <time>2022-07-28T08:22:36Z</time>
      </trkpt>
      <trkpt lat="43.0725" lon="5.78019">
        <ele>24</ele>
        <time>2022-07-28T08:22:46Z</time>
      </trkpt>
      <trkpt lat="43.0725" lon="5.78017">
        <ele>23.4</ele>
        <time>2022-07-28T08:22:49Z</time>
      </trkpt>
      <trkpt lat="43.07251" lon="5.78016">
        <ele>24.4</ele>
        <time>2022-07-28T08:22:57Z</time>
      </trkpt>
      <trkpt lat="43.07252" lon="5.78016">
        <ele>24.6</ele>
        <time>2022-07-28T08:22:58Z</time>
      </trkpt>
      <trkpt lat="43.07252" lon="5.78018">
        <ele>23.2</ele>
        <time>2022-07-28T08:23:10Z</time>
      </trkpt>
      <trkpt lat="43.07252" lon="5.78018">
        <ele>23</ele>
        <time>2022-07-28T08:23:13Z</time>
      </trkpt>
      <trkpt lat="43.07252" lon="5.78018">
        <ele>24.2</ele>
        <time>2022-07-28T08:23:17Z</time>
      </trkpt>
      <trkpt lat="43.07251" lon="5.78018">
        <ele>24</ele>
        <time>2022-07-28T08:23:25Z</time>
      </trkpt>
      <trkpt lat="43.07251" lon="5.78025">
        <ele>24</ele>
        <time>2022-07-28T08:23:31Z</time>
      </trkpt>
      <trkpt lat="43.07253" lon="5.78027">
        <ele>23.2</ele>
        <time>2022-07-28T08:23:37Z</time>
      </trkpt>
      <trkpt lat="43.07256" lon="5.78028">
        <ele>22.4</ele>
        <time>2022-07-28T08:23:41Z</time>
      </trkpt>
      <trkpt lat="43.0726" lon="5.78029">
        <ele>22.2</ele>
        <time>2022-07-28T08:23:52Z</time>
      </trkpt>
      <trkpt lat="43.07261" lon="5.7803">
        <ele>22</ele>
        <time>2022-07-28T08:23:53Z</time>
      </trkpt>
      <trkpt lat="43.07264" lon="5.7803">
        <ele>21</ele>
        <time>2022-07-28T08:23:57Z</time>
      </trkpt>
      <trkpt lat="43.07269" lon="5.78032">
        <ele>20.6</ele>
        <time>2022-07-28T08:24:04Z</time>
      </trkpt>
      <trkpt lat="43.07272" lon="5.78033">
        <ele>20.2</ele>
        <time>2022-07-28T08:24:08Z</time>
      </trkpt>
      <trkpt lat="43.07273" lon="5.78033">
        <ele>20</ele>
        <time>2022-07-28T08:24:09Z</time>
      </trkpt>
      <trkpt lat="43.07274" lon="5.78034">
        <ele>19.8</ele>
        <time>2022-07-28T08:24:16Z</time>
      </trkpt>
      <trkpt lat="43.07277" lon="5.78033">
        <ele>20.4</ele>
        <time>2022-07-28T08:24:30Z</time>
      </trkpt>
      <trkpt lat="43.07279" lon="5.78036">
        <ele>19.6</ele>
        <time>2022-07-28T08:24:41Z</time>
      </trkpt>
      <trkpt lat="43.07279" lon="5.78039">
        <ele>19</ele>
        <time>2022-07-28T08:24:46Z</time>
      </trkpt>
      <trkpt lat="43.07279" lon="5.78043">
        <ele>18.4</ele>
        <time>2022-07-28T08:24:50Z</time>
      </trkpt>
      <trkpt lat="43.0728" lon="5.78048">
        <ele>17.8</ele>
        <time>2022-07-28T08:24:54Z</time>
      </trkpt>
      <trkpt lat="43.0728" lon="5.78059">
        <ele>17.2</ele>
        <time>2022-07-28T08:25:02Z</time>
      </trkpt>
      <trkpt lat="43.07281" lon="5.78066">
        <ele>16.8</ele>
        <time>2022-07-28T08:25:07Z</time>
      </trkpt>
      <trkpt lat="43.07285" lon="5.7807">
        <ele>16.2</ele>
        <time>2022-07-28T08:25:14Z</time>
      </trkpt>
      <trkpt lat="43.07288" lon="5.7807">
        <ele>16</ele>
        <time>2022-07-28T08:25:16Z</time>
      </trkpt>
      <trkpt lat="43.07291" lon="5.78071">
        <ele>15.6</ele>
        <time>2022-07-28T08:25:19Z</time>
      </trkpt>
      <trkpt lat="43.07295" lon="5.7807">
        <ele>14.6</ele>
        <time>2022-07-28T08:25:25Z</time>
      </trkpt>
      <trkpt lat="43.07295" lon="5.7807">
        <ele>15</ele>
        <time>2022-07-28T08:25:26Z</time>
      </trkpt>
      <trkpt lat="43.07299" lon="5.7807">
        <ele>14.4</ele>
        <time>2022-07-28T08:25:36Z</time>
      </trkpt>
      <trkpt lat="43.07307" lon="5.78068">
        <ele>13.2</ele>
        <time>2022-07-28T08:25:45Z</time>
      </trkpt>
      <trkpt lat="43.07311" lon="5.78067">
        <ele>12.4</ele>
        <time>2022-07-28T08:25:50Z</time>
      </trkpt>
      <trkpt lat="43.07314" lon="5.78067">
        <ele>12.2</ele>
        <time>2022-07-28T08:25:53Z</time>
      </trkpt>
      <trkpt lat="43.07318" lon="5.78066">
        <ele>11.2</ele>
        <time>2022-07-28T08:25:58Z</time>
      </trkpt>
      <trkpt lat="43.07325" lon="5.78065">
        <ele>10.6</ele>
        <time>2022-07-28T08:26:04Z</time>
      </trkpt>
      <trkpt lat="43.07331" lon="5.78065">
        <ele>10.2</ele>
        <time>2022-07-28T08:26:10Z</time>
      </trkpt>
      <trkpt lat="43.07335" lon="5.78065">
        <ele>9.6</ele>
        <time>2022-07-28T08:26:14Z</time>
      </trkpt>
      <trkpt lat="43.07338" lon="5.78066">
        <ele>9</ele>
        <time>2022-07-28T08:26:19Z</time>
      </trkpt>
      <trkpt lat="43.07339" lon="5.78066">
        <ele>9</ele>
        <time>2022-07-28T08:26:21Z</time>
      </trkpt>
      <trkpt lat="43.07338" lon="5.78065">
        <ele>9.4</ele>
        <time>2022-07-28T08:26:24Z</time>
      </trkpt>
      <trkpt lat="43.07341" lon="5.78066">
        <ele>9</ele>
        <time>2022-07-28T08:26:36Z</time>
      </trkpt>
      <trkpt lat="43.07345" lon="5.78065">
        <ele>9</ele>
        <time>2022-07-28T08:26:40Z</time>
      </trkpt>
      <trkpt lat="43.07351" lon="5.78064">
        <ele>8.6</ele>
        <time>2022-07-28T08:26:46Z</time>
      </trkpt>
      <trkpt lat="43.07357" lon="5.78064">
        <ele>8</ele>
        <time>2022-07-28T08:26:51Z</time>
      </trkpt>
      <trkpt lat="43.07365" lon="5.78063">
        <ele>7.6</ele>
        <time>2022-07-28T08:26:59Z</time>
      </trkpt>
      <trkpt lat="43.07374" lon="5.78065">
        <ele>7.8</ele>
        <time>2022-07-28T08:27:07Z</time>
      </trkpt>
      <trkpt lat="43.07382" lon="5.78066">
        <ele>7.4</ele>
        <time>2022-07-28T08:27:14Z</time>
      </trkpt>
      <trkpt lat="43.07386" lon="5.78068">
        <ele>7.4</ele>
        <time>2022-07-28T08:27:20Z</time>
      </trkpt>
      <trkpt lat="43.07387" lon="5.78068">
        <ele>7.4</ele>
        <time>2022-07-28T08:27:24Z</time>
      </trkpt>
      <trkpt lat="43.07392" lon="5.78068">
        <ele>7.2</ele>
        <time>2022-07-28T08:27:33Z</time>
      </trkpt>
      <trkpt lat="43.07397" lon="5.78067">
        <ele>7.6</ele>
        <time>2022-07-28T08:27:44Z</time>
      </trkpt>
      <trkpt lat="43.07403" lon="5.78065">
        <ele>7.6</ele>
        <time>2022-07-28T08:27:55Z</time>
      </trkpt>
      <trkpt lat="43.0741" lon="5.78065">
        <ele>7.4</ele>
        <time>2022-07-28T08:28:07Z</time>
      </trkpt>
      <trkpt lat="43.07418" lon="5.78058">
        <ele>7.2</ele>
        <time>2022-07-28T08:28:18Z</time>
      </trkpt>
      <trkpt lat="43.07418" lon="5.78057">
        <ele>7.2</ele>
        <time>2022-07-28T08:28:19Z</time>
      </trkpt>
      <trkpt lat="43.0742" lon="5.78053">
        <ele>7.4</ele>
        <time>2022-07-28T08:28:26Z</time>
      </trkpt>
      <trkpt lat="43.07419" lon="5.78044">
        <ele>7.2</ele>
        <time>2022-07-28T08:28:33Z</time>
      </trkpt>
      <trkpt lat="43.07418" lon="5.7804">
        <ele>7.2</ele>
        <time>2022-07-28T08:28:36Z</time>
      </trkpt>
      <trkpt lat="43.07418" lon="5.78039">
        <ele>7.2</ele>
        <time>2022-07-28T08:28:37Z</time>
      </trkpt>
      <trkpt lat="43.07418" lon="5.78039">
        <ele>7</ele>
        <time>2022-07-28T08:28:38Z</time>
      </trkpt>
      <trkpt lat="43.07419" lon="5.78037">
        <ele>6.8</ele>
        <time>2022-07-28T08:28:40Z</time>
      </trkpt>
      <trkpt lat="43.07419" lon="5.78037">
        <ele>6.8</ele>
        <time>2022-07-28T08:28:46Z</time>
      </trkpt>
      <trkpt lat="43.07418" lon="5.78039">
        <ele>7.6</ele>
        <time>2022-07-28T08:29:00Z</time>
      </trkpt>
      <trkpt lat="43.07417" lon="5.78039">
        <ele>7.8</ele>
        <time>2022-07-28T08:29:11Z</time>
      </trkpt>
      <trkpt lat="43.07417" lon="5.78039">
        <ele>7.6</ele>
        <time>2022-07-28T08:29:31Z</time>
      </trkpt>
      <trkpt lat="43.07416" lon="5.78042">
        <ele>7</ele>
        <time>2022-07-28T08:29:44Z</time>
      </trkpt>
      <trkpt lat="43.07417" lon="5.78039">
        <ele>6.8</ele>
        <time>2022-07-28T08:29:56Z</time>
      </trkpt>
      <trkpt lat="43.07421" lon="5.78039">
        <ele>6.6</ele>
        <time>2022-07-28T08:30:06Z</time>
      </trkpt>
      <trkpt lat="43.07424" lon="5.78039">
        <ele>7</ele>
        <time>2022-07-28T08:30:10Z</time>
      </trkpt>
      <trkpt lat="43.07426" lon="5.78037">
        <ele>7.4</ele>
        <time>2022-07-28T08:30:12Z</time>
      </trkpt>
      <trkpt lat="43.07427" lon="5.78034">
        <ele>8</ele>
        <time>2022-07-28T08:30:15Z</time>
      </trkpt>
      <trkpt lat="43.07428" lon="5.78033">
        <ele>8</ele>
        <time>2022-07-28T08:30:16Z</time>
      </trkpt>
      <trkpt lat="43.07428" lon="5.78031">
        <ele>8.6</ele>
        <time>2022-07-28T08:30:24Z</time>
      </trkpt>
      <trkpt lat="43.07433" lon="5.78028">
        <ele>9</ele>
        <time>2022-07-28T08:30:33Z</time>
      </trkpt>
      <trkpt lat="43.07435" lon="5.78029">
        <ele>9.2</ele>
        <time>2022-07-28T08:30:35Z</time>
      </trkpt>
      <trkpt lat="43.07438" lon="5.78028">
        <ele>10.4</ele>
        <time>2022-07-28T08:30:39Z</time>
      </trkpt>
      <trkpt lat="43.07441" lon="5.78025">
        <ele>11.4</ele>
        <time>2022-07-28T08:30:43Z</time>
      </trkpt>
      <trkpt lat="43.07441" lon="5.78025">
        <ele>11.8</ele>
        <time>2022-07-28T08:30:44Z</time>
      </trkpt>
      <trkpt lat="43.07443" lon="5.7802">
        <ele>12.8</ele>
        <time>2022-07-28T08:30:49Z</time>
      </trkpt>
      <trkpt lat="43.07443" lon="5.78015">
        <ele>13</ele>
        <time>2022-07-28T08:30:53Z</time>
      </trkpt>
      <trkpt lat="43.07444" lon="5.78008">
        <ele>13.8</ele>
        <time>2022-07-28T08:30:58Z</time>
      </trkpt>
      <trkpt lat="43.07443" lon="5.77998">
        <ele>14.6</ele>
        <time>2022-07-28T08:31:05Z</time>
      </trkpt>
      <trkpt lat="43.07443" lon="5.77995">
        <ele>14.8</ele>
        <time>2022-07-28T08:31:07Z</time>
      </trkpt>
      <trkpt lat="43.07445" lon="5.77983">
        <ele>16</ele>
        <time>2022-07-28T08:31:16Z</time>
      </trkpt>
      <trkpt lat="43.07446" lon="5.77979">
        <ele>16.2</ele>
        <time>2022-07-28T08:31:19Z</time>
      </trkpt>
      <trkpt lat="43.07451" lon="5.7797">
        <ele>17</ele>
        <time>2022-07-28T08:31:27Z</time>
      </trkpt>
      <trkpt lat="43.07455" lon="5.77965">
        <ele>17.6</ele>
        <time>2022-07-28T08:31:31Z</time>
      </trkpt>
      <trkpt lat="43.07464" lon="5.77956">
        <ele>18</ele>
        <time>2022-07-28T08:31:43Z</time>
      </trkpt>
      <trkpt lat="43.07464" lon="5.77956">
        <ele>18.2</ele>
        <time>2022-07-28T08:31:44Z</time>
      </trkpt>
      <trkpt lat="43.0747" lon="5.77953">
        <ele>18.2</ele>
        <time>2022-07-28T08:31:53Z</time>
      </trkpt>
      <trkpt lat="43.07484" lon="5.7794">
        <ele>18.4</ele>
        <time>2022-07-28T08:32:06Z</time>
      </trkpt>
      <trkpt lat="43.07492" lon="5.77933">
        <ele>19.2</ele>
        <time>2022-07-28T08:32:14Z</time>
      </trkpt>
      <trkpt lat="43.07494" lon="5.7793">
        <ele>19.6</ele>
        <time>2022-07-28T08:32:17Z</time>
      </trkpt>
      <trkpt lat="43.07497" lon="5.77919">
        <ele>18.8</ele>
        <time>2022-07-28T08:32:26Z</time>
      </trkpt>
      <trkpt lat="43.07502" lon="5.7791">
        <ele>18.8</ele>
        <time>2022-07-28T08:32:35Z</time>
      </trkpt>
      <trkpt lat="43.07502" lon="5.77909">
        <ele>18.8</ele>
        <time>2022-07-28T08:32:36Z</time>
      </trkpt>
      <trkpt lat="43.07503" lon="5.77907">
        <ele>18.8</ele>
        <time>2022-07-28T08:32:38Z</time>
      </trkpt>
      <trkpt lat="43.07504" lon="5.779">
        <ele>18.4</ele>
        <time>2022-07-28T08:32:45Z</time>
      </trkpt>
      <trkpt lat="43.07505" lon="5.779">
        <ele>18.4</ele>
        <time>2022-07-28T08:32:46Z</time>
      </trkpt>
      <trkpt lat="43.07505" lon="5.779">
        <ele>18.2</ele>
        <time>2022-07-28T08:32:48Z</time>
      </trkpt>
      <trkpt lat="43.07506" lon="5.77901">
        <ele>18.8</ele>
        <time>2022-07-28T08:32:56Z</time>
      </trkpt>
      <trkpt lat="43.07507" lon="5.77903">
        <ele>18.6</ele>
        <time>2022-07-28T08:33:13Z</time>
      </trkpt>
      <trkpt lat="43.07502" lon="5.77912">
        <ele>18.4</ele>
        <time>2022-07-28T08:33:21Z</time>
      </trkpt>
      <trkpt lat="43.07502" lon="5.77928">
        <ele>18.8</ele>
        <time>2022-07-28T08:33:33Z</time>
      </trkpt>
      <trkpt lat="43.07505" lon="5.77929">
        <ele>18.6</ele>
        <time>2022-07-28T08:33:36Z</time>
      </trkpt>
      <trkpt lat="43.0751" lon="5.77928">
        <ele>18.6</ele>
        <time>2022-07-28T08:33:41Z</time>
      </trkpt>
      <trkpt lat="43.07517" lon="5.77925">
        <ele>17.2</ele>
        <time>2022-07-28T08:33:49Z</time>
      </trkpt>
      <trkpt lat="43.07522" lon="5.77922">
        <ele>16.4</ele>
        <time>2022-07-28T08:33:55Z</time>
      </trkpt>
      <trkpt lat="43.07523" lon="5.77921">
        <ele>16.2</ele>
        <time>2022-07-28T08:33:57Z</time>
      </trkpt>
      <trkpt lat="43.07529" lon="5.77917">
        <ele>15.2</ele>
        <time>2022-07-28T08:34:05Z</time>
      </trkpt>
      <trkpt lat="43.07534" lon="5.77913">
        <ele>14.4</ele>
        <time>2022-07-28T08:34:11Z</time>
      </trkpt>
      <trkpt lat="43.07536" lon="5.7791">
        <ele>14</ele>
        <time>2022-07-28T08:34:14Z</time>
      </trkpt>
      <trkpt lat="43.07542" lon="5.77902">
        <ele>13.2</ele>
        <time>2022-07-28T08:34:22Z</time>
      </trkpt>
      <trkpt lat="43.07543" lon="5.779">
        <ele>13</ele>
        <time>2022-07-28T08:34:24Z</time>
      </trkpt>
      <trkpt lat="43.07553" lon="5.7789">
        <ele>12.2</ele>
        <time>2022-07-28T08:34:36Z</time>
      </trkpt>
      <trkpt lat="43.07557" lon="5.77884">
        <ele>12</ele>
        <time>2022-07-28T08:34:42Z</time>
      </trkpt>
      <trkpt lat="43.07558" lon="5.77884">
        <ele>12.2</ele>
        <time>2022-07-28T08:34:46Z</time>
      </trkpt>
      <trkpt lat="43.07558" lon="5.77884">
        <ele>12.2</ele>
        <time>2022-07-28T08:34:47Z</time>
      </trkpt>
      <trkpt lat="43.07557" lon="5.77886">
        <ele>12.2</ele>
        <time>2022-07-28T08:35:00Z</time>
      </trkpt>
      <trkpt lat="43.07556" lon="5.77889">
        <ele>12.2</ele>
        <time>2022-07-28T08:35:11Z</time>
      </trkpt>
      <trkpt lat="43.07559" lon="5.77896">
        <ele>11.4</ele>
        <time>2022-07-28T08:35:19Z</time>
      </trkpt>
      <trkpt lat="43.0756" lon="5.77897">
        <ele>11.2</ele>
        <time>2022-07-28T08:35:20Z</time>
      </trkpt>
      <trkpt lat="43.07562" lon="5.779">
        <ele>11</ele>
        <time>2022-07-28T08:35:23Z</time>
      </trkpt>
      <trkpt lat="43.07567" lon="5.77905">
        <ele>10</ele>
        <time>2022-07-28T08:35:30Z</time>
      </trkpt>
      <trkpt lat="43.0757" lon="5.77908">
        <ele>9.2</ele>
        <time>2022-07-28T08:35:34Z</time>
      </trkpt>
      <trkpt lat="43.07572" lon="5.77909">
        <ele>9</ele>
        <time>2022-07-28T08:35:36Z</time>
      </trkpt>
      <trkpt lat="43.07573" lon="5.7791">
        <ele>8.8</ele>
        <time>2022-07-28T08:35:37Z</time>
      </trkpt>
      <trkpt lat="43.07578" lon="5.77914">
        <ele>7.8</ele>
        <time>2022-07-28T08:35:44Z</time>
      </trkpt>
      <trkpt lat="43.07585" lon="5.77916">
        <ele>7</ele>
        <time>2022-07-28T08:35:52Z</time>
      </trkpt>
      <trkpt lat="43.07588" lon="5.77917">
        <ele>6.8</ele>
        <time>2022-07-28T08:35:56Z</time>
      </trkpt>
      <trkpt lat="43.076" lon="5.77919">
        <ele>6.2</ele>
        <time>2022-07-28T08:36:07Z</time>
      </trkpt>
      <trkpt lat="43.07604" lon="5.77921">
        <ele>6</ele>
        <time>2022-07-28T08:36:14Z</time>
      </trkpt>
      <trkpt lat="43.07605" lon="5.77919">
        <ele>6</ele>
        <time>2022-07-28T08:36:16Z</time>
      </trkpt>
      <trkpt lat="43.07606" lon="5.77916">
        <ele>6</ele>
        <time>2022-07-28T08:36:24Z</time>
      </trkpt>
      <trkpt lat="43.07612" lon="5.77921">
        <ele>5.8</ele>
        <time>2022-07-28T08:36:34Z</time>
      </trkpt>
      <trkpt lat="43.07613" lon="5.77925">
        <ele>5.8</ele>
        <time>2022-07-28T08:36:37Z</time>
      </trkpt>
      <trkpt lat="43.07618" lon="5.77937">
        <ele>6</ele>
        <time>2022-07-28T08:36:47Z</time>
      </trkpt>
      <trkpt lat="43.0762" lon="5.77939">
        <ele>6</ele>
        <time>2022-07-28T08:36:56Z</time>
      </trkpt>
      <trkpt lat="43.07618" lon="5.77931">
        <ele>6</ele>
        <time>2022-07-28T08:37:03Z</time>
      </trkpt>
      <trkpt lat="43.07618" lon="5.77918">
        <ele>6</ele>
        <time>2022-07-28T08:37:12Z</time>
      </trkpt>
      <trkpt lat="43.07622" lon="5.77912">
        <ele>4.8</ele>
        <time>2022-07-28T08:37:19Z</time>
      </trkpt>
      <trkpt lat="43.07623" lon="5.77911">
        <ele>4.8</ele>
        <time>2022-07-28T08:37:21Z</time>
      </trkpt>
      <trkpt lat="43.07625" lon="5.7791">
        <ele>4.8</ele>
        <time>2022-07-28T08:37:23Z</time>
      </trkpt>
      <trkpt lat="43.07625" lon="5.77909">
        <ele>4.4</ele>
        <time>2022-07-28T08:37:25Z</time>
      </trkpt>
      <trkpt lat="43.07624" lon="5.77905">
        <ele>3.8</ele>
        <time>2022-07-28T08:37:30Z</time>
      </trkpt>
      <trkpt lat="43.07624" lon="5.77904">
        <ele>3.6</ele>
        <time>2022-07-28T08:37:31Z</time>
      </trkpt>
      <trkpt lat="43.07623" lon="5.77894">
        <ele>2.6</ele>
        <time>2022-07-28T08:37:39Z</time>
      </trkpt>
      <trkpt lat="43.07623" lon="5.77891">
        <ele>2.2</ele>
        <time>2022-07-28T08:37:42Z</time>
      </trkpt>
      <trkpt lat="43.07623" lon="5.77885">
        <ele>1.4</ele>
        <time>2022-07-28T08:37:48Z</time>
      </trkpt>
      <trkpt lat="43.0762" lon="5.7788">
        <ele>0.6</ele>
        <time>2022-07-28T08:37:54Z</time>
      </trkpt>
      <trkpt lat="43.0762" lon="5.77879">
        <ele>0.4</ele>
        <time>2022-07-28T08:37:56Z</time>
      </trkpt>
      <trkpt lat="43.07621" lon="5.77879">
        <ele>0.6</ele>
        <time>2022-07-28T08:38:04Z</time>
      </trkpt>
      <trkpt lat="43.07624" lon="5.77881">
        <ele>0.4</ele>
        <time>2022-07-28T08:38:15Z</time>
      </trkpt>
      <trkpt lat="43.07634" lon="5.77882">
        <ele>0.8</ele>
        <time>2022-07-28T08:38:25Z</time>
      </trkpt>
      <trkpt lat="43.07637" lon="5.77873">
        <ele>0.2</ele>
        <time>2022-07-28T08:38:35Z</time>
      </trkpt>
      <trkpt lat="43.07638" lon="5.77861">
        <ele>-0.6</ele>
        <time>2022-07-28T08:38:47Z</time>
      </trkpt>
      <trkpt lat="43.07639" lon="5.7786">
        <ele>-0.8</ele>
        <time>2022-07-28T08:38:48Z</time>
      </trkpt>
      <trkpt lat="43.07642" lon="5.77852">
        <ele>-1.8</ele>
        <time>2022-07-28T08:38:59Z</time>
      </trkpt>
      <trkpt lat="43.07642" lon="5.77851">
        <ele>-1.8</ele>
        <time>2022-07-28T08:39:00Z</time>
      </trkpt>
      <trkpt lat="43.07643" lon="5.77846">
        <ele>-3</ele>
        <time>2022-07-28T08:39:07Z</time>
      </trkpt>
      <trkpt lat="43.07643" lon="5.77844">
        <ele>-3</ele>
        <time>2022-07-28T08:39:09Z</time>
      </trkpt>
      <trkpt lat="43.07644" lon="5.7784">
        <ele>-3.4</ele>
        <time>2022-07-28T08:39:19Z</time>
      </trkpt>
      <trkpt lat="43.07646" lon="5.77837">
        <ele>-4</ele>
        <time>2022-07-28T08:39:28Z</time>
      </trkpt>
      <trkpt lat="43.07646" lon="5.77837">
        <ele>-4</ele>
        <time>2022-07-28T08:39:29Z</time>
      </trkpt>
      <trkpt lat="43.07647" lon="5.77839">
        <ele>-4.6</ele>
        <time>2022-07-28T08:39:45Z</time>
      </trkpt>
      <trkpt lat="43.07646" lon="5.77841">
        <ele>-4.4</ele>
        <time>2022-07-28T08:40:02Z</time>
      </trkpt>
      <trkpt lat="43.07647" lon="5.7784">
        <ele>-4.8</ele>
        <time>2022-07-28T08:40:19Z</time>
      </trkpt>
      <trkpt lat="43.07647" lon="5.7784">
        <ele>-4</ele>
        <time>2022-07-28T08:40:34Z</time>
      </trkpt>
      <trkpt lat="43.07647" lon="5.77838">
        <ele>-4</ele>
        <time>2022-07-28T08:40:46Z</time>
      </trkpt>
      <trkpt lat="43.07647" lon="5.77839">
        <ele>-4</ele>
        <time>2022-07-28T08:40:59Z</time>
      </trkpt>
      <trkpt lat="43.07646" lon="5.7784">
        <ele>-3.6</ele>
        <time>2022-07-28T08:41:17Z</time>
      </trkpt>
      <trkpt lat="43.07645" lon="5.77841">
        <ele>-4.4</ele>
        <time>2022-07-28T08:41:35Z</time>
      </trkpt>
      <trkpt lat="43.07641" lon="5.7785">
        <ele>-3.6</ele>
        <time>2022-07-28T08:41:44Z</time>
      </trkpt>
      <trkpt lat="43.07642" lon="5.77858">
        <ele>-2.8</ele>
        <time>2022-07-28T08:41:52Z</time>
      </trkpt>
      <trkpt lat="43.07642" lon="5.77863">
        <ele>-2.6</ele>
        <time>2022-07-28T08:41:56Z</time>
      </trkpt>
      <trkpt lat="43.07647" lon="5.77867">
        <ele>-2.8</ele>
        <time>2022-07-28T08:42:02Z</time>
      </trkpt>
      <trkpt lat="43.0765" lon="5.77866">
        <ele>-3</ele>
        <time>2022-07-28T08:42:05Z</time>
      </trkpt>
      <trkpt lat="43.07654" lon="5.77864">
        <ele>-3.4</ele>
        <time>2022-07-28T08:42:10Z</time>
      </trkpt>
      <trkpt lat="43.07655" lon="5.77863">
        <ele>-3.6</ele>
        <time>2022-07-28T08:42:11Z</time>
      </trkpt>
      <trkpt lat="43.07656" lon="5.77863">
        <ele>-4</ele>
        <time>2022-07-28T08:42:12Z</time>
      </trkpt>
      <trkpt lat="43.07664" lon="5.77859">
        <ele>-3.8</ele>
        <time>2022-07-28T08:42:23Z</time>
      </trkpt>
      <trkpt lat="43.07668" lon="5.77859">
        <ele>-3.6</ele>
        <time>2022-07-28T08:42:33Z</time>
      </trkpt>
      <trkpt lat="43.07667" lon="5.77864">
        <ele>-3.6</ele>
        <time>2022-07-28T08:42:43Z</time>
      </trkpt>
      <trkpt lat="43.07669" lon="5.7787">
        <ele>-2.8</ele>
        <time>2022-07-28T08:42:48Z</time>
      </trkpt>
      <trkpt lat="43.07671" lon="5.77877">
        <ele>-1.6</ele>
        <time>2022-07-28T08:42:54Z</time>
      </trkpt>
      <trkpt lat="43.07671" lon="5.77878">
        <ele>-1.2</ele>
        <time>2022-07-28T08:42:56Z</time>
      </trkpt>
      <trkpt lat="43.07673" lon="5.77882">
        <ele>-0.6</ele>
        <time>2022-07-28T08:43:00Z</time>
      </trkpt>
      <trkpt lat="43.07671" lon="5.77885">
        <ele>14.5</ele>
        <time>2022-07-28T08:43:03Z</time>
      </trkpt>
      <trkpt lat="43.07671" lon="5.77887">
        <ele>0.2</ele>
        <time>2022-07-28T08:43:05Z</time>
      </trkpt>
      <trkpt lat="43.0767" lon="5.77889">
        <ele>0.6</ele>
        <time>2022-07-28T08:43:06Z</time>
      </trkpt>
      <trkpt lat="43.0767" lon="5.7789">
        <ele>0.8</ele>
        <time>2022-07-28T08:43:07Z</time>
      </trkpt>
      <trkpt lat="43.07669" lon="5.779">
        <ele>1.6</ele>
        <time>2022-07-28T08:43:14Z</time>
      </trkpt>
      <trkpt lat="43.07668" lon="5.77905">
        <ele>2.2</ele>
        <time>2022-07-28T08:43:17Z</time>
      </trkpt>
      <trkpt lat="43.07668" lon="5.77916">
        <ele>2</ele>
        <time>2022-07-28T08:43:26Z</time>
      </trkpt>
      <trkpt lat="43.0767" lon="5.77917">
        <ele>2</ele>
        <time>2022-07-28T08:43:28Z</time>
      </trkpt>
      <trkpt lat="43.07681" lon="5.77923">
        <ele>1</ele>
        <time>2022-07-28T08:43:38Z</time>
      </trkpt>
      <trkpt lat="43.07686" lon="5.77925">
        <ele>0.6</ele>
        <time>2022-07-28T08:43:43Z</time>
      </trkpt>
      <trkpt lat="43.07695" lon="5.77928">
        <ele>-0.2</ele>
        <time>2022-07-28T08:43:51Z</time>
      </trkpt>
      <trkpt lat="43.07701" lon="5.7793">
        <ele>-0.4</ele>
        <time>2022-07-28T08:43:56Z</time>
      </trkpt>
      <trkpt lat="43.07709" lon="5.77931">
        <ele>-0.6</ele>
        <time>2022-07-28T08:44:04Z</time>
      </trkpt>
      <trkpt lat="43.07717" lon="5.77928">
        <ele>-1.4</ele>
        <time>2022-07-28T08:44:11Z</time>
      </trkpt>
      <trkpt lat="43.07721" lon="5.77926">
        <ele>-1.4</ele>
        <time>2022-07-28T08:44:15Z</time>
      </trkpt>
      <trkpt lat="43.07722" lon="5.77924">
        <ele>-1.2</ele>
        <time>2022-07-28T08:44:20Z</time>
      </trkpt>
      <trkpt lat="43.07723" lon="5.77922">
        <ele>-1.6</ele>
        <time>2022-07-28T08:44:23Z</time>
      </trkpt>
      <trkpt lat="43.07724" lon="5.77913">
        <ele>-2.6</ele>
        <time>2022-07-28T08:44:34Z</time>
      </trkpt>
      <trkpt lat="43.07724" lon="5.77908">
        <ele>-3.8</ele>
        <time>2022-07-28T08:44:39Z</time>
      </trkpt>
      <trkpt lat="43.07725" lon="5.77904">
        <ele>-4.4</ele>
        <time>2022-07-28T08:44:43Z</time>
      </trkpt>
      <trkpt lat="43.0773" lon="5.77895">
        <ele>-4.4</ele>
        <time>2022-07-28T08:44:53Z</time>
      </trkpt>
      <trkpt lat="43.0773" lon="5.7789">
        <ele>-5</ele>
        <time>2022-07-28T08:44:58Z</time>
      </trkpt>
      <trkpt lat="43.07731" lon="5.77883">
        <ele>-5.8</ele>
        <time>2022-07-28T08:45:05Z</time>
      </trkpt>
      <trkpt lat="43.07732" lon="5.77882">
        <ele>-6</ele>
        <time>2022-07-28T08:45:07Z</time>
      </trkpt>
      <trkpt lat="43.07733" lon="5.77877">
        <ele>-6.6</ele>
        <time>2022-07-28T08:45:14Z</time>
      </trkpt>
      <trkpt lat="43.07733" lon="5.77876">
        <ele>-7</ele>
        <time>2022-07-28T08:45:20Z</time>
      </trkpt>
      <trkpt lat="43.07734" lon="5.77876">
        <ele>-7</ele>
        <time>2022-07-28T08:45:26Z</time>
      </trkpt>
      <trkpt lat="43.07732" lon="5.77875">
        <ele>-6.6</ele>
        <time>2022-07-28T08:45:41Z</time>
      </trkpt>
      <trkpt lat="43.07731" lon="5.77883">
        <ele>-6.2</ele>
        <time>2022-07-28T08:45:53Z</time>
      </trkpt>
      <trkpt lat="43.07732" lon="5.77886">
        <ele>-6</ele>
        <time>2022-07-28T08:45:55Z</time>
      </trkpt>
      <trkpt lat="43.07731" lon="5.77888">
        <ele>-5.8</ele>
        <time>2022-07-28T08:45:56Z</time>
      </trkpt>
      <trkpt lat="43.0773" lon="5.77898">
        <ele>-4.8</ele>
        <time>2022-07-28T08:46:03Z</time>
      </trkpt>
      <trkpt lat="43.07729" lon="5.77899">
        <ele>-4.6</ele>
        <time>2022-07-28T08:46:04Z</time>
      </trkpt>
      <trkpt lat="43.07726" lon="5.77899">
        <ele>-4</ele>
        <time>2022-07-28T08:46:11Z</time>
      </trkpt>
      <trkpt lat="43.07724" lon="5.77902">
        <ele>-4</ele>
        <time>2022-07-28T08:46:13Z</time>
      </trkpt>
      <trkpt lat="43.07724" lon="5.77908">
        <ele>-4.2</ele>
        <time>2022-07-28T08:46:17Z</time>
      </trkpt>
      <trkpt lat="43.07724" lon="5.7791">
        <ele>-4.2</ele>
        <time>2022-07-28T08:46:19Z</time>
      </trkpt>
      <trkpt lat="43.07724" lon="5.77914">
        <ele>-3.6</ele>
        <time>2022-07-28T08:46:23Z</time>
      </trkpt>
      <trkpt lat="43.07725" lon="5.77916">
        <ele>-2.6</ele>
        <time>2022-07-28T08:46:27Z</time>
      </trkpt>
      <trkpt lat="43.07727" lon="5.77916">
        <ele>-2.2</ele>
        <time>2022-07-28T08:46:28Z</time>
      </trkpt>
      <trkpt lat="43.0773" lon="5.77915">
        <ele>-1.6</ele>
        <time>2022-07-28T08:46:30Z</time>
      </trkpt>
      <trkpt lat="43.07734" lon="5.77909">
        <ele>-1</ele>
        <time>2022-07-28T08:46:35Z</time>
      </trkpt>
      <trkpt lat="43.07742" lon="5.77897">
        <ele>-1.2</ele>
        <time>2022-07-28T08:46:47Z</time>
      </trkpt>
      <trkpt lat="43.07747" lon="5.77884">
        <ele>-1</ele>
        <time>2022-07-28T08:47:00Z</time>
      </trkpt>
      <trkpt lat="43.07745" lon="5.77876">
        <ele>-1.2</ele>
        <time>2022-07-28T08:47:07Z</time>
      </trkpt>
      <trkpt lat="43.07745" lon="5.77875">
        <ele>-1.4</ele>
        <time>2022-07-28T08:47:09Z</time>
      </trkpt>
      <trkpt lat="43.07747" lon="5.77878">
        <ele>-1.2</ele>
        <time>2022-07-28T08:47:21Z</time>
      </trkpt>
      <trkpt lat="43.07751" lon="5.77879">
        <ele>-1</ele>
        <time>2022-07-28T08:47:26Z</time>
      </trkpt>
      <trkpt lat="43.07756" lon="5.77876">
        <ele>-1</ele>
        <time>2022-07-28T08:47:30Z</time>
      </trkpt>
      <trkpt lat="43.07759" lon="5.77869">
        <ele>-1</ele>
        <time>2022-07-28T08:47:39Z</time>
      </trkpt>
      <trkpt lat="43.0776" lon="5.77872">
        <ele>-0.8</ele>
        <time>2022-07-28T08:47:48Z</time>
      </trkpt>
      <trkpt lat="43.07769" lon="5.77872">
        <ele>-0.6</ele>
        <time>2022-07-28T08:47:57Z</time>
      </trkpt>
      <trkpt lat="43.07786" lon="5.77867">
        <ele>-2.2</ele>
        <time>2022-07-28T08:48:12Z</time>
      </trkpt>
      <trkpt lat="43.07791" lon="5.77866">
        <ele>-2.6</ele>
        <time>2022-07-28T08:48:16Z</time>
      </trkpt>
      <trkpt lat="43.07794" lon="5.77858">
        <ele>-3</ele>
        <time>2022-07-28T08:48:24Z</time>
      </trkpt>
      <trkpt lat="43.07792" lon="5.77848">
        <ele>-2.8</ele>
        <time>2022-07-28T08:48:35Z</time>
      </trkpt>
      <trkpt lat="43.07793" lon="5.77853">
        <ele>-3</ele>
        <time>2022-07-28T08:48:45Z</time>
      </trkpt>
      <trkpt lat="43.07798" lon="5.77859">
        <ele>-3.6</ele>
        <time>2022-07-28T08:48:54Z</time>
      </trkpt>
      <trkpt lat="43.07806" lon="5.77857">
        <ele>-4.6</ele>
        <time>2022-07-28T08:49:01Z</time>
      </trkpt>
      <trkpt lat="43.07813" lon="5.77853">
        <ele>-5.8</ele>
        <time>2022-07-28T08:49:08Z</time>
      </trkpt>
      <trkpt lat="43.07814" lon="5.77852">
        <ele>-6</ele>
        <time>2022-07-28T08:49:09Z</time>
      </trkpt>
      <trkpt lat="43.0782" lon="5.77843">
        <ele>-6.8</ele>
        <time>2022-07-28T08:49:18Z</time>
      </trkpt>
      <trkpt lat="43.07821" lon="5.7784">
        <ele>-7.2</ele>
        <time>2022-07-28T08:49:21Z</time>
      </trkpt>
      <trkpt lat="43.07822" lon="5.7784">
        <ele>-7.4</ele>
        <time>2022-07-28T08:49:23Z</time>
      </trkpt>
      <trkpt lat="43.07821" lon="5.77839">
        <ele>-7.4</ele>
        <time>2022-07-28T08:49:31Z</time>
      </trkpt>
      <trkpt lat="43.07823" lon="5.77837">
        <ele>-8</ele>
        <time>2022-07-28T08:49:41Z</time>
      </trkpt>
      <trkpt lat="43.07824" lon="5.77836">
        <ele>-8</ele>
        <time>2022-07-28T08:49:42Z</time>
      </trkpt>
      <trkpt lat="43.07829" lon="5.77835">
        <ele>-8.6</ele>
        <time>2022-07-28T08:49:47Z</time>
      </trkpt>
      <trkpt lat="43.07831" lon="5.77833">
        <ele>-9</ele>
        <time>2022-07-28T08:49:50Z</time>
      </trkpt>
      <trkpt lat="43.07832" lon="5.77828">
        <ele>-9.6</ele>
        <time>2022-07-28T08:49:55Z</time>
      </trkpt>
      <trkpt lat="43.07832" lon="5.77823">
        <ele>-9.8</ele>
        <time>2022-07-28T08:50:03Z</time>
      </trkpt>
      <trkpt lat="43.0783" lon="5.77825">
        <ele>-10</ele>
        <time>2022-07-28T08:50:18Z</time>
      </trkpt>
      <trkpt lat="43.07829" lon="5.77826">
        <ele>-10</ele>
        <time>2022-07-28T08:50:20Z</time>
      </trkpt>
      <trkpt lat="43.07828" lon="5.77826">
        <ele>-10</ele>
        <time>2022-07-28T08:50:33Z</time>
      </trkpt>
      <trkpt lat="43.07828" lon="5.77826">
        <ele>-9</ele>
        <time>2022-07-28T08:50:42Z</time>
      </trkpt>
      <trkpt lat="43.07828" lon="5.77826">
        <ele>-8.8</ele>
        <time>2022-07-28T08:50:50Z</time>
      </trkpt>
      <trkpt lat="43.07829" lon="5.77827">
        <ele>-9.6</ele>
        <time>2022-07-28T08:51:09Z</time>
      </trkpt>
      <trkpt lat="43.07829" lon="5.77834">
        <ele>-10</ele>
        <time>2022-07-28T08:51:17Z</time>
      </trkpt>
      <trkpt lat="43.07827" lon="5.77837">
        <ele>-10</ele>
        <time>2022-07-28T08:51:20Z</time>
      </trkpt>
      <trkpt lat="43.07826" lon="5.77841">
        <ele>-8.8</ele>
        <time>2022-07-28T08:51:25Z</time>
      </trkpt>
      <trkpt lat="43.0783" lon="5.77841">
        <ele>-8.2</ele>
        <time>2022-07-28T08:51:28Z</time>
      </trkpt>
      <trkpt lat="43.07842" lon="5.77839">
        <ele>-8.6</ele>
        <time>2022-07-28T08:51:38Z</time>
      </trkpt>
      <trkpt lat="43.07855" lon="5.77832">
        <ele>-9.4</ele>
        <time>2022-07-28T08:51:51Z</time>
      </trkpt>
      <trkpt lat="43.07869" lon="5.77827">
        <ele>-8.8</ele>
        <time>2022-07-28T08:52:04Z</time>
      </trkpt>
      <trkpt lat="43.07881" lon="5.77819">
        <ele>-8</ele>
        <time>2022-07-28T08:52:17Z</time>
      </trkpt>
      <trkpt lat="43.07884" lon="5.77816">
        <ele>-7.8</ele>
        <time>2022-07-28T08:52:20Z</time>
      </trkpt>
      <trkpt lat="43.07886" lon="5.77805">
        <ele>-7.2</ele>
        <time>2022-07-28T08:52:28Z</time>
      </trkpt>
      <trkpt lat="43.07886" lon="5.77805">
        <ele>-7.2</ele>
        <time>2022-07-28T08:52:29Z</time>
      </trkpt>
      <trkpt lat="43.07886" lon="5.77805">
        <ele>-6.6</ele>
        <time>2022-07-28T08:52:33Z</time>
      </trkpt>
      <trkpt lat="43.07886" lon="5.77805">
        <ele>-6.2</ele>
        <time>2022-07-28T08:52:37Z</time>
      </trkpt>
      <trkpt lat="43.07886" lon="5.77804">
        <ele>-6.8</ele>
        <time>2022-07-28T08:52:48Z</time>
      </trkpt>
      <trkpt lat="43.07886" lon="5.7781">
        <ele>-7</ele>
        <time>2022-07-28T08:53:02Z</time>
      </trkpt>
      <trkpt lat="43.07887" lon="5.77819">
        <ele>-7.6</ele>
        <time>2022-07-28T08:53:08Z</time>
      </trkpt>
      <trkpt lat="43.07888" lon="5.77824">
        <ele>-7.6</ele>
        <time>2022-07-28T08:53:11Z</time>
      </trkpt>
      <trkpt lat="43.07895" lon="5.77837">
        <ele>-6.8</ele>
        <time>2022-07-28T08:53:22Z</time>
      </trkpt>
      <trkpt lat="43.07903" lon="5.77847">
        <ele>-6.6</ele>
        <time>2022-07-28T08:53:30Z</time>
      </trkpt>
      <trkpt lat="43.07904" lon="5.7785">
        <ele>-6.4</ele>
        <time>2022-07-28T08:53:32Z</time>
      </trkpt>
      <trkpt lat="43.07913" lon="5.7786">
        <ele>-6.6</ele>
        <time>2022-07-28T08:53:41Z</time>
      </trkpt>
      <trkpt lat="43.07923" lon="5.7787">
        <ele>-6.8</ele>
        <time>2022-07-28T08:53:50Z</time>
      </trkpt>
      <trkpt lat="43.07929" lon="5.77877">
        <ele>-7</ele>
        <time>2022-07-28T08:53:58Z</time>
      </trkpt>
      <trkpt lat="43.0793" lon="5.77876">
        <ele>-7</ele>
        <time>2022-07-28T08:53:59Z</time>
      </trkpt>
      <trkpt lat="43.07931" lon="5.77874">
        <ele>-7</ele>
        <time>2022-07-28T08:54:01Z</time>
      </trkpt>
      <trkpt lat="43.07934" lon="5.77873">
        <ele>-7.4</ele>
        <time>2022-07-28T08:54:04Z</time>
      </trkpt>
      <trkpt lat="43.07939" lon="5.77871">
        <ele>-7.6</ele>
        <time>2022-07-28T08:54:12Z</time>
      </trkpt>
      <trkpt lat="43.07941" lon="5.77871">
        <ele>-7.8</ele>
        <time>2022-07-28T08:54:15Z</time>
      </trkpt>
      <trkpt lat="43.07942" lon="5.7787">
        <ele>-8.6</ele>
        <time>2022-07-28T08:54:18Z</time>
      </trkpt>
      <trkpt lat="43.07949" lon="5.77866">
        <ele>-9.4</ele>
        <time>2022-07-28T08:54:28Z</time>
      </trkpt>
      <trkpt lat="43.07949" lon="5.77865">
        <ele>-9.6</ele>
        <time>2022-07-28T08:54:29Z</time>
      </trkpt>
      <trkpt lat="43.0795" lon="5.77865">
        <ele>-10.4</ele>
        <time>2022-07-28T08:54:37Z</time>
      </trkpt>
      <trkpt lat="43.07946" lon="5.77866">
        <ele>-10.2</ele>
        <time>2022-07-28T08:54:53Z</time>
      </trkpt>
      <trkpt lat="43.07943" lon="5.77866">
        <ele>-9.4</ele>
        <time>2022-07-28T08:55:03Z</time>
      </trkpt>
      <trkpt lat="43.07947" lon="5.77867">
        <ele>-10</ele>
        <time>2022-07-28T08:55:10Z</time>
      </trkpt>
      <trkpt lat="43.07947" lon="5.7787">
        <ele>-10.8</ele>
        <time>2022-07-28T08:55:14Z</time>
      </trkpt>
      <trkpt lat="43.07947" lon="5.77871">
        <ele>-11.2</ele>
        <time>2022-07-28T08:55:21Z</time>
      </trkpt>
      <trkpt lat="43.0795" lon="5.77874">
        <ele>-12</ele>
        <time>2022-07-28T08:55:30Z</time>
      </trkpt>
      <trkpt lat="43.0795" lon="5.77874">
        <ele>-12.2</ele>
        <time>2022-07-28T08:55:31Z</time>
      </trkpt>
      <trkpt lat="43.07955" lon="5.77874">
        <ele>-13</ele>
        <time>2022-07-28T08:55:40Z</time>
      </trkpt>
      <trkpt lat="43.07955" lon="5.77874">
        <ele>-13.2</ele>
        <time>2022-07-28T08:55:43Z</time>
      </trkpt>
      <trkpt lat="43.07956" lon="5.77872">
        <ele>-13.4</ele>
        <time>2022-07-28T08:55:55Z</time>
      </trkpt>
      <trkpt lat="43.07957" lon="5.77867">
        <ele>-14.2</ele>
        <time>2022-07-28T08:56:03Z</time>
      </trkpt>
      <trkpt lat="43.07958" lon="5.77867">
        <ele>-14.4</ele>
        <time>2022-07-28T08:56:04Z</time>
      </trkpt>
      <trkpt lat="43.07956" lon="5.77869">
        <ele>-14.2</ele>
        <time>2022-07-28T08:56:12Z</time>
      </trkpt>
      <trkpt lat="43.07954" lon="5.77869">
        <ele>-13.4</ele>
        <time>2022-07-28T08:56:23Z</time>
      </trkpt>
      <trkpt lat="43.07954" lon="5.7787">
        <ele>-13.4</ele>
        <time>2022-07-28T08:56:38Z</time>
      </trkpt>
      <trkpt lat="43.07954" lon="5.7787">
        <ele>-14</ele>
        <time>2022-07-28T08:56:50Z</time>
      </trkpt>
      <trkpt lat="43.07955" lon="5.7787">
        <ele>-14.4</ele>
        <time>2022-07-28T08:57:03Z</time>
      </trkpt>
      <trkpt lat="43.07956" lon="5.77872">
        <ele>-13.8</ele>
        <time>2022-07-28T08:57:13Z</time>
      </trkpt>
      <trkpt lat="43.07956" lon="5.77872">
        <ele>-14</ele>
        <time>2022-07-28T08:57:14Z</time>
      </trkpt>
      <trkpt lat="43.07954" lon="5.77871">
        <ele>-14</ele>
        <time>2022-07-28T08:57:29Z</time>
      </trkpt>
      <trkpt lat="43.07954" lon="5.77869">
        <ele>-14.4</ele>
        <time>2022-07-28T08:57:41Z</time>
      </trkpt>
      <trkpt lat="43.07955" lon="5.77869">
        <ele>-14.2</ele>
        <time>2022-07-28T08:57:53Z</time>
      </trkpt>
      <trkpt lat="43.07954" lon="5.77871">
        <ele>-14.2</ele>
        <time>2022-07-28T08:58:08Z</time>
      </trkpt>
      <trkpt lat="43.07954" lon="5.77871">
        <ele>-15.2</ele>
        <time>2022-07-28T08:58:18Z</time>
      </trkpt>
      <trkpt lat="43.07954" lon="5.77872">
        <ele>-15.2</ele>
        <time>2022-07-28T08:58:20Z</time>
      </trkpt>
      <trkpt lat="43.07953" lon="5.77873">
        <ele>-13.4</ele>
        <time>2022-07-28T08:58:26Z</time>
      </trkpt>
      <trkpt lat="43.07954" lon="5.77872">
        <ele>-13</ele>
        <time>2022-07-28T08:58:29Z</time>
      </trkpt>
      <trkpt lat="43.07954" lon="5.77868">
        <ele>-14.2</ele>
        <time>2022-07-28T09:25:48Z</time>
      </trkpt>
      <trkpt lat="43.07953" lon="5.77871">
        <ele>-14.2</ele>
        <time>2022-07-28T09:25:51Z</time>
      </trkpt>
      <trkpt lat="43.07952" lon="5.77867">
        <ele>-13.8</ele>
        <time>2022-07-28T09:26:01Z</time>
      </trkpt>
      <trkpt lat="43.07951" lon="5.77865">
        <ele>-12.4</ele>
        <time>2022-07-28T09:26:08Z</time>
      </trkpt>
      <trkpt lat="43.07948" lon="5.77865">
        <ele>-11.2</ele>
        <time>2022-07-28T09:26:13Z</time>
      </trkpt>
      <trkpt lat="43.07943" lon="5.77867">
        <ele>-10</ele>
        <time>2022-07-28T09:26:19Z</time>
      </trkpt>
      <trkpt lat="43.0794" lon="5.77867">
        <ele>-9</ele>
        <time>2022-07-28T09:26:23Z</time>
      </trkpt>
      <trkpt lat="43.07939" lon="5.77867">
        <ele>-8.8</ele>
        <time>2022-07-28T09:26:24Z</time>
      </trkpt>
      <trkpt lat="43.07932" lon="5.77871">
        <ele>-8.2</ele>
        <time>2022-07-28T09:26:30Z</time>
      </trkpt>
      <trkpt lat="43.0793" lon="5.77876">
        <ele>-8</ele>
        <time>2022-07-28T09:26:34Z</time>
      </trkpt>
      <trkpt lat="43.07929" lon="5.77876">
        <ele>-7.8</ele>
        <time>2022-07-28T09:26:35Z</time>
      </trkpt>
      <trkpt lat="43.07928" lon="5.77878">
        <ele>-7.8</ele>
        <time>2022-07-28T09:26:39Z</time>
      </trkpt>
      <trkpt lat="43.07928" lon="5.77878">
        <ele>-8.2</ele>
        <time>2022-07-28T09:26:47Z</time>
      </trkpt>
      <trkpt lat="43.07929" lon="5.77882">
        <ele>-8.8</ele>
        <time>2022-07-28T09:26:57Z</time>
      </trkpt>
      <trkpt lat="43.07939" lon="5.77892">
        <ele>-8.4</ele>
        <time>2022-07-28T09:27:08Z</time>
      </trkpt>
      <trkpt lat="43.07951" lon="5.77905">
        <ele>-8.6</ele>
        <time>2022-07-28T09:27:22Z</time>
      </trkpt>
      <trkpt lat="43.07954" lon="5.7791">
        <ele>-8.6</ele>
        <time>2022-07-28T09:27:26Z</time>
      </trkpt>
      <trkpt lat="43.07956" lon="5.77912">
        <ele>-9</ele>
        <time>2022-07-28T09:27:28Z</time>
      </trkpt>
      <trkpt lat="43.07964" lon="5.77927">
        <ele>-8</ele>
        <time>2022-07-28T09:27:41Z</time>
      </trkpt>
      <trkpt lat="43.07977" lon="5.77942">
        <ele>-8.4</ele>
        <time>2022-07-28T09:27:55Z</time>
      </trkpt>
      <trkpt lat="43.07989" lon="5.77956">
        <ele>-8.8</ele>
        <time>2022-07-28T09:28:08Z</time>
      </trkpt>
      <trkpt lat="43.07993" lon="5.77966">
        <ele>-9.2</ele>
        <time>2022-07-28T09:28:16Z</time>
      </trkpt>
      <trkpt lat="43.07996" lon="5.7797">
        <ele>-10</ele>
        <time>2022-07-28T09:28:21Z</time>
      </trkpt>
      <trkpt lat="43.07999" lon="5.77972">
        <ele>-10.4</ele>
        <time>2022-07-28T09:28:24Z</time>
      </trkpt>
      <trkpt lat="43.08" lon="5.77972">
        <ele>-10.4</ele>
        <time>2022-07-28T09:28:25Z</time>
      </trkpt>
      <trkpt lat="43.08002" lon="5.77974">
        <ele>-10.6</ele>
        <time>2022-07-28T09:28:28Z</time>
      </trkpt>
      <trkpt lat="43.08004" lon="5.77976">
        <ele>-10.8</ele>
        <time>2022-07-28T09:28:30Z</time>
      </trkpt>
      <trkpt lat="43.08007" lon="5.7798">
        <ele>-11.2</ele>
        <time>2022-07-28T09:28:33Z</time>
      </trkpt>
      <trkpt lat="43.08011" lon="5.77985">
        <ele>-11.6</ele>
        <time>2022-07-28T09:28:37Z</time>
      </trkpt>
      <trkpt lat="43.08016" lon="5.77994">
        <ele>-11.6</ele>
        <time>2022-07-28T09:28:45Z</time>
      </trkpt>
      <trkpt lat="43.08022" lon="5.77999">
        <ele>-12</ele>
        <time>2022-07-28T09:28:53Z</time>
      </trkpt>
      <trkpt lat="43.08038" lon="5.78007">
        <ele>-11.8</ele>
        <time>2022-07-28T09:29:06Z</time>
      </trkpt>
      <trkpt lat="43.08057" lon="5.78011">
        <ele>-11.6</ele>
        <time>2022-07-28T09:29:19Z</time>
      </trkpt>
      <trkpt lat="43.08059" lon="5.78011">
        <ele>-11.6</ele>
        <time>2022-07-28T09:29:20Z</time>
      </trkpt>
      <trkpt lat="43.08073" lon="5.7801">
        <ele>-11.2</ele>
        <time>2022-07-28T09:29:31Z</time>
      </trkpt>
      <trkpt lat="43.08073" lon="5.78008">
        <ele>-11.2</ele>
        <time>2022-07-28T09:29:32Z</time>
      </trkpt>
      <trkpt lat="43.08073" lon="5.78">
        <ele>-11.4</ele>
        <time>2022-07-28T09:29:37Z</time>
      </trkpt>
      <trkpt lat="43.08075" lon="5.77984">
        <ele>-12.2</ele>
        <time>2022-07-28T09:29:45Z</time>
      </trkpt>
      <trkpt lat="43.08073" lon="5.77971">
        <ele>-12.4</ele>
        <time>2022-07-28T09:29:54Z</time>
      </trkpt>
      <trkpt lat="43.08073" lon="5.7797">
        <ele>-12.4</ele>
        <time>2022-07-28T09:29:55Z</time>
      </trkpt>
      <trkpt lat="43.08074" lon="5.77967">
        <ele>-12.4</ele>
        <time>2022-07-28T09:29:57Z</time>
      </trkpt>
      <trkpt lat="43.08075" lon="5.77964">
        <ele>-12.2</ele>
        <time>2022-07-28T09:30:00Z</time>
      </trkpt>
      <trkpt lat="43.08075" lon="5.77961">
        <ele>-12</ele>
        <time>2022-07-28T09:30:02Z</time>
      </trkpt>
      <trkpt lat="43.0808" lon="5.77942">
        <ele>-11.2</ele>
        <time>2022-07-28T09:30:14Z</time>
      </trkpt>
      <trkpt lat="43.08081" lon="5.7794">
        <ele>-10.8</ele>
        <time>2022-07-28T09:30:17Z</time>
      </trkpt>
      <trkpt lat="43.08082" lon="5.77939">
        <ele>-10.4</ele>
        <time>2022-07-28T09:30:19Z</time>
      </trkpt>
      <trkpt lat="43.08085" lon="5.77937">
        <ele>-10.4</ele>
        <time>2022-07-28T09:30:26Z</time>
      </trkpt>
      <trkpt lat="43.08087" lon="5.77935">
        <ele>-10</ele>
        <time>2022-07-28T09:30:29Z</time>
      </trkpt>
      <trkpt lat="43.08095" lon="5.77929">
        <ele>-9.8</ele>
        <time>2022-07-28T09:30:36Z</time>
      </trkpt>
      <trkpt lat="43.08099" lon="5.77926">
        <ele>-9</ele>
        <time>2022-07-28T09:30:39Z</time>
      </trkpt>
      <trkpt lat="43.08105" lon="5.77918">
        <ele>-8</ele>
        <time>2022-07-28T09:30:46Z</time>
      </trkpt>
      <trkpt lat="43.08109" lon="5.77912">
        <ele>-7.4</ele>
        <time>2022-07-28T09:30:51Z</time>
      </trkpt>
      <trkpt lat="43.08112" lon="5.77906">
        <ele>-7</ele>
        <time>2022-07-28T09:30:57Z</time>
      </trkpt>
      <trkpt lat="43.08118" lon="5.77896">
        <ele>-7</ele>
        <time>2022-07-28T09:31:05Z</time>
      </trkpt>
      <trkpt lat="43.08124" lon="5.77881">
        <ele>-7</ele>
        <time>2022-07-28T09:31:16Z</time>
      </trkpt>
      <trkpt lat="43.08126" lon="5.77874">
        <ele>-6.8</ele>
        <time>2022-07-28T09:31:21Z</time>
      </trkpt>
      <trkpt lat="43.08126" lon="5.77872">
        <ele>-6.8</ele>
        <time>2022-07-28T09:31:24Z</time>
      </trkpt>
      <trkpt lat="43.08126" lon="5.77871">
        <ele>-6.6</ele>
        <time>2022-07-28T09:31:26Z</time>
      </trkpt>
      <trkpt lat="43.08126" lon="5.7787">
        <ele>-6.6</ele>
        <time>2022-07-28T09:31:27Z</time>
      </trkpt>
      <trkpt lat="43.08129" lon="5.77864">
        <ele>-6.4</ele>
        <time>2022-07-28T09:31:36Z</time>
      </trkpt>
      <trkpt lat="43.08129" lon="5.77863">
        <ele>-5.8</ele>
        <time>2022-07-28T09:31:43Z</time>
      </trkpt>
      <trkpt lat="43.08129" lon="5.77862">
        <ele>-5.6</ele>
        <time>2022-07-28T09:31:44Z</time>
      </trkpt>
      <trkpt lat="43.08132" lon="5.77854">
        <ele>-6.8</ele>
        <time>2022-07-28T09:31:52Z</time>
      </trkpt>
      <trkpt lat="43.08128" lon="5.77848">
        <ele>-7</ele>
        <time>2022-07-28T09:32:00Z</time>
      </trkpt>
      <trkpt lat="43.08129" lon="5.77847">
        <ele>-7.2</ele>
        <time>2022-07-28T09:32:10Z</time>
      </trkpt>
      <trkpt lat="43.08136" lon="5.77844">
        <ele>-7</ele>
        <time>2022-07-28T09:32:23Z</time>
      </trkpt>
      <trkpt lat="43.08144" lon="5.77844">
        <ele>-7</ele>
        <time>2022-07-28T09:32:34Z</time>
      </trkpt>
      <trkpt lat="43.08146" lon="5.77849">
        <ele>-6.6</ele>
        <time>2022-07-28T09:32:43Z</time>
      </trkpt>
      <trkpt lat="43.08145" lon="5.77851">
        <ele>-7</ele>
        <time>2022-07-28T09:32:54Z</time>
      </trkpt>
      <trkpt lat="43.08144" lon="5.77852">
        <ele>-6.8</ele>
        <time>2022-07-28T09:33:07Z</time>
      </trkpt>
      <trkpt lat="43.08147" lon="5.77851">
        <ele>-6.6</ele>
        <time>2022-07-28T09:33:26Z</time>
      </trkpt>
      <trkpt lat="43.08147" lon="5.77851">
        <ele>-6.4</ele>
        <time>2022-07-28T09:33:42Z</time>
      </trkpt>
      <trkpt lat="43.08146" lon="5.77852">
        <ele>-6.4</ele>
        <time>2022-07-28T09:33:59Z</time>
      </trkpt>
      <trkpt lat="43.08146" lon="5.77851">
        <ele>-6.2</ele>
        <time>2022-07-28T09:34:13Z</time>
      </trkpt>
      <trkpt lat="43.08146" lon="5.77851">
        <ele>-6.6</ele>
        <time>2022-07-28T09:34:18Z</time>
      </trkpt>
      <trkpt lat="43.08147" lon="5.77851">
        <ele>-6.6</ele>
        <time>2022-07-28T09:34:31Z</time>
      </trkpt>
      <trkpt lat="43.0815" lon="5.77848">
        <ele>-7.8</ele>
        <time>2022-07-28T09:34:40Z</time>
      </trkpt>
      <trkpt lat="43.08152" lon="5.77847">
        <ele>-8.4</ele>
        <time>2022-07-28T09:34:43Z</time>
      </trkpt>
      <trkpt lat="43.08153" lon="5.77846">
        <ele>-8.8</ele>
        <time>2022-07-28T09:34:46Z</time>
      </trkpt>
      <trkpt lat="43.08156" lon="5.77842">
        <ele>-9.6</ele>
        <time>2022-07-28T09:34:52Z</time>
      </trkpt>
      <trkpt lat="43.08156" lon="5.77841">
        <ele>-9.8</ele>
        <time>2022-07-28T09:34:57Z</time>
      </trkpt>
      <trkpt lat="43.08157" lon="5.77841">
        <ele>-10.2</ele>
        <time>2022-07-28T09:34:58Z</time>
      </trkpt>
      <trkpt lat="43.08157" lon="5.7784">
        <ele>-9</ele>
        <time>2022-07-28T09:35:12Z</time>
      </trkpt>
      <trkpt lat="43.08157" lon="5.7784">
        <ele>-9</ele>
        <time>2022-07-28T09:35:13Z</time>
      </trkpt>
      <trkpt lat="43.08151" lon="5.77844">
        <ele>-9.8</ele>
        <time>2022-07-28T09:35:21Z</time>
      </trkpt>
      <trkpt lat="43.08147" lon="5.77849">
        <ele>-8</ele>
        <time>2022-07-28T09:35:30Z</time>
      </trkpt>
      <trkpt lat="43.08145" lon="5.77851">
        <ele>-7.4</ele>
        <time>2022-07-28T09:35:32Z</time>
      </trkpt>
      <trkpt lat="43.08144" lon="5.77853">
        <ele>-7.2</ele>
        <time>2022-07-28T09:35:34Z</time>
      </trkpt>
      <trkpt lat="43.08141" lon="5.77871">
        <ele>-7.6</ele>
        <time>2022-07-28T09:35:44Z</time>
      </trkpt>
      <trkpt lat="43.08139" lon="5.77896">
        <ele>-7.8</ele>
        <time>2022-07-28T09:35:58Z</time>
      </trkpt>
      <trkpt lat="43.08139" lon="5.77898">
        <ele>-7.8</ele>
        <time>2022-07-28T09:35:59Z</time>
      </trkpt>
      <trkpt lat="43.08137" lon="5.77917">
        <ele>-7</ele>
        <time>2022-07-28T09:36:12Z</time>
      </trkpt>
      <trkpt lat="43.08136" lon="5.7792">
        <ele>-6.8</ele>
        <time>2022-07-28T09:36:15Z</time>
      </trkpt>
      <trkpt lat="43.08136" lon="5.77932">
        <ele>-6</ele>
        <time>2022-07-28T09:36:23Z</time>
      </trkpt>
      <trkpt lat="43.08136" lon="5.77936">
        <ele>-5.8</ele>
        <time>2022-07-28T09:36:26Z</time>
      </trkpt>
      <trkpt lat="43.08134" lon="5.7795">
        <ele>-5.6</ele>
        <time>2022-07-28T09:36:37Z</time>
      </trkpt>
      <trkpt lat="43.08134" lon="5.77967">
        <ele>-6.8</ele>
        <time>2022-07-28T09:36:49Z</time>
      </trkpt>
      <trkpt lat="43.08133" lon="5.77976">
        <ele>-6.8</ele>
        <time>2022-07-28T09:36:58Z</time>
      </trkpt>
      <trkpt lat="43.08134" lon="5.77978">
        <ele>-6.8</ele>
        <time>2022-07-28T09:37:01Z</time>
      </trkpt>
      <trkpt lat="43.0814" lon="5.77988">
        <ele>-7.8</ele>
        <time>2022-07-28T09:37:11Z</time>
      </trkpt>
      <trkpt lat="43.08142" lon="5.77991">
        <ele>-8</ele>
        <time>2022-07-28T09:37:14Z</time>
      </trkpt>
      <trkpt lat="43.08148" lon="5.7801">
        <ele>-8.2</ele>
        <time>2022-07-28T09:37:30Z</time>
      </trkpt>
      <trkpt lat="43.08154" lon="5.78017">
        <ele>-8.8</ele>
        <time>2022-07-28T09:37:40Z</time>
      </trkpt>
      <trkpt lat="43.08154" lon="5.78018">
        <ele>-8.8</ele>
        <time>2022-07-28T09:37:41Z</time>
      </trkpt>
      <trkpt lat="43.08153" lon="5.78019">
        <ele>-9</ele>
        <time>2022-07-28T09:37:43Z</time>
      </trkpt>
      <trkpt lat="43.08152" lon="5.7802">
        <ele>-9</ele>
        <time>2022-07-28T09:37:53Z</time>
      </trkpt>
      <trkpt lat="43.08151" lon="5.78021">
        <ele>-8.8</ele>
        <time>2022-07-28T09:38:08Z</time>
      </trkpt>
      <trkpt lat="43.08151" lon="5.7802">
        <ele>-8.6</ele>
        <time>2022-07-28T09:38:24Z</time>
      </trkpt>
      <trkpt lat="43.08149" lon="5.78021">
        <ele>-9.2</ele>
        <time>2022-07-28T09:38:42Z</time>
      </trkpt>
      <trkpt lat="43.0815" lon="5.78021">
        <ele>-9</ele>
        <time>2022-07-28T09:38:57Z</time>
      </trkpt>
      <trkpt lat="43.08149" lon="5.78021">
        <ele>-8.8</ele>
        <time>2022-07-28T09:39:09Z</time>
      </trkpt>
      <trkpt lat="43.08151" lon="5.7802">
        <ele>-8.4</ele>
        <time>2022-07-28T09:39:25Z</time>
      </trkpt>
      <trkpt lat="43.0815" lon="5.78018">
        <ele>-8.8</ele>
        <time>2022-07-28T09:39:42Z</time>
      </trkpt>
      <trkpt lat="43.0815" lon="5.78019">
        <ele>-9</ele>
        <time>2022-07-28T09:40:01Z</time>
      </trkpt>
      <trkpt lat="43.08151" lon="5.78018">
        <ele>-8.8</ele>
        <time>2022-07-28T09:40:15Z</time>
      </trkpt>
      <trkpt lat="43.08151" lon="5.78017">
        <ele>-8.8</ele>
        <time>2022-07-28T09:40:30Z</time>
      </trkpt>
      <trkpt lat="43.08143" lon="5.78025">
        <ele>-8.4</ele>
        <time>2022-07-28T09:40:40Z</time>
      </trkpt>
      <trkpt lat="43.08137" lon="5.78032">
        <ele>-7.8</ele>
        <time>2022-07-28T09:40:46Z</time>
      </trkpt>
      <trkpt lat="43.08137" lon="5.7804">
        <ele>-7</ele>
        <time>2022-07-28T09:40:51Z</time>
      </trkpt>
      <trkpt lat="43.08139" lon="5.78045">
        <ele>-6.8</ele>
        <time>2022-07-28T09:40:54Z</time>
      </trkpt>
      <trkpt lat="43.08146" lon="5.78047">
        <ele>-6.4</ele>
        <time>2022-07-28T09:40:59Z</time>
      </trkpt>
      <trkpt lat="43.08161" lon="5.78049">
        <ele>-6.4</ele>
        <time>2022-07-28T09:41:11Z</time>
      </trkpt>
      <trkpt lat="43.08173" lon="5.78053">
        <ele>-6.4</ele>
        <time>2022-07-28T09:41:22Z</time>
      </trkpt>
      <trkpt lat="43.08175" lon="5.78055">
        <ele>-5.8</ele>
        <time>2022-07-28T09:41:24Z</time>
      </trkpt>
      <trkpt lat="43.08187" lon="5.78058">
        <ele>-5.4</ele>
        <time>2022-07-28T09:41:34Z</time>
      </trkpt>
      <trkpt lat="43.08192" lon="5.7806">
        <ele>-4.8</ele>
        <time>2022-07-28T09:41:38Z</time>
      </trkpt>
      <trkpt lat="43.08202" lon="5.78066">
        <ele>-4.4</ele>
        <time>2022-07-28T09:41:48Z</time>
      </trkpt>
      <trkpt lat="43.08201" lon="5.78066">
        <ele>-4.6</ele>
        <time>2022-07-28T09:41:51Z</time>
      </trkpt>
      <trkpt lat="43.08201" lon="5.78066">
        <ele>-4</ele>
        <time>2022-07-28T09:41:57Z</time>
      </trkpt>
      <trkpt lat="43.08202" lon="5.78071">
        <ele>-3.8</ele>
        <time>2022-07-28T09:42:07Z</time>
      </trkpt>
      <trkpt lat="43.08205" lon="5.78076">
        <ele>-3.4</ele>
        <time>2022-07-28T09:42:11Z</time>
      </trkpt>
      <trkpt lat="43.08206" lon="5.78082">
        <ele>-2.6</ele>
        <time>2022-07-28T09:42:15Z</time>
      </trkpt>
      <trkpt lat="43.08205" lon="5.78087">
        <ele>-2.2</ele>
        <time>2022-07-28T09:42:19Z</time>
      </trkpt>
      <trkpt lat="43.08203" lon="5.78094">
        <ele>-1.6</ele>
        <time>2022-07-28T09:42:24Z</time>
      </trkpt>
      <trkpt lat="43.08203" lon="5.78103">
        <ele>-0.6</ele>
        <time>2022-07-28T09:42:30Z</time>
      </trkpt>
      <trkpt lat="43.08203" lon="5.78104">
        <ele>-0.6</ele>
        <time>2022-07-28T09:42:31Z</time>
      </trkpt>
      <trkpt lat="43.08202" lon="5.78108">
        <ele>0.6</ele>
        <time>2022-07-28T09:42:35Z</time>
      </trkpt>
      <trkpt lat="43.08202" lon="5.7811">
        <ele>1.2</ele>
        <time>2022-07-28T09:42:39Z</time>
      </trkpt>
      <trkpt lat="43.08202" lon="5.78111">
        <ele>1.2</ele>
        <time>2022-07-28T09:42:41Z</time>
      </trkpt>
      <trkpt lat="43.08198" lon="5.78123">
        <ele>1.4</ele>
        <time>2022-07-28T09:42:49Z</time>
      </trkpt>
      <trkpt lat="43.08194" lon="5.7813">
        <ele>1.6</ele>
        <time>2022-07-28T09:42:54Z</time>
      </trkpt>
      <trkpt lat="43.08189" lon="5.78139">
        <ele>2</ele>
        <time>2022-07-28T09:43:00Z</time>
      </trkpt>
      <trkpt lat="43.08181" lon="5.7815">
        <ele>1.8</ele>
        <time>2022-07-28T09:43:09Z</time>
      </trkpt>
      <trkpt lat="43.08176" lon="5.7816">
        <ele>2.4</ele>
        <time>2022-07-28T09:43:17Z</time>
      </trkpt>
      <trkpt lat="43.08176" lon="5.7816">
        <ele>2.4</ele>
        <time>2022-07-28T09:43:18Z</time>
      </trkpt>
      <trkpt lat="43.08178" lon="5.78167">
        <ele>2</ele>
        <time>2022-07-28T09:43:24Z</time>
      </trkpt>
      <trkpt lat="43.08179" lon="5.78169">
        <ele>2</ele>
        <time>2022-07-28T09:43:26Z</time>
      </trkpt>
      <trkpt lat="43.0818" lon="5.78172">
        <ele>2</ele>
        <time>2022-07-28T09:43:30Z</time>
      </trkpt>
      <trkpt lat="43.08179" lon="5.78173">
        <ele>2.2</ele>
        <time>2022-07-28T09:43:37Z</time>
      </trkpt>
      <trkpt lat="43.08175" lon="5.78181">
        <ele>1.4</ele>
        <time>2022-07-28T09:43:47Z</time>
      </trkpt>
      <trkpt lat="43.08174" lon="5.78199">
        <ele>0.8</ele>
        <time>2022-07-28T09:43:58Z</time>
      </trkpt>
      <trkpt lat="43.08175" lon="5.78201">
        <ele>0.6</ele>
        <time>2022-07-28T09:43:59Z</time>
      </trkpt>
      <trkpt lat="43.08179" lon="5.78215">
        <ele>-0.6</ele>
        <time>2022-07-28T09:44:08Z</time>
      </trkpt>
      <trkpt lat="43.08179" lon="5.78217">
        <ele>-1</ele>
        <time>2022-07-28T09:44:10Z</time>
      </trkpt>
      <trkpt lat="43.08181" lon="5.78228">
        <ele>-1.8</ele>
        <time>2022-07-28T09:44:19Z</time>
      </trkpt>
      <trkpt lat="43.08181" lon="5.78228">
        <ele>-1.8</ele>
        <time>2022-07-28T09:44:20Z</time>
      </trkpt>
      <trkpt lat="43.08181" lon="5.78229">
        <ele>-2.2</ele>
        <time>2022-07-28T09:44:21Z</time>
      </trkpt>
      <trkpt lat="43.08181" lon="5.78229">
        <ele>-2.4</ele>
        <time>2022-07-28T09:44:22Z</time>
      </trkpt>
      <trkpt lat="43.08183" lon="5.78234">
        <ele>-2.4</ele>
        <time>2022-07-28T09:44:31Z</time>
      </trkpt>
      <trkpt lat="43.08183" lon="5.78241">
        <ele>-2.8</ele>
        <time>2022-07-28T09:44:36Z</time>
      </trkpt>
      <trkpt lat="43.08183" lon="5.7825">
        <ele>-3.6</ele>
        <time>2022-07-28T09:44:42Z</time>
      </trkpt>
      <trkpt lat="43.08184" lon="5.78251">
        <ele>-4</ele>
        <time>2022-07-28T09:44:43Z</time>
      </trkpt>
      <trkpt lat="43.08185" lon="5.78268">
        <ele>-5</ele>
        <time>2022-07-28T09:44:55Z</time>
      </trkpt>
      <trkpt lat="43.08186" lon="5.7827">
        <ele>-5</ele>
        <time>2022-07-28T09:44:56Z</time>
      </trkpt>
      <trkpt lat="43.08184" lon="5.78283">
        <ele>-6</ele>
        <time>2022-07-28T09:45:06Z</time>
      </trkpt>
      <trkpt lat="43.08183" lon="5.78285">
        <ele>-6</ele>
        <time>2022-07-28T09:45:09Z</time>
      </trkpt>
      <trkpt lat="43.08183" lon="5.78286">
        <ele>-6</ele>
        <time>2022-07-28T09:45:11Z</time>
      </trkpt>
      <trkpt lat="43.08184" lon="5.78285">
        <ele>-5.8</ele>
        <time>2022-07-28T09:45:19Z</time>
      </trkpt>
      <trkpt lat="43.08183" lon="5.78291">
        <ele>-6.4</ele>
        <time>2022-07-28T09:45:30Z</time>
      </trkpt>
      <trkpt lat="43.08175" lon="5.78306">
        <ele>-6.8</ele>
        <time>2022-07-28T09:45:42Z</time>
      </trkpt>
      <trkpt lat="43.08165" lon="5.78319">
        <ele>-7.2</ele>
        <time>2022-07-28T09:45:53Z</time>
      </trkpt>
      <trkpt lat="43.08163" lon="5.78323">
        <ele>-7.4</ele>
        <time>2022-07-28T09:45:56Z</time>
      </trkpt>
      <trkpt lat="43.08158" lon="5.78341">
        <ele>-7.8</ele>
        <time>2022-07-28T09:46:08Z</time>
      </trkpt>
      <trkpt lat="43.08158" lon="5.78344">
        <ele>-8.2</ele>
        <time>2022-07-28T09:46:11Z</time>
      </trkpt>
      <trkpt lat="43.08153" lon="5.78353">
        <ele>-9.2</ele>
        <time>2022-07-28T09:46:19Z</time>
      </trkpt>
      <trkpt lat="43.08142" lon="5.78358">
        <ele>-10.2</ele>
        <time>2022-07-28T09:46:30Z</time>
      </trkpt>
      <trkpt lat="43.08139" lon="5.78358">
        <ele>-11</ele>
        <time>2022-07-28T09:46:33Z</time>
      </trkpt>
      <trkpt lat="43.08137" lon="5.78357">
        <ele>-11.4</ele>
        <time>2022-07-28T09:46:36Z</time>
      </trkpt>
      <trkpt lat="43.08132" lon="5.78355">
        <ele>-11.4</ele>
        <time>2022-07-28T09:46:42Z</time>
      </trkpt>
      <trkpt lat="43.08127" lon="5.7835">
        <ele>-12</ele>
        <time>2022-07-28T09:46:49Z</time>
      </trkpt>
      <trkpt lat="43.08123" lon="5.78346">
        <ele>-12.6</ele>
        <time>2022-07-28T09:46:55Z</time>
      </trkpt>
      <trkpt lat="43.08122" lon="5.78346">
        <ele>-12.6</ele>
        <time>2022-07-28T09:46:56Z</time>
      </trkpt>
      <trkpt lat="43.08107" lon="5.78343">
        <ele>-12.6</ele>
        <time>2022-07-28T09:47:09Z</time>
      </trkpt>
      <trkpt lat="43.08094" lon="5.78348">
        <ele>-12.4</ele>
        <time>2022-07-28T09:47:23Z</time>
      </trkpt>
      <trkpt lat="43.08093" lon="5.78352">
        <ele>-13.2</ele>
        <time>2022-07-28T09:47:27Z</time>
      </trkpt>
      <trkpt lat="43.08093" lon="5.78356">
        <ele>-13.6</ele>
        <time>2022-07-28T09:47:30Z</time>
      </trkpt>
      <trkpt lat="43.08094" lon="5.78359">
        <ele>-13.8</ele>
        <time>2022-07-28T09:47:33Z</time>
      </trkpt>
      <trkpt lat="43.08094" lon="5.78359">
        <ele>-13.8</ele>
        <time>2022-07-28T09:47:34Z</time>
      </trkpt>
      <trkpt lat="43.08095" lon="5.78359">
        <ele>-14</ele>
        <time>2022-07-28T09:47:36Z</time>
      </trkpt>
      <trkpt lat="43.08092" lon="5.78358">
        <ele>-14</ele>
        <time>2022-07-28T09:47:42Z</time>
      </trkpt>
      <trkpt lat="43.08094" lon="5.78351">
        <ele>-14</ele>
        <time>2022-07-28T09:47:51Z</time>
      </trkpt>
      <trkpt lat="43.08092" lon="5.78338">
        <ele>-12.8</ele>
        <time>2022-07-28T09:48:01Z</time>
      </trkpt>
      <trkpt lat="43.08089" lon="5.78337">
        <ele>-12.8</ele>
        <time>2022-07-28T09:48:03Z</time>
      </trkpt>
      <trkpt lat="43.08081" lon="5.78336">
        <ele>-12.8</ele>
        <time>2022-07-28T09:48:10Z</time>
      </trkpt>
      <trkpt lat="43.08068" lon="5.7834">
        <ele>-13</ele>
        <time>2022-07-28T09:48:23Z</time>
      </trkpt>
      <trkpt lat="43.08053" lon="5.78356">
        <ele>-13</ele>
        <time>2022-07-28T09:48:39Z</time>
      </trkpt>
      <trkpt lat="43.08039" lon="5.78369">
        <ele>-13.6</ele>
        <time>2022-07-28T09:48:54Z</time>
      </trkpt>
      <trkpt lat="43.08035" lon="5.78376">
        <ele>-14.6</ele>
        <time>2022-07-28T09:49:01Z</time>
      </trkpt>
      <trkpt lat="43.08032" lon="5.78381">
        <ele>-14.8</ele>
        <time>2022-07-28T09:49:06Z</time>
      </trkpt>
      <trkpt lat="43.08032" lon="5.78381">
        <ele>-15</ele>
        <time>2022-07-28T09:49:07Z</time>
      </trkpt>
      <trkpt lat="43.08031" lon="5.78383">
        <ele>-15.6</ele>
        <time>2022-07-28T09:49:17Z</time>
      </trkpt>
      <trkpt lat="43.08031" lon="5.78381">
        <ele>-15.6</ele>
        <time>2022-07-28T09:49:30Z</time>
      </trkpt>
      <trkpt lat="43.08032" lon="5.78381">
        <ele>-15.4</ele>
        <time>2022-07-28T09:49:47Z</time>
      </trkpt>
      <trkpt lat="43.08031" lon="5.78379">
        <ele>-15.6</ele>
        <time>2022-07-28T09:50:02Z</time>
      </trkpt>
      <trkpt lat="43.08031" lon="5.78378">
        <ele>-15.8</ele>
        <time>2022-07-28T09:50:03Z</time>
      </trkpt>
      <trkpt lat="43.08022" lon="5.78375">
        <ele>-15.8</ele>
        <time>2022-07-28T09:50:15Z</time>
      </trkpt>
      <trkpt lat="43.08012" lon="5.78365">
        <ele>-16.2</ele>
        <time>2022-07-28T09:50:27Z</time>
      </trkpt>
      <trkpt lat="43.07997" lon="5.78359">
        <ele>-16.2</ele>
        <time>2022-07-28T09:50:41Z</time>
      </trkpt>
      <trkpt lat="43.07984" lon="5.78348">
        <ele>-16.4</ele>
        <time>2022-07-28T09:50:56Z</time>
      </trkpt>
      <trkpt lat="43.07974" lon="5.78349">
        <ele>-16.4</ele>
        <time>2022-07-28T09:51:08Z</time>
      </trkpt>
      <trkpt lat="43.07969" lon="5.7835">
        <ele>-16.4</ele>
        <time>2022-07-28T09:51:16Z</time>
      </trkpt>
      <trkpt lat="43.07968" lon="5.7835">
        <ele>-16.2</ele>
        <time>2022-07-28T09:51:19Z</time>
      </trkpt>
      <trkpt lat="43.07968" lon="5.7835">
        <ele>-16.2</ele>
        <time>2022-07-28T09:51:20Z</time>
      </trkpt>
      <trkpt lat="43.07968" lon="5.78351">
        <ele>-16.4</ele>
        <time>2022-07-28T09:51:32Z</time>
      </trkpt>
      <trkpt lat="43.07969" lon="5.78344">
        <ele>-16.4</ele>
        <time>2022-07-28T09:51:42Z</time>
      </trkpt>
      <trkpt lat="43.07972" lon="5.78338">
        <ele>-16.6</ele>
        <time>2022-07-28T09:51:48Z</time>
      </trkpt>
      <trkpt lat="43.07973" lon="5.78335">
        <ele>-16.8</ele>
        <time>2022-07-28T09:51:50Z</time>
      </trkpt>
      <trkpt lat="43.07976" lon="5.7833">
        <ele>-17</ele>
        <time>2022-07-28T09:51:55Z</time>
      </trkpt>
      <trkpt lat="43.07981" lon="5.78316">
        <ele>-16.6</ele>
        <time>2022-07-28T09:52:08Z</time>
      </trkpt>
      <trkpt lat="43.07981" lon="5.78314">
        <ele>-17</ele>
        <time>2022-07-28T09:52:11Z</time>
      </trkpt>
      <trkpt lat="43.07981" lon="5.78313">
        <ele>-16.4</ele>
        <time>2022-07-28T09:52:16Z</time>
      </trkpt>
      <trkpt lat="43.07982" lon="5.78303">
        <ele>-16.8</ele>
        <time>2022-07-28T09:52:25Z</time>
      </trkpt>
      <trkpt lat="43.07983" lon="5.78302">
        <ele>-16.8</ele>
        <time>2022-07-28T09:52:26Z</time>
      </trkpt>
      <trkpt lat="43.07989" lon="5.78288">
        <ele>-17</ele>
        <time>2022-07-28T09:52:39Z</time>
      </trkpt>
      <trkpt lat="43.07997" lon="5.78269">
        <ele>-17</ele>
        <time>2022-07-28T09:52:54Z</time>
      </trkpt>
      <trkpt lat="43.08" lon="5.78265">
        <ele>-17.2</ele>
        <time>2022-07-28T09:53:00Z</time>
      </trkpt>
      <trkpt lat="43.08002" lon="5.78264">
        <ele>-16.4</ele>
        <time>2022-07-28T09:53:05Z</time>
      </trkpt>
      <trkpt lat="43.08004" lon="5.78258">
        <ele>-16.8</ele>
        <time>2022-07-28T09:53:14Z</time>
      </trkpt>
      <trkpt lat="43.08014" lon="5.78244">
        <ele>-17</ele>
        <time>2022-07-28T09:53:29Z</time>
      </trkpt>
      <trkpt lat="43.08017" lon="5.78244">
        <ele>-17</ele>
        <time>2022-07-28T09:53:35Z</time>
      </trkpt>
      <trkpt lat="43.08018" lon="5.78246">
        <ele>-16.8</ele>
        <time>2022-07-28T09:53:40Z</time>
      </trkpt>
      <trkpt lat="43.08018" lon="5.78246">
        <ele>-16</ele>
        <time>2022-07-28T09:53:55Z</time>
      </trkpt>
      <trkpt lat="43.08018" lon="5.78245">
        <ele>-15.8</ele>
        <time>2022-07-28T09:54:04Z</time>
      </trkpt>
      <trkpt lat="43.08019" lon="5.78245">
        <ele>-16</ele>
        <time>2022-07-28T09:54:11Z</time>
      </trkpt>
      <trkpt lat="43.08026" lon="5.78254">
        <ele>-15.8</ele>
        <time>2022-07-28T09:54:24Z</time>
      </trkpt>
      <trkpt lat="43.08025" lon="5.78259">
        <ele>-15</ele>
        <time>2022-07-28T09:54:32Z</time>
      </trkpt>
      <trkpt lat="43.08025" lon="5.78259">
        <ele>-15</ele>
        <time>2022-07-28T09:54:36Z</time>
      </trkpt>
      <trkpt lat="43.08023" lon="5.78257">
        <ele>-15</ele>
        <time>2022-07-28T09:54:52Z</time>
      </trkpt>
      <trkpt lat="43.08021" lon="5.78259">
        <ele>-14.6</ele>
        <time>2022-07-28T09:55:07Z</time>
      </trkpt>
      <trkpt lat="43.08016" lon="5.78259">
        <ele>-14.4</ele>
        <time>2022-07-28T09:55:30Z</time>
      </trkpt>
      <trkpt lat="43.08016" lon="5.78259">
        <ele>-15.6</ele>
        <time>2022-07-28T09:56:25Z</time>
      </trkpt>
      <trkpt lat="43.08019" lon="5.78261">
        <ele>-15.2</ele>
        <time>2022-07-28T09:56:43Z</time>
      </trkpt>
      <trkpt lat="43.08019" lon="5.78261">
        <ele>-15.2</ele>
        <time>2022-07-28T09:56:44Z</time>
      </trkpt>
      <trkpt lat="43.08021" lon="5.78259">
        <ele>-15.4</ele>
        <time>2022-07-28T09:57:02Z</time>
      </trkpt>
      <trkpt lat="43.0802" lon="5.78259">
        <ele>-15.4</ele>
        <time>2022-07-28T09:57:20Z</time>
      </trkpt>
      <trkpt lat="43.0802" lon="5.7826">
        <ele>-15</ele>
        <time>2022-07-28T09:57:36Z</time>
      </trkpt>
      <trkpt lat="43.08017" lon="5.78255">
        <ele>-15.8</ele>
        <time>2022-07-28T09:57:49Z</time>
      </trkpt>
      <trkpt lat="43.08016" lon="5.78249">
        <ele>-16.8</ele>
        <time>2022-07-28T09:57:55Z</time>
      </trkpt>
      <trkpt lat="43.08015" lon="5.78246">
        <ele>-16.8</ele>
        <time>2022-07-28T09:57:58Z</time>
      </trkpt>
      <trkpt lat="43.08015" lon="5.78245">
        <ele>-16.6</ele>
        <time>2022-07-28T09:58:01Z</time>
      </trkpt>
      <trkpt lat="43.08014" lon="5.78247">
        <ele>-17</ele>
        <time>2022-07-28T09:58:14Z</time>
      </trkpt>
      <trkpt lat="43.08014" lon="5.78244">
        <ele>-16.8</ele>
        <time>2022-07-28T09:58:37Z</time>
      </trkpt>
      <trkpt lat="43.08013" lon="5.78237">
        <ele>-16.8</ele>
        <time>2022-07-28T09:58:42Z</time>
      </trkpt>
      <trkpt lat="43.08011" lon="5.78228">
        <ele>-16.8</ele>
        <time>2022-07-28T09:58:47Z</time>
      </trkpt>
      <trkpt lat="43.08007" lon="5.78208">
        <ele>-16.6</ele>
        <time>2022-07-28T09:59:00Z</time>
      </trkpt>
      <trkpt lat="43.08007" lon="5.78189">
        <ele>-16.8</ele>
        <time>2022-07-28T09:59:13Z</time>
      </trkpt>
      <trkpt lat="43.08006" lon="5.78186">
        <ele>-17</ele>
        <time>2022-07-28T09:59:15Z</time>
      </trkpt>
      <trkpt lat="43.08005" lon="5.78169">
        <ele>-16.8</ele>
        <time>2022-07-28T09:59:28Z</time>
      </trkpt>
      <trkpt lat="43.08002" lon="5.78163">
        <ele>-16.8</ele>
        <time>2022-07-28T09:59:33Z</time>
      </trkpt>
      <trkpt lat="43.07997" lon="5.78157">
        <ele>-17</ele>
        <time>2022-07-28T09:59:38Z</time>
      </trkpt>
      <trkpt lat="43.07982" lon="5.7814">
        <ele>-17</ele>
        <time>2022-07-28T09:59:55Z</time>
      </trkpt>
      <trkpt lat="43.07972" lon="5.78126">
        <ele>-17.4</ele>
        <time>2022-07-28T10:00:10Z</time>
      </trkpt>
      <trkpt lat="43.07967" lon="5.7812">
        <ele>-17</ele>
        <time>2022-07-28T10:00:18Z</time>
      </trkpt>
      <trkpt lat="43.07964" lon="5.78115">
        <ele>-17</ele>
        <time>2022-07-28T10:00:22Z</time>
      </trkpt>
      <trkpt lat="43.07951" lon="5.78099">
        <ele>-16.8</ele>
        <time>2022-07-28T10:00:38Z</time>
      </trkpt>
      <trkpt lat="43.0794" lon="5.78088">
        <ele>-17</ele>
        <time>2022-07-28T10:00:52Z</time>
      </trkpt>
      <trkpt lat="43.07928" lon="5.78075">
        <ele>-17</ele>
        <time>2022-07-28T10:01:06Z</time>
      </trkpt>
      <trkpt lat="43.07918" lon="5.78077">
        <ele>-16.6</ele>
        <time>2022-07-28T10:01:15Z</time>
      </trkpt>
      <trkpt lat="43.079" lon="5.78083">
        <ele>-16.6</ele>
        <time>2022-07-28T10:01:30Z</time>
      </trkpt>
      <trkpt lat="43.07894" lon="5.78084">
        <ele>-16.4</ele>
        <time>2022-07-28T10:01:39Z</time>
      </trkpt>
      <trkpt lat="43.07894" lon="5.78084">
        <ele>-16.2</ele>
        <time>2022-07-28T10:01:42Z</time>
      </trkpt>
      <trkpt lat="43.07889" lon="5.7809">
        <ele>-16.6</ele>
        <time>2022-07-28T10:01:56Z</time>
      </trkpt>
      <trkpt lat="43.0789" lon="5.78088">
        <ele>-16.8</ele>
        <time>2022-07-28T10:02:11Z</time>
      </trkpt>
      <trkpt lat="43.07891" lon="5.78087">
        <ele>-16.6</ele>
        <time>2022-07-28T10:02:17Z</time>
      </trkpt>
      <trkpt lat="43.07891" lon="5.78086">
        <ele>-16.6</ele>
        <time>2022-07-28T10:02:26Z</time>
      </trkpt>
      <trkpt lat="43.07891" lon="5.78089">
        <ele>-17</ele>
        <time>2022-07-28T10:02:42Z</time>
      </trkpt>
      <trkpt lat="43.07892" lon="5.7809">
        <ele>-16.8</ele>
        <time>2022-07-28T10:02:58Z</time>
      </trkpt>
      <trkpt lat="43.07892" lon="5.78093">
        <ele>-17.2</ele>
        <time>2022-07-28T10:03:18Z</time>
      </trkpt>
      <trkpt lat="43.07891" lon="5.78094">
        <ele>-17.4</ele>
        <time>2022-07-28T10:03:35Z</time>
      </trkpt>
      <trkpt lat="43.0789" lon="5.78093">
        <ele>-16.4</ele>
        <time>2022-07-28T10:03:55Z</time>
      </trkpt>
      <trkpt lat="43.07888" lon="5.78094">
        <ele>-16.2</ele>
        <time>2022-07-28T10:04:19Z</time>
      </trkpt>
      <trkpt lat="43.07889" lon="5.78098">
        <ele>-16.2</ele>
        <time>2022-07-28T10:04:39Z</time>
      </trkpt>
      <trkpt lat="43.07886" lon="5.78094">
        <ele>-16.4</ele>
        <time>2022-07-28T10:04:49Z</time>
      </trkpt>
      <trkpt lat="43.07883" lon="5.78094">
        <ele>-16.2</ele>
        <time>2022-07-28T10:04:56Z</time>
      </trkpt>
      <trkpt lat="43.07879" lon="5.7809">
        <ele>-16.6</ele>
        <time>2022-07-28T10:05:17Z</time>
      </trkpt>
      <trkpt lat="43.07885" lon="5.781">
        <ele>-16.6</ele>
        <time>2022-07-28T10:05:37Z</time>
      </trkpt>
      <trkpt lat="43.07883" lon="5.78092">
        <ele>-16.6</ele>
        <time>2022-07-28T10:05:56Z</time>
      </trkpt>
      <trkpt lat="43.07878" lon="5.78091">
        <ele>-16.6</ele>
        <time>2022-07-28T10:06:12Z</time>
      </trkpt>
      <trkpt lat="43.07875" lon="5.78089">
        <ele>-17</ele>
        <time>2022-07-28T10:06:26Z</time>
      </trkpt>
      <trkpt lat="43.0787" lon="5.7809">
        <ele>-17</ele>
        <time>2022-07-28T10:06:32Z</time>
      </trkpt>
      <trkpt lat="43.07865" lon="5.7809">
        <ele>-17.2</ele>
        <time>2022-07-28T10:06:38Z</time>
      </trkpt>
      <trkpt lat="43.07856" lon="5.78094">
        <ele>-17.2</ele>
        <time>2022-07-28T10:06:50Z</time>
      </trkpt>
      <trkpt lat="43.07856" lon="5.78093">
        <ele>-17</ele>
        <time>2022-07-28T10:06:52Z</time>
      </trkpt>
      <trkpt lat="43.07855" lon="5.78093">
        <ele>-16.4</ele>
        <time>2022-07-28T10:06:54Z</time>
      </trkpt>
      <trkpt lat="43.07854" lon="5.78092">
        <ele>-15.8</ele>
        <time>2022-07-28T10:06:56Z</time>
      </trkpt>
      <trkpt lat="43.07853" lon="5.78094">
        <ele>-15</ele>
        <time>2022-07-28T10:07:03Z</time>
      </trkpt>
      <trkpt lat="43.07857" lon="5.78098">
        <ele>-16.6</ele>
        <time>2022-07-28T10:07:16Z</time>
      </trkpt>
      <trkpt lat="43.07856" lon="5.78098">
        <ele>-16.8</ele>
        <time>2022-07-28T10:07:17Z</time>
      </trkpt>
      <trkpt lat="43.07855" lon="5.78107">
        <ele>-17</ele>
        <time>2022-07-28T10:07:33Z</time>
      </trkpt>
      <trkpt lat="43.07853" lon="5.78106">
        <ele>-17</ele>
        <time>2022-07-28T10:07:46Z</time>
      </trkpt>
      <trkpt lat="43.07849" lon="5.78109">
        <ele>-16.8</ele>
        <time>2022-07-28T10:07:55Z</time>
      </trkpt>
      <trkpt lat="43.07848" lon="5.78114">
        <ele>-17</ele>
        <time>2022-07-28T10:08:03Z</time>
      </trkpt>
      <trkpt lat="43.07848" lon="5.78117">
        <ele>-17.2</ele>
        <time>2022-07-28T10:08:09Z</time>
      </trkpt>
      <trkpt lat="43.07849" lon="5.78116">
        <ele>-17.2</ele>
        <time>2022-07-28T10:08:25Z</time>
      </trkpt>
      <trkpt lat="43.07845" lon="5.78117">
        <ele>-17</ele>
        <time>2022-07-28T10:08:36Z</time>
      </trkpt>
      <trkpt lat="43.07845" lon="5.78119">
        <ele>-16.6</ele>
        <time>2022-07-28T10:08:55Z</time>
      </trkpt>
      <trkpt lat="43.07845" lon="5.7812">
        <ele>-17</ele>
        <time>2022-07-28T10:09:12Z</time>
      </trkpt>
      <trkpt lat="43.07845" lon="5.7812">
        <ele>-17</ele>
        <time>2022-07-28T10:09:13Z</time>
      </trkpt>
      <trkpt lat="43.07844" lon="5.78122">
        <ele>-17.6</ele>
        <time>2022-07-28T10:09:30Z</time>
      </trkpt>
      <trkpt lat="43.07843" lon="5.78122">
        <ele>-17.8</ele>
        <time>2022-07-28T10:09:33Z</time>
      </trkpt>
      <trkpt lat="43.0784" lon="5.78125">
        <ele>-18.2</ele>
        <time>2022-07-28T10:09:42Z</time>
      </trkpt>
      <trkpt lat="43.07837" lon="5.78126">
        <ele>-18</ele>
        <time>2022-07-28T10:09:54Z</time>
      </trkpt>
      <trkpt lat="43.07837" lon="5.78126">
        <ele>-18</ele>
        <time>2022-07-28T10:10:00Z</time>
      </trkpt>
      <trkpt lat="43.07837" lon="5.78128">
        <ele>-18.2</ele>
        <time>2022-07-28T10:10:16Z</time>
      </trkpt>
      <trkpt lat="43.07834" lon="5.7813">
        <ele>-18.2</ele>
        <time>2022-07-28T10:10:29Z</time>
      </trkpt>
      <trkpt lat="43.07832" lon="5.78138">
        <ele>-18.6</ele>
        <time>2022-07-28T10:10:41Z</time>
      </trkpt>
      <trkpt lat="43.07832" lon="5.78141">
        <ele>-18.4</ele>
        <time>2022-07-28T10:10:54Z</time>
      </trkpt>
      <trkpt lat="43.0783" lon="5.78146">
        <ele>-18</ele>
        <time>2022-07-28T10:11:01Z</time>
      </trkpt>
      <trkpt lat="43.0783" lon="5.78146">
        <ele>-17.8</ele>
        <time>2022-07-28T10:11:05Z</time>
      </trkpt>
      <trkpt lat="43.07829" lon="5.78145">
        <ele>-17.8</ele>
        <time>2022-07-28T10:11:20Z</time>
      </trkpt>
      <trkpt lat="43.0783" lon="5.78145">
        <ele>-17.6</ele>
        <time>2022-07-28T10:11:36Z</time>
      </trkpt>
      <trkpt lat="43.07832" lon="5.78148">
        <ele>-17.8</ele>
        <time>2022-07-28T10:11:51Z</time>
      </trkpt>
      <trkpt lat="43.0783" lon="5.7815">
        <ele>-17.8</ele>
        <time>2022-07-28T10:11:54Z</time>
      </trkpt>
      <trkpt lat="43.0783" lon="5.78151">
        <ele>-17.8</ele>
        <time>2022-07-28T10:11:56Z</time>
      </trkpt>
      <trkpt lat="43.07831" lon="5.78153">
        <ele>-17.8</ele>
        <time>2022-07-28T10:12:02Z</time>
      </trkpt>
      <trkpt lat="43.07828" lon="5.78158">
        <ele>-17.8</ele>
        <time>2022-07-28T10:12:13Z</time>
      </trkpt>
      <trkpt lat="43.07828" lon="5.78157">
        <ele>-17.6</ele>
        <time>2022-07-28T10:12:25Z</time>
      </trkpt>
      <trkpt lat="43.07828" lon="5.78158">
        <ele>-17.4</ele>
        <time>2022-07-28T10:12:40Z</time>
      </trkpt>
      <trkpt lat="43.07824" lon="5.78158">
        <ele>-17.6</ele>
        <time>2022-07-28T10:12:59Z</time>
      </trkpt>
      <trkpt lat="43.07826" lon="5.78158">
        <ele>-17.6</ele>
        <time>2022-07-28T10:13:13Z</time>
      </trkpt>
      <trkpt lat="43.07826" lon="5.7816">
        <ele>-17.6</ele>
        <time>2022-07-28T10:13:25Z</time>
      </trkpt>
      <trkpt lat="43.07824" lon="5.7816">
        <ele>-18.2</ele>
        <time>2022-07-28T10:13:35Z</time>
      </trkpt>
      <trkpt lat="43.07823" lon="5.78163">
        <ele>-18</ele>
        <time>2022-07-28T10:13:47Z</time>
      </trkpt>
      <trkpt lat="43.07824" lon="5.78169">
        <ele>-18</ele>
        <time>2022-07-28T10:13:59Z</time>
      </trkpt>
      <trkpt lat="43.07822" lon="5.78173">
        <ele>-17.8</ele>
        <time>2022-07-28T10:14:02Z</time>
      </trkpt>
      <trkpt lat="43.07818" lon="5.78185">
        <ele>-18</ele>
        <time>2022-07-28T10:14:10Z</time>
      </trkpt>
      <trkpt lat="43.07807" lon="5.78206">
        <ele>-18</ele>
        <time>2022-07-28T10:14:26Z</time>
      </trkpt>
      <trkpt lat="43.07806" lon="5.78207">
        <ele>-18</ele>
        <time>2022-07-28T10:14:27Z</time>
      </trkpt>
      <trkpt lat="43.07804" lon="5.7821">
        <ele>-18.2</ele>
        <time>2022-07-28T10:14:37Z</time>
      </trkpt>
      <trkpt lat="43.078" lon="5.78217">
        <ele>-17.8</ele>
        <time>2022-07-28T10:14:47Z</time>
      </trkpt>
      <trkpt lat="43.07793" lon="5.78223">
        <ele>-18</ele>
        <time>2022-07-28T10:14:59Z</time>
      </trkpt>
      <trkpt lat="43.07792" lon="5.78229">
        <ele>-18.2</ele>
        <time>2022-07-28T10:15:03Z</time>
      </trkpt>
      <trkpt lat="43.07791" lon="5.78239">
        <ele>-18.2</ele>
        <time>2022-07-28T10:15:10Z</time>
      </trkpt>
      <trkpt lat="43.0779" lon="5.78256">
        <ele>-18</ele>
        <time>2022-07-28T10:15:24Z</time>
      </trkpt>
      <trkpt lat="43.07792" lon="5.78277">
        <ele>-18</ele>
        <time>2022-07-28T10:15:40Z</time>
      </trkpt>
      <trkpt lat="43.07792" lon="5.7828">
        <ele>-17.8</ele>
        <time>2022-07-28T10:15:44Z</time>
      </trkpt>
      <trkpt lat="43.0779" lon="5.7828">
        <ele>-17.6</ele>
        <time>2022-07-28T10:15:50Z</time>
      </trkpt>
      <trkpt lat="43.07791" lon="5.78284">
        <ele>-17.4</ele>
        <time>2022-07-28T10:16:02Z</time>
      </trkpt>
      <trkpt lat="43.07791" lon="5.78288">
        <ele>-17.8</ele>
        <time>2022-07-28T10:16:16Z</time>
      </trkpt>
      <trkpt lat="43.07791" lon="5.78292">
        <ele>-17.4</ele>
        <time>2022-07-28T10:16:29Z</time>
      </trkpt>
      <trkpt lat="43.07794" lon="5.78308">
        <ele>-17</ele>
        <time>2022-07-28T10:16:41Z</time>
      </trkpt>
      <trkpt lat="43.07798" lon="5.78329">
        <ele>-17</ele>
        <time>2022-07-28T10:16:56Z</time>
      </trkpt>
      <trkpt lat="43.07792" lon="5.78341">
        <ele>-17.2</ele>
        <time>2022-07-28T10:17:08Z</time>
      </trkpt>
      <trkpt lat="43.07785" lon="5.78349">
        <ele>-16.8</ele>
        <time>2022-07-28T10:17:19Z</time>
      </trkpt>
      <trkpt lat="43.07784" lon="5.7835">
        <ele>-16.8</ele>
        <time>2022-07-28T10:17:21Z</time>
      </trkpt>
      <trkpt lat="43.07782" lon="5.78353">
        <ele>-17</ele>
        <time>2022-07-28T10:17:25Z</time>
      </trkpt>
      <trkpt lat="43.0778" lon="5.78355">
        <ele>-17</ele>
        <time>2022-07-28T10:17:28Z</time>
      </trkpt>
      <trkpt lat="43.07779" lon="5.78358">
        <ele>-16.8</ele>
        <time>2022-07-28T10:17:32Z</time>
      </trkpt>
      <trkpt lat="43.07779" lon="5.78359">
        <ele>-16.8</ele>
        <time>2022-07-28T10:17:33Z</time>
      </trkpt>
      <trkpt lat="43.07777" lon="5.78361">
        <ele>-16.6</ele>
        <time>2022-07-28T10:17:36Z</time>
      </trkpt>
      <trkpt lat="43.07776" lon="5.7836">
        <ele>-16.6</ele>
        <time>2022-07-28T10:17:42Z</time>
      </trkpt>
      <trkpt lat="43.07774" lon="5.78361">
        <ele>-16.6</ele>
        <time>2022-07-28T10:17:52Z</time>
      </trkpt>
      <trkpt lat="43.07771" lon="5.78366">
        <ele>-16.6</ele>
        <time>2022-07-28T10:17:59Z</time>
      </trkpt>
      <trkpt lat="43.0777" lon="5.78368">
        <ele>-16.6</ele>
        <time>2022-07-28T10:18:01Z</time>
      </trkpt>
      <trkpt lat="43.07768" lon="5.7837">
        <ele>-16.6</ele>
        <time>2022-07-28T10:18:04Z</time>
      </trkpt>
      <trkpt lat="43.07768" lon="5.78371">
        <ele>-16.6</ele>
        <time>2022-07-28T10:18:05Z</time>
      </trkpt>
      <trkpt lat="43.07768" lon="5.78372">
        <ele>-16.6</ele>
        <time>2022-07-28T10:18:06Z</time>
      </trkpt>
      <trkpt lat="43.07758" lon="5.78385">
        <ele>-16.6</ele>
        <time>2022-07-28T10:18:20Z</time>
      </trkpt>
      <trkpt lat="43.07748" lon="5.78398">
        <ele>-16.2</ele>
        <time>2022-07-28T10:18:34Z</time>
      </trkpt>
      <trkpt lat="43.07735" lon="5.7841">
        <ele>-16.2</ele>
        <time>2022-07-28T10:18:49Z</time>
      </trkpt>
      <trkpt lat="43.07722" lon="5.78422">
        <ele>-16.2</ele>
        <time>2022-07-28T10:19:03Z</time>
      </trkpt>
      <trkpt lat="43.0771" lon="5.78437">
        <ele>-16</ele>
        <time>2022-07-28T10:19:17Z</time>
      </trkpt>
      <trkpt lat="43.07696" lon="5.78453">
        <ele>-15.8</ele>
        <time>2022-07-28T10:19:33Z</time>
      </trkpt>
      <trkpt lat="43.07685" lon="5.78459">
        <ele>-15.8</ele>
        <time>2022-07-28T10:19:44Z</time>
      </trkpt>
      <trkpt lat="43.07683" lon="5.78459">
        <ele>-15.8</ele>
        <time>2022-07-28T10:19:46Z</time>
      </trkpt>
      <trkpt lat="43.07682" lon="5.78459">
        <ele>-15.8</ele>
        <time>2022-07-28T10:19:47Z</time>
      </trkpt>
      <trkpt lat="43.0768" lon="5.78463">
        <ele>-16</ele>
        <time>2022-07-28T10:19:56Z</time>
      </trkpt>
      <trkpt lat="43.0768" lon="5.78464">
        <ele>-15.6</ele>
        <time>2022-07-28T10:20:10Z</time>
      </trkpt>
      <trkpt lat="43.07679" lon="5.78465">
        <ele>-14.8</ele>
        <time>2022-07-28T10:20:21Z</time>
      </trkpt>
      <trkpt lat="43.07678" lon="5.78467">
        <ele>-15</ele>
        <time>2022-07-28T10:20:25Z</time>
      </trkpt>
      <trkpt lat="43.07675" lon="5.78469">
        <ele>-15.2</ele>
        <time>2022-07-28T10:20:38Z</time>
      </trkpt>
      <trkpt lat="43.07675" lon="5.7847">
        <ele>-15.6</ele>
        <time>2022-07-28T10:20:47Z</time>
      </trkpt>
      <trkpt lat="43.07675" lon="5.7847">
        <ele>-14</ele>
        <time>2022-07-28T12:32:59Z</time>
      </trkpt>
      <trkpt lat="43.07843" lon="5.78668">
        <ele>-14</ele>
        <time>2022-07-28T12:33:07Z</time>
      </trkpt>
      <trkpt lat="43.07843" lon="5.78669">
        <ele>-13.8</ele>
        <time>2022-07-28T12:33:11Z</time>
      </trkpt>
      <trkpt lat="43.07844" lon="5.78669">
        <ele>-14</ele>
        <time>2022-07-28T12:33:17Z</time>
      </trkpt>
      <trkpt lat="43.07844" lon="5.78677">
        <ele>-13.8</ele>
        <time>2022-07-28T12:33:34Z</time>
      </trkpt>
      <trkpt lat="43.07844" lon="5.78678">
        <ele>-13.8</ele>
        <time>2022-07-28T12:33:36Z</time>
      </trkpt>
      <trkpt lat="43.07843" lon="5.78678">
        <ele>-14.8</ele>
        <time>2022-07-28T12:33:40Z</time>
      </trkpt>
      <trkpt lat="43.07844" lon="5.78675">
        <ele>-15</ele>
        <time>2022-07-28T12:33:45Z</time>
      </trkpt>
      <trkpt lat="43.07848" lon="5.78663">
        <ele>-15.4</ele>
        <time>2022-07-28T12:33:57Z</time>
      </trkpt>
      <trkpt lat="43.07848" lon="5.78662">
        <ele>-15.4</ele>
        <time>2022-07-28T12:33:58Z</time>
      </trkpt>
      <trkpt lat="43.07846" lon="5.78656">
        <ele>-15.8</ele>
        <time>2022-07-28T12:34:06Z</time>
      </trkpt>
      <trkpt lat="43.07846" lon="5.78656">
        <ele>-15.8</ele>
        <time>2022-07-28T12:34:08Z</time>
      </trkpt>
      <trkpt lat="43.07847" lon="5.78657">
        <ele>-16</ele>
        <time>2022-07-28T12:34:23Z</time>
      </trkpt>
      <trkpt lat="43.07848" lon="5.78658">
        <ele>-16.8</ele>
        <time>2022-07-28T12:34:28Z</time>
      </trkpt>
      <trkpt lat="43.07847" lon="5.78656">
        <ele>-17</ele>
        <time>2022-07-28T12:34:39Z</time>
      </trkpt>
      <trkpt lat="43.07848" lon="5.78655">
        <ele>-16.4</ele>
        <time>2022-07-28T12:34:54Z</time>
      </trkpt>
      <trkpt lat="43.07848" lon="5.78655">
        <ele>-15.6</ele>
        <time>2022-07-28T12:35:06Z</time>
      </trkpt>
    </trkseg>
  </trk>
</gpx>